<?xml version="1.0" encoding="UTF-8" standalone="no" ?>
<gpx xmlns="http://www.topografix.com/GPX/1/1" xmlns:xsi="http://www.w3.org/2001/XMLSchema-instance" xsi:schemaLocation="http://www.topografix.com/GPX/1/1 http://www.topografix.com/GPX/1/1/gpx.xsd" version="1.1" creator="VisuGPX - https://www.visugpx.com">
  <metadata>
    <name>Awenne 01 MARCHE ADEPS 2016 (Avril)</name>
    <desc><![CDATA[MARCHE ADEPS AVEC CHOUPY ET LE CHIEN PARCOUR KÖ FACILE ET BIEN SYMPA ]]></desc>
  </metadata>
  <trk>
    <name><![CDATA[duo  choupy & scooby]]></name>
    <trkseg>
      <trkpt lat="50.07236" lon="5.30491">
        <ele>384</ele>
        <time>2013-05-05T05:59:11Z</time>
      </trkpt>
      <trkpt lat="50.07235" lon="5.30476">
        <ele>383</ele>
        <time>2013-05-05T05:59:21Z</time>
      </trkpt>
      <trkpt lat="50.07235" lon="5.30458">
        <ele>383</ele>
        <time>2013-05-05T05:59:31Z</time>
      </trkpt>
      <trkpt lat="50.07237" lon="5.30436">
        <ele>382</ele>
        <time>2013-05-05T05:59:41Z</time>
      </trkpt>
      <trkpt lat="50.07241" lon="5.30413">
        <ele>382</ele>
        <time>2013-05-05T05:59:51Z</time>
      </trkpt>
      <trkpt lat="50.07245" lon="5.30398">
        <ele>380</ele>
        <time>2013-05-05T06:00:01Z</time>
      </trkpt>
      <trkpt lat="50.07238" lon="5.30384">
        <ele>381</ele>
        <time>2013-05-05T06:00:11Z</time>
      </trkpt>
      <trkpt lat="50.07228" lon="5.30372">
        <ele>381</ele>
        <time>2013-05-05T06:00:21Z</time>
      </trkpt>
      <trkpt lat="50.07218" lon="5.30362">
        <ele>381</ele>
        <time>2013-05-05T06:00:31Z</time>
      </trkpt>
      <trkpt lat="50.07208" lon="5.30352">
        <ele>382</ele>
        <time>2013-05-05T06:00:41Z</time>
      </trkpt>
      <trkpt lat="50.07198" lon="5.30344">
        <ele>382</ele>
        <time>2013-05-05T06:00:51Z</time>
      </trkpt>
      <trkpt lat="50.07194" lon="5.30325">
        <ele>383</ele>
        <time>2013-05-05T06:01:01Z</time>
      </trkpt>
      <trkpt lat="50.07195" lon="5.30302">
        <ele>382</ele>
        <time>2013-05-05T06:01:11Z</time>
      </trkpt>
      <trkpt lat="50.07195" lon="5.3028">
        <ele>381</ele>
        <time>2013-05-05T06:01:21Z</time>
      </trkpt>
      <trkpt lat="50.07194" lon="5.30258">
        <ele>381</ele>
        <time>2013-05-05T06:01:31Z</time>
      </trkpt>
      <trkpt lat="50.07191" lon="5.30236">
        <ele>381</ele>
        <time>2013-05-05T06:01:41Z</time>
      </trkpt>
      <trkpt lat="50.07189" lon="5.30216">
        <ele>380</ele>
        <time>2013-05-05T06:01:52Z</time>
      </trkpt>
      <trkpt lat="50.07188" lon="5.30196">
        <ele>379</ele>
        <time>2013-05-05T06:02:02Z</time>
      </trkpt>
      <trkpt lat="50.07187" lon="5.30176">
        <ele>378</ele>
        <time>2013-05-05T06:02:12Z</time>
      </trkpt>
      <trkpt lat="50.07186" lon="5.30158">
        <ele>379</ele>
        <time>2013-05-05T06:02:22Z</time>
      </trkpt>
      <trkpt lat="50.07185" lon="5.3014">
        <ele>378</ele>
        <time>2013-05-05T06:02:32Z</time>
      </trkpt>
      <trkpt lat="50.07192" lon="5.30121">
        <ele>377</ele>
        <time>2013-05-05T06:02:42Z</time>
      </trkpt>
      <trkpt lat="50.07199" lon="5.30107">
        <ele>376</ele>
        <time>2013-05-05T06:02:52Z</time>
      </trkpt>
      <trkpt lat="50.07194" lon="5.30093">
        <ele>375</ele>
        <time>2013-05-05T06:03:02Z</time>
      </trkpt>
      <trkpt lat="50.07185" lon="5.30077">
        <ele>374</ele>
        <time>2013-05-05T06:03:12Z</time>
      </trkpt>
      <trkpt lat="50.07178" lon="5.30059">
        <ele>373</ele>
        <time>2013-05-05T06:03:22Z</time>
      </trkpt>
      <trkpt lat="50.07172" lon="5.3004">
        <ele>372</ele>
        <time>2013-05-05T06:03:32Z</time>
      </trkpt>
      <trkpt lat="50.07166" lon="5.30021">
        <ele>371</ele>
        <time>2013-05-05T06:03:42Z</time>
      </trkpt>
      <trkpt lat="50.07163" lon="5.30001">
        <ele>370</ele>
        <time>2013-05-05T06:03:52Z</time>
      </trkpt>
      <trkpt lat="50.07156" lon="5.29981">
        <ele>369</ele>
        <time>2013-05-05T06:04:03Z</time>
      </trkpt>
      <trkpt lat="50.07156" lon="5.29959">
        <ele>367</ele>
        <time>2013-05-05T06:04:13Z</time>
      </trkpt>
      <trkpt lat="50.07171" lon="5.29951">
        <ele>368</ele>
        <time>2013-05-05T06:04:23Z</time>
      </trkpt>
      <trkpt lat="50.07183" lon="5.29942">
        <ele>368</ele>
        <time>2013-05-05T06:04:33Z</time>
      </trkpt>
      <trkpt lat="50.07193" lon="5.29928">
        <ele>369</ele>
        <time>2013-05-05T06:04:43Z</time>
      </trkpt>
      <trkpt lat="50.07193" lon="5.29909">
        <ele>369</ele>
        <time>2013-05-05T06:04:53Z</time>
      </trkpt>
      <trkpt lat="50.07203" lon="5.29896">
        <ele>368</ele>
        <time>2013-05-05T06:05:03Z</time>
      </trkpt>
      <trkpt lat="50.07222" lon="5.29889">
        <ele>369</ele>
        <time>2013-05-05T06:05:13Z</time>
      </trkpt>
      <trkpt lat="50.07224" lon="5.29888">
        <ele>370</ele>
        <time>2013-05-05T06:05:23Z</time>
      </trkpt>
      <trkpt lat="50.07228" lon="5.29887">
        <ele>370</ele>
        <time>2013-05-05T06:05:33Z</time>
      </trkpt>
      <trkpt lat="50.07238" lon="5.29886">
        <ele>370</ele>
        <time>2013-05-05T06:05:43Z</time>
      </trkpt>
      <trkpt lat="50.0725" lon="5.29883">
        <ele>372</ele>
        <time>2013-05-05T06:05:53Z</time>
      </trkpt>
      <trkpt lat="50.07257" lon="5.29883">
        <ele>373</ele>
        <time>2013-05-05T06:06:03Z</time>
      </trkpt>
      <trkpt lat="50.07267" lon="5.2988">
        <ele>374</ele>
        <time>2013-05-05T06:06:13Z</time>
      </trkpt>
      <trkpt lat="50.07278" lon="5.29877">
        <ele>374</ele>
        <time>2013-05-05T06:06:23Z</time>
      </trkpt>
      <trkpt lat="50.07289" lon="5.29874">
        <ele>375</ele>
        <time>2013-05-05T06:06:33Z</time>
      </trkpt>
      <trkpt lat="50.07299" lon="5.29869">
        <ele>377</ele>
        <time>2013-05-05T06:06:43Z</time>
      </trkpt>
      <trkpt lat="50.07303" lon="5.29859">
        <ele>377</ele>
        <time>2013-05-05T06:06:53Z</time>
      </trkpt>
      <trkpt lat="50.07302" lon="5.29843">
        <ele>377</ele>
        <time>2013-05-05T06:07:03Z</time>
      </trkpt>
      <trkpt lat="50.07297" lon="5.29824">
        <ele>375</ele>
        <time>2013-05-05T06:07:13Z</time>
      </trkpt>
      <trkpt lat="50.07293" lon="5.29807">
        <ele>373</ele>
        <time>2013-05-05T06:07:24Z</time>
      </trkpt>
      <trkpt lat="50.07284" lon="5.29775">
        <ele>371</ele>
        <time>2013-05-05T06:07:34Z</time>
      </trkpt>
      <trkpt lat="50.0728" lon="5.29747">
        <ele>368</ele>
        <time>2013-05-05T06:07:44Z</time>
      </trkpt>
      <trkpt lat="50.07278" lon="5.29723">
        <ele>364</ele>
        <time>2013-05-05T06:07:54Z</time>
      </trkpt>
      <trkpt lat="50.07277" lon="5.29713">
        <ele>362</ele>
        <time>2013-05-05T06:08:04Z</time>
      </trkpt>
      <trkpt lat="50.07276" lon="5.29707">
        <ele>362</ele>
        <time>2013-05-05T06:08:14Z</time>
      </trkpt>
      <trkpt lat="50.07278" lon="5.29696">
        <ele>359</ele>
        <time>2013-05-05T06:08:25Z</time>
      </trkpt>
      <trkpt lat="50.07279" lon="5.29684">
        <ele>355</ele>
        <time>2013-05-05T06:08:35Z</time>
      </trkpt>
      <trkpt lat="50.07281" lon="5.29671">
        <ele>351</ele>
        <time>2013-05-05T06:08:45Z</time>
      </trkpt>
      <trkpt lat="50.07284" lon="5.29661">
        <ele>347</ele>
        <time>2013-05-05T06:08:55Z</time>
      </trkpt>
      <trkpt lat="50.07293" lon="5.29641">
        <ele>343</ele>
        <time>2013-05-05T06:09:05Z</time>
      </trkpt>
      <trkpt lat="50.07306" lon="5.29633">
        <ele>339</ele>
        <time>2013-05-05T06:09:15Z</time>
      </trkpt>
      <trkpt lat="50.07317" lon="5.29632">
        <ele>338</ele>
        <time>2013-05-05T06:09:26Z</time>
      </trkpt>
      <trkpt lat="50.07328" lon="5.29632">
        <ele>338</ele>
        <time>2013-05-05T06:09:36Z</time>
      </trkpt>
      <trkpt lat="50.07343" lon="5.29634">
        <ele>336</ele>
        <time>2013-05-05T06:09:46Z</time>
      </trkpt>
      <trkpt lat="50.07362" lon="5.29633">
        <ele>335</ele>
        <time>2013-05-05T06:09:56Z</time>
      </trkpt>
      <trkpt lat="50.07376" lon="5.29634">
        <ele>334</ele>
        <time>2013-05-05T06:10:06Z</time>
      </trkpt>
      <trkpt lat="50.0739" lon="5.29636">
        <ele>334</ele>
        <time>2013-05-05T06:10:16Z</time>
      </trkpt>
      <trkpt lat="50.07404" lon="5.29635">
        <ele>334</ele>
        <time>2013-05-05T06:10:26Z</time>
      </trkpt>
      <trkpt lat="50.07413" lon="5.29638">
        <ele>333</ele>
        <time>2013-05-05T06:10:36Z</time>
      </trkpt>
      <trkpt lat="50.07426" lon="5.29642">
        <ele>333</ele>
        <time>2013-05-05T06:10:46Z</time>
      </trkpt>
      <trkpt lat="50.0744" lon="5.29645">
        <ele>333</ele>
        <time>2013-05-05T06:10:56Z</time>
      </trkpt>
      <trkpt lat="50.07453" lon="5.29647">
        <ele>333</ele>
        <time>2013-05-05T06:11:06Z</time>
      </trkpt>
      <trkpt lat="50.07468" lon="5.2965">
        <ele>334</ele>
        <time>2013-05-05T06:11:16Z</time>
      </trkpt>
      <trkpt lat="50.07482" lon="5.29654">
        <ele>333</ele>
        <time>2013-05-05T06:11:26Z</time>
      </trkpt>
      <trkpt lat="50.07494" lon="5.29657">
        <ele>333</ele>
        <time>2013-05-05T06:11:37Z</time>
      </trkpt>
      <trkpt lat="50.0751" lon="5.29658">
        <ele>333</ele>
        <time>2013-05-05T06:11:47Z</time>
      </trkpt>
      <trkpt lat="50.07525" lon="5.29659">
        <ele>332</ele>
        <time>2013-05-05T06:11:57Z</time>
      </trkpt>
      <trkpt lat="50.07539" lon="5.29657">
        <ele>332</ele>
        <time>2013-05-05T06:12:07Z</time>
      </trkpt>
      <trkpt lat="50.07553" lon="5.29655">
        <ele>331</ele>
        <time>2013-05-05T06:12:17Z</time>
      </trkpt>
      <trkpt lat="50.07567" lon="5.29651">
        <ele>331</ele>
        <time>2013-05-05T06:12:27Z</time>
      </trkpt>
      <trkpt lat="50.07579" lon="5.29643">
        <ele>330</ele>
        <time>2013-05-05T06:12:37Z</time>
      </trkpt>
      <trkpt lat="50.07589" lon="5.29642">
        <ele>329</ele>
        <time>2013-05-05T06:12:47Z</time>
      </trkpt>
      <trkpt lat="50.07596" lon="5.2964">
        <ele>328</ele>
        <time>2013-05-05T06:12:57Z</time>
      </trkpt>
      <trkpt lat="50.0761" lon="5.29633">
        <ele>327</ele>
        <time>2013-05-05T06:13:07Z</time>
      </trkpt>
      <trkpt lat="50.07632" lon="5.2962">
        <ele>323</ele>
        <time>2013-05-05T06:13:17Z</time>
      </trkpt>
      <trkpt lat="50.07645" lon="5.29608">
        <ele>321</ele>
        <time>2013-05-05T06:13:27Z</time>
      </trkpt>
      <trkpt lat="50.07642" lon="5.296">
        <ele>321</ele>
        <time>2013-05-05T06:13:37Z</time>
      </trkpt>
      <trkpt lat="50.07631" lon="5.29602">
        <ele>321</ele>
        <time>2013-05-05T06:13:47Z</time>
      </trkpt>
      <trkpt lat="50.0762" lon="5.29604">
        <ele>322</ele>
        <time>2013-05-05T06:13:57Z</time>
      </trkpt>
      <trkpt lat="50.07605" lon="5.29607">
        <ele>321</ele>
        <time>2013-05-05T06:14:08Z</time>
      </trkpt>
      <trkpt lat="50.07592" lon="5.2961">
        <ele>322</ele>
        <time>2013-05-05T06:14:18Z</time>
      </trkpt>
      <trkpt lat="50.07579" lon="5.29612">
        <ele>322</ele>
        <time>2013-05-05T06:14:28Z</time>
      </trkpt>
      <trkpt lat="50.07568" lon="5.29608">
        <ele>323</ele>
        <time>2013-05-05T06:14:38Z</time>
      </trkpt>
      <trkpt lat="50.07567" lon="5.29602">
        <ele>323</ele>
        <time>2013-05-05T06:14:48Z</time>
      </trkpt>
      <trkpt lat="50.07558" lon="5.29598">
        <ele>323</ele>
        <time>2013-05-05T06:14:58Z</time>
      </trkpt>
      <trkpt lat="50.07544" lon="5.29597">
        <ele>323</ele>
        <time>2013-05-05T06:15:08Z</time>
      </trkpt>
      <trkpt lat="50.07533" lon="5.29591">
        <ele>324</ele>
        <time>2013-05-05T06:15:18Z</time>
      </trkpt>
      <trkpt lat="50.07519" lon="5.29591">
        <ele>324</ele>
        <time>2013-05-05T06:15:28Z</time>
      </trkpt>
      <trkpt lat="50.07514" lon="5.2958">
        <ele>325</ele>
        <time>2013-05-05T06:15:38Z</time>
      </trkpt>
      <trkpt lat="50.07515" lon="5.29569">
        <ele>326</ele>
        <time>2013-05-05T06:15:48Z</time>
      </trkpt>
      <trkpt lat="50.07518" lon="5.29561">
        <ele>327</ele>
        <time>2013-05-05T06:15:58Z</time>
      </trkpt>
      <trkpt lat="50.07518" lon="5.29559">
        <ele>327</ele>
        <time>2013-05-05T06:16:08Z</time>
      </trkpt>
      <trkpt lat="50.07518" lon="5.2956">
        <ele>327</ele>
        <time>2013-05-05T06:16:18Z</time>
      </trkpt>
      <trkpt lat="50.07518" lon="5.29559">
        <ele>327</ele>
        <time>2013-05-05T06:16:28Z</time>
      </trkpt>
      <trkpt lat="50.0752" lon="5.29553">
        <ele>328</ele>
        <time>2013-05-05T06:16:39Z</time>
      </trkpt>
      <trkpt lat="50.07525" lon="5.29544">
        <ele>329</ele>
        <time>2013-05-05T06:16:49Z</time>
      </trkpt>
      <trkpt lat="50.07529" lon="5.29531">
        <ele>331</ele>
        <time>2013-05-05T06:16:59Z</time>
      </trkpt>
      <trkpt lat="50.07531" lon="5.29519">
        <ele>333</ele>
        <time>2013-05-05T06:17:09Z</time>
      </trkpt>
      <trkpt lat="50.07533" lon="5.29502">
        <ele>334</ele>
        <time>2013-05-05T06:17:19Z</time>
      </trkpt>
      <trkpt lat="50.07533" lon="5.29487">
        <ele>336</ele>
        <time>2013-05-05T06:17:29Z</time>
      </trkpt>
      <trkpt lat="50.07534" lon="5.29469">
        <ele>338</ele>
        <time>2013-05-05T06:17:39Z</time>
      </trkpt>
      <trkpt lat="50.07537" lon="5.29452">
        <ele>340</ele>
        <time>2013-05-05T06:17:49Z</time>
      </trkpt>
      <trkpt lat="50.07539" lon="5.29436">
        <ele>341</ele>
        <time>2013-05-05T06:17:59Z</time>
      </trkpt>
      <trkpt lat="50.0754" lon="5.29423">
        <ele>344</ele>
        <time>2013-05-05T06:18:09Z</time>
      </trkpt>
      <trkpt lat="50.07539" lon="5.29412">
        <ele>347</ele>
        <time>2013-05-05T06:18:19Z</time>
      </trkpt>
      <trkpt lat="50.0754" lon="5.29402">
        <ele>349</ele>
        <time>2013-05-05T06:18:29Z</time>
      </trkpt>
      <trkpt lat="50.07541" lon="5.29393">
        <ele>351</ele>
        <time>2013-05-05T06:18:39Z</time>
      </trkpt>
      <trkpt lat="50.07543" lon="5.29382">
        <ele>354</ele>
        <time>2013-05-05T06:18:49Z</time>
      </trkpt>
      <trkpt lat="50.07545" lon="5.29373">
        <ele>355</ele>
        <time>2013-05-05T06:18:59Z</time>
      </trkpt>
      <trkpt lat="50.07549" lon="5.29364">
        <ele>357</ele>
        <time>2013-05-05T06:19:09Z</time>
      </trkpt>
      <trkpt lat="50.07552" lon="5.29355">
        <ele>359</ele>
        <time>2013-05-05T06:19:19Z</time>
      </trkpt>
      <trkpt lat="50.07553" lon="5.29343">
        <ele>361</ele>
        <time>2013-05-05T06:19:30Z</time>
      </trkpt>
      <trkpt lat="50.07555" lon="5.29333">
        <ele>362</ele>
        <time>2013-05-05T06:19:40Z</time>
      </trkpt>
      <trkpt lat="50.0756" lon="5.29323">
        <ele>364</ele>
        <time>2013-05-05T06:19:50Z</time>
      </trkpt>
      <trkpt lat="50.07565" lon="5.2931">
        <ele>365</ele>
        <time>2013-05-05T06:20:00Z</time>
      </trkpt>
      <trkpt lat="50.07572" lon="5.29298">
        <ele>366</ele>
        <time>2013-05-05T06:20:10Z</time>
      </trkpt>
      <trkpt lat="50.07574" lon="5.29291">
        <ele>367</ele>
        <time>2013-05-05T06:20:20Z</time>
      </trkpt>
      <trkpt lat="50.07578" lon="5.29293">
        <ele>368</ele>
        <time>2013-05-05T06:20:30Z</time>
      </trkpt>
      <trkpt lat="50.07582" lon="5.29296">
        <ele>368</ele>
        <time>2013-05-05T06:20:40Z</time>
      </trkpt>
      <trkpt lat="50.07585" lon="5.29297">
        <ele>368</ele>
        <time>2013-05-05T06:20:50Z</time>
      </trkpt>
      <trkpt lat="50.07587" lon="5.29296">
        <ele>368</ele>
        <time>2013-05-05T06:21:00Z</time>
      </trkpt>
      <trkpt lat="50.07585" lon="5.29293">
        <ele>368</ele>
        <time>2013-05-05T06:21:10Z</time>
      </trkpt>
      <trkpt lat="50.07584" lon="5.2929">
        <ele>368</ele>
        <time>2013-05-05T06:21:20Z</time>
      </trkpt>
      <trkpt lat="50.07584" lon="5.2929">
        <ele>368</ele>
        <time>2013-05-05T06:21:30Z</time>
      </trkpt>
      <trkpt lat="50.07584" lon="5.29291">
        <ele>368</ele>
        <time>2013-05-05T06:21:40Z</time>
      </trkpt>
      <trkpt lat="50.07586" lon="5.29291">
        <ele>368</ele>
        <time>2013-05-05T06:21:50Z</time>
      </trkpt>
      <trkpt lat="50.07589" lon="5.29291">
        <ele>367</ele>
        <time>2013-05-05T06:22:01Z</time>
      </trkpt>
      <trkpt lat="50.07591" lon="5.29295">
        <ele>368</ele>
        <time>2013-05-05T06:22:11Z</time>
      </trkpt>
      <trkpt lat="50.0759" lon="5.29299">
        <ele>367</ele>
        <time>2013-05-05T06:22:21Z</time>
      </trkpt>
      <trkpt lat="50.07589" lon="5.29305">
        <ele>367</ele>
        <time>2013-05-05T06:22:31Z</time>
      </trkpt>
      <trkpt lat="50.07588" lon="5.29308">
        <ele>367</ele>
        <time>2013-05-05T06:22:41Z</time>
      </trkpt>
      <trkpt lat="50.07589" lon="5.29309">
        <ele>367</ele>
        <time>2013-05-05T06:22:51Z</time>
      </trkpt>
      <trkpt lat="50.0759" lon="5.29309">
        <ele>367</ele>
        <time>2013-05-05T06:23:01Z</time>
      </trkpt>
      <trkpt lat="50.07589" lon="5.29309">
        <ele>367</ele>
        <time>2013-05-05T06:23:11Z</time>
      </trkpt>
      <trkpt lat="50.07592" lon="5.29304">
        <ele>367</ele>
        <time>2013-05-05T06:23:21Z</time>
      </trkpt>
      <trkpt lat="50.07597" lon="5.29298">
        <ele>369</ele>
        <time>2013-05-05T06:23:31Z</time>
      </trkpt>
      <trkpt lat="50.07605" lon="5.29292">
        <ele>370</ele>
        <time>2013-05-05T06:23:41Z</time>
      </trkpt>
      <trkpt lat="50.07616" lon="5.29288">
        <ele>371</ele>
        <time>2013-05-05T06:23:51Z</time>
      </trkpt>
      <trkpt lat="50.07626" lon="5.29288">
        <ele>371</ele>
        <time>2013-05-05T06:24:01Z</time>
      </trkpt>
      <trkpt lat="50.07636" lon="5.2929">
        <ele>373</ele>
        <time>2013-05-05T06:24:11Z</time>
      </trkpt>
      <trkpt lat="50.07648" lon="5.29293">
        <ele>374</ele>
        <time>2013-05-05T06:24:21Z</time>
      </trkpt>
      <trkpt lat="50.07658" lon="5.29294">
        <ele>375</ele>
        <time>2013-05-05T06:24:31Z</time>
      </trkpt>
      <trkpt lat="50.0767" lon="5.29291">
        <ele>376</ele>
        <time>2013-05-05T06:24:41Z</time>
      </trkpt>
      <trkpt lat="50.07684" lon="5.29289">
        <ele>377</ele>
        <time>2013-05-05T06:24:52Z</time>
      </trkpt>
      <trkpt lat="50.07695" lon="5.29283">
        <ele>378</ele>
        <time>2013-05-05T06:25:02Z</time>
      </trkpt>
      <trkpt lat="50.07702" lon="5.29275">
        <ele>380</ele>
        <time>2013-05-05T06:25:12Z</time>
      </trkpt>
      <trkpt lat="50.0771" lon="5.29267">
        <ele>381</ele>
        <time>2013-05-05T06:25:22Z</time>
      </trkpt>
      <trkpt lat="50.07721" lon="5.29262">
        <ele>382</ele>
        <time>2013-05-05T06:25:32Z</time>
      </trkpt>
      <trkpt lat="50.07731" lon="5.29256">
        <ele>384</ele>
        <time>2013-05-05T06:25:42Z</time>
      </trkpt>
      <trkpt lat="50.0774" lon="5.29249">
        <ele>385</ele>
        <time>2013-05-05T06:25:52Z</time>
      </trkpt>
      <trkpt lat="50.07748" lon="5.29241">
        <ele>386</ele>
        <time>2013-05-05T06:26:02Z</time>
      </trkpt>
      <trkpt lat="50.07755" lon="5.29235">
        <ele>387</ele>
        <time>2013-05-05T06:26:12Z</time>
      </trkpt>
      <trkpt lat="50.07762" lon="5.29227">
        <ele>389</ele>
        <time>2013-05-05T06:26:22Z</time>
      </trkpt>
      <trkpt lat="50.07765" lon="5.2922">
        <ele>390</ele>
        <time>2013-05-05T06:26:32Z</time>
      </trkpt>
      <trkpt lat="50.07768" lon="5.29208">
        <ele>391</ele>
        <time>2013-05-05T06:26:42Z</time>
      </trkpt>
      <trkpt lat="50.07773" lon="5.29194">
        <ele>393</ele>
        <time>2013-05-05T06:26:52Z</time>
      </trkpt>
      <trkpt lat="50.07777" lon="5.29181">
        <ele>393</ele>
        <time>2013-05-05T06:27:03Z</time>
      </trkpt>
      <trkpt lat="50.07776" lon="5.29168">
        <ele>395</ele>
        <time>2013-05-05T06:27:13Z</time>
      </trkpt>
      <trkpt lat="50.07772" lon="5.2916">
        <ele>395</ele>
        <time>2013-05-05T06:27:23Z</time>
      </trkpt>
      <trkpt lat="50.07769" lon="5.29148">
        <ele>397</ele>
        <time>2013-05-05T06:27:33Z</time>
      </trkpt>
      <trkpt lat="50.07764" lon="5.29137">
        <ele>397</ele>
        <time>2013-05-05T06:27:43Z</time>
      </trkpt>
      <trkpt lat="50.07758" lon="5.29125">
        <ele>398</ele>
        <time>2013-05-05T06:27:53Z</time>
      </trkpt>
      <trkpt lat="50.07753" lon="5.29112">
        <ele>399</ele>
        <time>2013-05-05T06:28:03Z</time>
      </trkpt>
      <trkpt lat="50.07751" lon="5.29096">
        <ele>400</ele>
        <time>2013-05-05T06:28:13Z</time>
      </trkpt>
      <trkpt lat="50.07747" lon="5.29079">
        <ele>400</ele>
        <time>2013-05-05T06:28:23Z</time>
      </trkpt>
      <trkpt lat="50.07739" lon="5.29067">
        <ele>401</ele>
        <time>2013-05-05T06:28:33Z</time>
      </trkpt>
      <trkpt lat="50.0773" lon="5.29055">
        <ele>402</ele>
        <time>2013-05-05T06:28:43Z</time>
      </trkpt>
      <trkpt lat="50.0772" lon="5.29047">
        <ele>403</ele>
        <time>2013-05-05T06:28:53Z</time>
      </trkpt>
      <trkpt lat="50.07712" lon="5.29037">
        <ele>403</ele>
        <time>2013-05-05T06:29:03Z</time>
      </trkpt>
      <trkpt lat="50.07703" lon="5.2903">
        <ele>403</ele>
        <time>2013-05-05T06:29:13Z</time>
      </trkpt>
      <trkpt lat="50.07694" lon="5.29023">
        <ele>403</ele>
        <time>2013-05-05T06:29:24Z</time>
      </trkpt>
      <trkpt lat="50.07684" lon="5.29015">
        <ele>403</ele>
        <time>2013-05-05T06:29:34Z</time>
      </trkpt>
      <trkpt lat="50.07674" lon="5.29003">
        <ele>403</ele>
        <time>2013-05-05T06:29:44Z</time>
      </trkpt>
      <trkpt lat="50.07664" lon="5.28994">
        <ele>403</ele>
        <time>2013-05-05T06:29:54Z</time>
      </trkpt>
      <trkpt lat="50.07655" lon="5.28987">
        <ele>403</ele>
        <time>2013-05-05T06:30:04Z</time>
      </trkpt>
      <trkpt lat="50.07646" lon="5.28976">
        <ele>402</ele>
        <time>2013-05-05T06:30:14Z</time>
      </trkpt>
      <trkpt lat="50.07639" lon="5.2896">
        <ele>401</ele>
        <time>2013-05-05T06:30:24Z</time>
      </trkpt>
      <trkpt lat="50.07639" lon="5.28937">
        <ele>402</ele>
        <time>2013-05-05T06:30:34Z</time>
      </trkpt>
      <trkpt lat="50.07639" lon="5.28916">
        <ele>404</ele>
        <time>2013-05-05T06:30:44Z</time>
      </trkpt>
      <trkpt lat="50.0764" lon="5.28894">
        <ele>405</ele>
        <time>2013-05-05T06:30:55Z</time>
      </trkpt>
      <trkpt lat="50.07641" lon="5.28869">
        <ele>406</ele>
        <time>2013-05-05T06:31:05Z</time>
      </trkpt>
      <trkpt lat="50.07644" lon="5.28849">
        <ele>407</ele>
        <time>2013-05-05T06:31:15Z</time>
      </trkpt>
      <trkpt lat="50.07649" lon="5.28834">
        <ele>408</ele>
        <time>2013-05-05T06:31:25Z</time>
      </trkpt>
      <trkpt lat="50.0765" lon="5.28819">
        <ele>410</ele>
        <time>2013-05-05T06:31:35Z</time>
      </trkpt>
      <trkpt lat="50.07652" lon="5.28804">
        <ele>410</ele>
        <time>2013-05-05T06:31:45Z</time>
      </trkpt>
      <trkpt lat="50.07651" lon="5.28798">
        <ele>411</ele>
        <time>2013-05-05T06:31:55Z</time>
      </trkpt>
      <trkpt lat="50.07637" lon="5.28785">
        <ele>410</ele>
        <time>2013-05-05T06:32:05Z</time>
      </trkpt>
      <trkpt lat="50.07613" lon="5.28775">
        <ele>408</ele>
        <time>2013-05-05T06:32:15Z</time>
      </trkpt>
      <trkpt lat="50.07584" lon="5.28768">
        <ele>406</ele>
        <time>2013-05-05T06:32:25Z</time>
      </trkpt>
      <trkpt lat="50.07565" lon="5.28759">
        <ele>406</ele>
        <time>2013-05-05T06:32:35Z</time>
      </trkpt>
      <trkpt lat="50.0755" lon="5.28752">
        <ele>405</ele>
        <time>2013-05-05T06:32:45Z</time>
      </trkpt>
      <trkpt lat="50.07537" lon="5.28747">
        <ele>405</ele>
        <time>2013-05-05T06:32:55Z</time>
      </trkpt>
      <trkpt lat="50.07525" lon="5.28743">
        <ele>405</ele>
        <time>2013-05-05T06:33:05Z</time>
      </trkpt>
      <trkpt lat="50.07513" lon="5.2874">
        <ele>405</ele>
        <time>2013-05-05T06:33:15Z</time>
      </trkpt>
      <trkpt lat="50.07499" lon="5.28735">
        <ele>404</ele>
        <time>2013-05-05T06:33:26Z</time>
      </trkpt>
      <trkpt lat="50.07487" lon="5.28729">
        <ele>404</ele>
        <time>2013-05-05T06:33:36Z</time>
      </trkpt>
      <trkpt lat="50.07475" lon="5.28725">
        <ele>404</ele>
        <time>2013-05-05T06:33:46Z</time>
      </trkpt>
      <trkpt lat="50.07464" lon="5.28724">
        <ele>403</ele>
        <time>2013-05-05T06:33:56Z</time>
      </trkpt>
      <trkpt lat="50.07454" lon="5.28726">
        <ele>403</ele>
        <time>2013-05-05T06:34:06Z</time>
      </trkpt>
      <trkpt lat="50.07442" lon="5.2873">
        <ele>404</ele>
        <time>2013-05-05T06:34:16Z</time>
      </trkpt>
      <trkpt lat="50.07431" lon="5.28733">
        <ele>404</ele>
        <time>2013-05-05T06:34:26Z</time>
      </trkpt>
      <trkpt lat="50.07418" lon="5.28737">
        <ele>404</ele>
        <time>2013-05-05T06:34:36Z</time>
      </trkpt>
      <trkpt lat="50.07406" lon="5.28742">
        <ele>403</ele>
        <time>2013-05-05T06:34:46Z</time>
      </trkpt>
      <trkpt lat="50.07393" lon="5.28749">
        <ele>404</ele>
        <time>2013-05-05T06:34:56Z</time>
      </trkpt>
      <trkpt lat="50.0738" lon="5.28756">
        <ele>404</ele>
        <time>2013-05-05T06:35:06Z</time>
      </trkpt>
      <trkpt lat="50.07365" lon="5.28761">
        <ele>405</ele>
        <time>2013-05-05T06:35:16Z</time>
      </trkpt>
      <trkpt lat="50.07354" lon="5.28762">
        <ele>406</ele>
        <time>2013-05-05T06:35:26Z</time>
      </trkpt>
      <trkpt lat="50.07343" lon="5.28763">
        <ele>406</ele>
        <time>2013-05-05T06:35:36Z</time>
      </trkpt>
      <trkpt lat="50.07336" lon="5.2876">
        <ele>406</ele>
        <time>2013-05-05T06:35:46Z</time>
      </trkpt>
      <trkpt lat="50.07324" lon="5.28756">
        <ele>406</ele>
        <time>2013-05-05T06:35:57Z</time>
      </trkpt>
      <trkpt lat="50.07294" lon="5.2875">
        <ele>405</ele>
        <time>2013-05-05T06:36:07Z</time>
      </trkpt>
      <trkpt lat="50.07267" lon="5.28741">
        <ele>404</ele>
        <time>2013-05-05T06:36:17Z</time>
      </trkpt>
      <trkpt lat="50.07252" lon="5.28735">
        <ele>404</ele>
        <time>2013-05-05T06:36:27Z</time>
      </trkpt>
      <trkpt lat="50.07241" lon="5.2873">
        <ele>403</ele>
        <time>2013-05-05T06:36:37Z</time>
      </trkpt>
      <trkpt lat="50.07232" lon="5.28726">
        <ele>402</ele>
        <time>2013-05-05T06:36:47Z</time>
      </trkpt>
      <trkpt lat="50.07219" lon="5.28718">
        <ele>402</ele>
        <time>2013-05-05T06:36:57Z</time>
      </trkpt>
      <trkpt lat="50.07204" lon="5.28712">
        <ele>401</ele>
        <time>2013-05-05T06:37:07Z</time>
      </trkpt>
      <trkpt lat="50.07189" lon="5.28704">
        <ele>400</ele>
        <time>2013-05-05T06:37:17Z</time>
      </trkpt>
      <trkpt lat="50.07177" lon="5.28695">
        <ele>399</ele>
        <time>2013-05-05T06:37:27Z</time>
      </trkpt>
      <trkpt lat="50.07164" lon="5.28688">
        <ele>399</ele>
        <time>2013-05-05T06:37:37Z</time>
      </trkpt>
      <trkpt lat="50.0715" lon="5.2868">
        <ele>398</ele>
        <time>2013-05-05T06:37:47Z</time>
      </trkpt>
      <trkpt lat="50.07137" lon="5.28671">
        <ele>397</ele>
        <time>2013-05-05T06:37:57Z</time>
      </trkpt>
      <trkpt lat="50.07123" lon="5.28661">
        <ele>396</ele>
        <time>2013-05-05T06:38:07Z</time>
      </trkpt>
      <trkpt lat="50.0711" lon="5.2865">
        <ele>395</ele>
        <time>2013-05-05T06:38:17Z</time>
      </trkpt>
      <trkpt lat="50.07099" lon="5.28638">
        <ele>394</ele>
        <time>2013-05-05T06:38:27Z</time>
      </trkpt>
      <trkpt lat="50.07088" lon="5.28624">
        <ele>394</ele>
        <time>2013-05-05T06:38:37Z</time>
      </trkpt>
      <trkpt lat="50.07076" lon="5.28612">
        <ele>393</ele>
        <time>2013-05-05T06:38:48Z</time>
      </trkpt>
      <trkpt lat="50.07063" lon="5.28605">
        <ele>392</ele>
        <time>2013-05-05T06:38:58Z</time>
      </trkpt>
      <trkpt lat="50.0705" lon="5.28601">
        <ele>392</ele>
        <time>2013-05-05T06:39:08Z</time>
      </trkpt>
      <trkpt lat="50.07037" lon="5.28595">
        <ele>392</ele>
        <time>2013-05-05T06:39:18Z</time>
      </trkpt>
      <trkpt lat="50.07025" lon="5.28587">
        <ele>392</ele>
        <time>2013-05-05T06:39:28Z</time>
      </trkpt>
      <trkpt lat="50.07014" lon="5.28581">
        <ele>392</ele>
        <time>2013-05-05T06:39:38Z</time>
      </trkpt>
      <trkpt lat="50.07006" lon="5.28579">
        <ele>391</ele>
        <time>2013-05-05T06:39:48Z</time>
      </trkpt>
      <trkpt lat="50.06995" lon="5.2857">
        <ele>391</ele>
        <time>2013-05-05T06:39:58Z</time>
      </trkpt>
      <trkpt lat="50.06982" lon="5.28564">
        <ele>392</ele>
        <time>2013-05-05T06:40:08Z</time>
      </trkpt>
      <trkpt lat="50.06972" lon="5.28561">
        <ele>391</ele>
        <time>2013-05-05T06:40:18Z</time>
      </trkpt>
      <trkpt lat="50.0696" lon="5.28557">
        <ele>392</ele>
        <time>2013-05-05T06:40:29Z</time>
      </trkpt>
      <trkpt lat="50.06949" lon="5.28555">
        <ele>392</ele>
        <time>2013-05-05T06:40:39Z</time>
      </trkpt>
      <trkpt lat="50.06936" lon="5.28554">
        <ele>392</ele>
        <time>2013-05-05T06:40:49Z</time>
      </trkpt>
      <trkpt lat="50.06923" lon="5.28553">
        <ele>392</ele>
        <time>2013-05-05T06:40:59Z</time>
      </trkpt>
      <trkpt lat="50.0691" lon="5.28552">
        <ele>392</ele>
        <time>2013-05-05T06:41:09Z</time>
      </trkpt>
      <trkpt lat="50.06898" lon="5.28553">
        <ele>392</ele>
        <time>2013-05-05T06:41:19Z</time>
      </trkpt>
      <trkpt lat="50.06886" lon="5.28553">
        <ele>391</ele>
        <time>2013-05-05T06:41:29Z</time>
      </trkpt>
      <trkpt lat="50.06875" lon="5.28554">
        <ele>392</ele>
        <time>2013-05-05T06:41:39Z</time>
      </trkpt>
      <trkpt lat="50.06873" lon="5.28553">
        <ele>392</ele>
        <time>2013-05-05T06:41:49Z</time>
      </trkpt>
      <trkpt lat="50.0687" lon="5.28556">
        <ele>392</ele>
        <time>2013-05-05T06:41:59Z</time>
      </trkpt>
      <trkpt lat="50.06862" lon="5.28558">
        <ele>391</ele>
        <time>2013-05-05T06:42:09Z</time>
      </trkpt>
      <trkpt lat="50.0685" lon="5.28561">
        <ele>392</ele>
        <time>2013-05-05T06:42:19Z</time>
      </trkpt>
      <trkpt lat="50.06839" lon="5.28565">
        <ele>392</ele>
        <time>2013-05-05T06:42:29Z</time>
      </trkpt>
      <trkpt lat="50.06825" lon="5.28571">
        <ele>392</ele>
        <time>2013-05-05T06:42:40Z</time>
      </trkpt>
      <trkpt lat="50.06815" lon="5.28569">
        <ele>393</ele>
        <time>2013-05-05T06:42:50Z</time>
      </trkpt>
      <trkpt lat="50.06811" lon="5.28569">
        <ele>393</ele>
        <time>2013-05-05T06:43:00Z</time>
      </trkpt>
      <trkpt lat="50.06806" lon="5.28559">
        <ele>393</ele>
        <time>2013-05-05T06:43:10Z</time>
      </trkpt>
      <trkpt lat="50.06803" lon="5.28543">
        <ele>395</ele>
        <time>2013-05-05T06:43:21Z</time>
      </trkpt>
      <trkpt lat="50.06799" lon="5.28526">
        <ele>396</ele>
        <time>2013-05-05T06:43:31Z</time>
      </trkpt>
      <trkpt lat="50.06794" lon="5.28509">
        <ele>397</ele>
        <time>2013-05-05T06:43:41Z</time>
      </trkpt>
      <trkpt lat="50.06789" lon="5.28495">
        <ele>398</ele>
        <time>2013-05-05T06:43:51Z</time>
      </trkpt>
      <trkpt lat="50.06781" lon="5.2848">
        <ele>399</ele>
        <time>2013-05-05T06:44:01Z</time>
      </trkpt>
      <trkpt lat="50.06771" lon="5.2847">
        <ele>399</ele>
        <time>2013-05-05T06:44:11Z</time>
      </trkpt>
      <trkpt lat="50.06763" lon="5.28458">
        <ele>400</ele>
        <time>2013-05-05T06:44:21Z</time>
      </trkpt>
      <trkpt lat="50.06754" lon="5.28449">
        <ele>401</ele>
        <time>2013-05-05T06:44:31Z</time>
      </trkpt>
      <trkpt lat="50.06745" lon="5.28438">
        <ele>402</ele>
        <time>2013-05-05T06:44:41Z</time>
      </trkpt>
      <trkpt lat="50.06736" lon="5.28427">
        <ele>402</ele>
        <time>2013-05-05T06:44:51Z</time>
      </trkpt>
      <trkpt lat="50.06728" lon="5.28415">
        <ele>402</ele>
        <time>2013-05-05T06:45:01Z</time>
      </trkpt>
      <trkpt lat="50.06725" lon="5.28412">
        <ele>403</ele>
        <time>2013-05-05T06:45:11Z</time>
      </trkpt>
      <trkpt lat="50.06716" lon="5.28398">
        <ele>403</ele>
        <time>2013-05-05T06:45:21Z</time>
      </trkpt>
      <trkpt lat="50.06704" lon="5.28384">
        <ele>404</ele>
        <time>2013-05-05T06:45:31Z</time>
      </trkpt>
      <trkpt lat="50.06705" lon="5.28368">
        <ele>403</ele>
        <time>2013-05-05T06:45:41Z</time>
      </trkpt>
      <trkpt lat="50.06718" lon="5.28362">
        <ele>402</ele>
        <time>2013-05-05T06:45:51Z</time>
      </trkpt>
      <trkpt lat="50.06728" lon="5.28354">
        <ele>400</ele>
        <time>2013-05-05T06:46:01Z</time>
      </trkpt>
      <trkpt lat="50.06741" lon="5.28349">
        <ele>399</ele>
        <time>2013-05-05T06:46:11Z</time>
      </trkpt>
      <trkpt lat="50.06753" lon="5.28344">
        <ele>398</ele>
        <time>2013-05-05T06:46:22Z</time>
      </trkpt>
      <trkpt lat="50.06763" lon="5.2834">
        <ele>398</ele>
        <time>2013-05-05T06:46:32Z</time>
      </trkpt>
      <trkpt lat="50.06776" lon="5.28334">
        <ele>396</ele>
        <time>2013-05-05T06:46:42Z</time>
      </trkpt>
      <trkpt lat="50.06788" lon="5.28328">
        <ele>396</ele>
        <time>2013-05-05T06:46:52Z</time>
      </trkpt>
      <trkpt lat="50.06794" lon="5.28321">
        <ele>395</ele>
        <time>2013-05-05T06:47:02Z</time>
      </trkpt>
      <trkpt lat="50.06792" lon="5.28301">
        <ele>394</ele>
        <time>2013-05-05T06:47:12Z</time>
      </trkpt>
      <trkpt lat="50.06787" lon="5.28283">
        <ele>394</ele>
        <time>2013-05-05T06:47:22Z</time>
      </trkpt>
      <trkpt lat="50.06781" lon="5.28265">
        <ele>394</ele>
        <time>2013-05-05T06:47:32Z</time>
      </trkpt>
      <trkpt lat="50.06775" lon="5.28246">
        <ele>394</ele>
        <time>2013-05-05T06:47:42Z</time>
      </trkpt>
      <trkpt lat="50.06767" lon="5.2823">
        <ele>394</ele>
        <time>2013-05-05T06:47:52Z</time>
      </trkpt>
      <trkpt lat="50.06758" lon="5.28214">
        <ele>393</ele>
        <time>2013-05-05T06:48:02Z</time>
      </trkpt>
      <trkpt lat="50.06749" lon="5.28195">
        <ele>393</ele>
        <time>2013-05-05T06:48:12Z</time>
      </trkpt>
      <trkpt lat="50.06741" lon="5.28178">
        <ele>393</ele>
        <time>2013-05-05T06:48:22Z</time>
      </trkpt>
      <trkpt lat="50.06733" lon="5.28161">
        <ele>391</ele>
        <time>2013-05-05T06:48:32Z</time>
      </trkpt>
      <trkpt lat="50.06728" lon="5.2815">
        <ele>391</ele>
        <time>2013-05-05T06:48:42Z</time>
      </trkpt>
      <trkpt lat="50.06728" lon="5.28145">
        <ele>391</ele>
        <time>2013-05-05T06:48:53Z</time>
      </trkpt>
      <trkpt lat="50.06727" lon="5.28144">
        <ele>391</ele>
        <time>2013-05-05T06:49:03Z</time>
      </trkpt>
      <trkpt lat="50.06723" lon="5.28136">
        <ele>392</ele>
        <time>2013-05-05T06:49:13Z</time>
      </trkpt>
      <trkpt lat="50.06715" lon="5.28121">
        <ele>391</ele>
        <time>2013-05-05T06:49:23Z</time>
      </trkpt>
      <trkpt lat="50.06708" lon="5.28107">
        <ele>391</ele>
        <time>2013-05-05T06:49:33Z</time>
      </trkpt>
      <trkpt lat="50.06699" lon="5.2809">
        <ele>391</ele>
        <time>2013-05-05T06:49:43Z</time>
      </trkpt>
      <trkpt lat="50.0669" lon="5.28074">
        <ele>390</ele>
        <time>2013-05-05T06:49:53Z</time>
      </trkpt>
      <trkpt lat="50.06682" lon="5.28057">
        <ele>390</ele>
        <time>2013-05-05T06:50:03Z</time>
      </trkpt>
      <trkpt lat="50.06676" lon="5.28038">
        <ele>390</ele>
        <time>2013-05-05T06:50:13Z</time>
      </trkpt>
      <trkpt lat="50.06675" lon="5.28028">
        <ele>389</ele>
        <time>2013-05-05T06:50:23Z</time>
      </trkpt>
      <trkpt lat="50.06675" lon="5.28025">
        <ele>389</ele>
        <time>2013-05-05T06:50:33Z</time>
      </trkpt>
      <trkpt lat="50.0667" lon="5.28008">
        <ele>388</ele>
        <time>2013-05-05T06:50:43Z</time>
      </trkpt>
      <trkpt lat="50.06666" lon="5.27986">
        <ele>388</ele>
        <time>2013-05-05T06:50:53Z</time>
      </trkpt>
      <trkpt lat="50.06663" lon="5.27965">
        <ele>387</ele>
        <time>2013-05-05T06:51:03Z</time>
      </trkpt>
      <trkpt lat="50.0666" lon="5.27946">
        <ele>387</ele>
        <time>2013-05-05T06:51:13Z</time>
      </trkpt>
      <trkpt lat="50.06656" lon="5.27924">
        <ele>386</ele>
        <time>2013-05-05T06:51:23Z</time>
      </trkpt>
      <trkpt lat="50.06652" lon="5.27905">
        <ele>386</ele>
        <time>2013-05-05T06:51:33Z</time>
      </trkpt>
      <trkpt lat="50.06647" lon="5.27887">
        <ele>385</ele>
        <time>2013-05-05T06:51:44Z</time>
      </trkpt>
      <trkpt lat="50.06642" lon="5.27869">
        <ele>384</ele>
        <time>2013-05-05T06:51:54Z</time>
      </trkpt>
      <trkpt lat="50.06636" lon="5.2785">
        <ele>383</ele>
        <time>2013-05-05T06:52:04Z</time>
      </trkpt>
      <trkpt lat="50.06629" lon="5.2783">
        <ele>383</ele>
        <time>2013-05-05T06:52:14Z</time>
      </trkpt>
      <trkpt lat="50.06623" lon="5.27813">
        <ele>381</ele>
        <time>2013-05-05T06:52:24Z</time>
      </trkpt>
      <trkpt lat="50.06616" lon="5.27792">
        <ele>382</ele>
        <time>2013-05-05T06:52:34Z</time>
      </trkpt>
      <trkpt lat="50.06608" lon="5.27773">
        <ele>381</ele>
        <time>2013-05-05T06:52:44Z</time>
      </trkpt>
      <trkpt lat="50.06601" lon="5.27753">
        <ele>380</ele>
        <time>2013-05-05T06:52:54Z</time>
      </trkpt>
      <trkpt lat="50.06596" lon="5.27738">
        <ele>379</ele>
        <time>2013-05-05T06:53:04Z</time>
      </trkpt>
      <trkpt lat="50.06596" lon="5.27725">
        <ele>378</ele>
        <time>2013-05-05T06:53:14Z</time>
      </trkpt>
      <trkpt lat="50.06597" lon="5.27723">
        <ele>378</ele>
        <time>2013-05-05T06:53:24Z</time>
      </trkpt>
      <trkpt lat="50.06598" lon="5.27717">
        <ele>378</ele>
        <time>2013-05-05T06:53:34Z</time>
      </trkpt>
      <trkpt lat="50.066" lon="5.2771">
        <ele>377</ele>
        <time>2013-05-05T06:53:44Z</time>
      </trkpt>
      <trkpt lat="50.06599" lon="5.2771">
        <ele>377</ele>
        <time>2013-05-05T06:53:54Z</time>
      </trkpt>
      <trkpt lat="50.066" lon="5.27711">
        <ele>377</ele>
        <time>2013-05-05T06:54:05Z</time>
      </trkpt>
      <trkpt lat="50.06601" lon="5.27711">
        <ele>377</ele>
        <time>2013-05-05T06:54:15Z</time>
      </trkpt>
      <trkpt lat="50.06602" lon="5.27711">
        <ele>377</ele>
        <time>2013-05-05T06:54:25Z</time>
      </trkpt>
      <trkpt lat="50.06604" lon="5.27712">
        <ele>377</ele>
        <time>2013-05-05T06:54:35Z</time>
      </trkpt>
      <trkpt lat="50.06604" lon="5.27711">
        <ele>377</ele>
        <time>2013-05-05T06:54:45Z</time>
      </trkpt>
      <trkpt lat="50.06604" lon="5.2771">
        <ele>377</ele>
        <time>2013-05-05T06:54:55Z</time>
      </trkpt>
      <trkpt lat="50.06603" lon="5.27707">
        <ele>376</ele>
        <time>2013-05-05T06:55:05Z</time>
      </trkpt>
      <trkpt lat="50.06603" lon="5.27699">
        <ele>376</ele>
        <time>2013-05-05T06:55:15Z</time>
      </trkpt>
      <trkpt lat="50.06603" lon="5.27694">
        <ele>376</ele>
        <time>2013-05-05T06:55:25Z</time>
      </trkpt>
      <trkpt lat="50.06604" lon="5.27679">
        <ele>375</ele>
        <time>2013-05-05T06:55:35Z</time>
      </trkpt>
      <trkpt lat="50.06605" lon="5.27663">
        <ele>373</ele>
        <time>2013-05-05T06:55:46Z</time>
      </trkpt>
      <trkpt lat="50.06606" lon="5.27643">
        <ele>372</ele>
        <time>2013-05-05T06:55:56Z</time>
      </trkpt>
      <trkpt lat="50.06608" lon="5.27625">
        <ele>369</ele>
        <time>2013-05-05T06:56:06Z</time>
      </trkpt>
      <trkpt lat="50.0661" lon="5.27604">
        <ele>368</ele>
        <time>2013-05-05T06:56:16Z</time>
      </trkpt>
      <trkpt lat="50.06612" lon="5.27586">
        <ele>365</ele>
        <time>2013-05-05T06:56:26Z</time>
      </trkpt>
      <trkpt lat="50.06615" lon="5.27567">
        <ele>363</ele>
        <time>2013-05-05T06:56:36Z</time>
      </trkpt>
      <trkpt lat="50.06616" lon="5.27547">
        <ele>360</ele>
        <time>2013-05-05T06:56:46Z</time>
      </trkpt>
      <trkpt lat="50.06617" lon="5.27531">
        <ele>358</ele>
        <time>2013-05-05T06:56:56Z</time>
      </trkpt>
      <trkpt lat="50.06616" lon="5.27513">
        <ele>357</ele>
        <time>2013-05-05T06:57:06Z</time>
      </trkpt>
      <trkpt lat="50.06613" lon="5.2749">
        <ele>355</ele>
        <time>2013-05-05T06:57:16Z</time>
      </trkpt>
      <trkpt lat="50.06613" lon="5.27468">
        <ele>353</ele>
        <time>2013-05-05T06:57:26Z</time>
      </trkpt>
      <trkpt lat="50.0661" lon="5.27447">
        <ele>352</ele>
        <time>2013-05-05T06:57:36Z</time>
      </trkpt>
      <trkpt lat="50.06607" lon="5.27424">
        <ele>350</ele>
        <time>2013-05-05T06:57:46Z</time>
      </trkpt>
      <trkpt lat="50.06604" lon="5.27404">
        <ele>347</ele>
        <time>2013-05-05T06:57:57Z</time>
      </trkpt>
      <trkpt lat="50.06602" lon="5.27385">
        <ele>345</ele>
        <time>2013-05-05T06:58:07Z</time>
      </trkpt>
      <trkpt lat="50.06602" lon="5.27365">
        <ele>343</ele>
        <time>2013-05-05T06:58:17Z</time>
      </trkpt>
      <trkpt lat="50.06605" lon="5.27347">
        <ele>341</ele>
        <time>2013-05-05T06:58:27Z</time>
      </trkpt>
      <trkpt lat="50.06607" lon="5.27324">
        <ele>339</ele>
        <time>2013-05-05T06:58:37Z</time>
      </trkpt>
      <trkpt lat="50.06609" lon="5.27298">
        <ele>335</ele>
        <time>2013-05-05T06:58:47Z</time>
      </trkpt>
      <trkpt lat="50.06613" lon="5.2727">
        <ele>331</ele>
        <time>2013-05-05T06:58:57Z</time>
      </trkpt>
      <trkpt lat="50.06617" lon="5.27237">
        <ele>328</ele>
        <time>2013-05-05T06:59:08Z</time>
      </trkpt>
      <trkpt lat="50.0662" lon="5.27202">
        <ele>325</ele>
        <time>2013-05-05T06:59:18Z</time>
      </trkpt>
      <trkpt lat="50.06635" lon="5.27196">
        <ele>322</ele>
        <time>2013-05-05T06:59:28Z</time>
      </trkpt>
      <trkpt lat="50.06642" lon="5.27206">
        <ele>317</ele>
        <time>2013-05-05T06:59:38Z</time>
      </trkpt>
      <trkpt lat="50.06653" lon="5.27204">
        <ele>313</ele>
        <time>2013-05-05T06:59:48Z</time>
      </trkpt>
      <trkpt lat="50.06663" lon="5.27187">
        <ele>309</ele>
        <time>2013-05-05T06:59:58Z</time>
      </trkpt>
      <trkpt lat="50.06668" lon="5.27176">
        <ele>307</ele>
        <time>2013-05-05T07:00:08Z</time>
      </trkpt>
      <trkpt lat="50.06672" lon="5.27174">
        <ele>307</ele>
        <time>2013-05-05T07:00:18Z</time>
      </trkpt>
      <trkpt lat="50.06674" lon="5.27171">
        <ele>307</ele>
        <time>2013-05-05T07:00:28Z</time>
      </trkpt>
      <trkpt lat="50.06677" lon="5.27171">
        <ele>307</ele>
        <time>2013-05-05T07:00:38Z</time>
      </trkpt>
      <trkpt lat="50.06679" lon="5.27168">
        <ele>307</ele>
        <time>2013-05-05T07:00:48Z</time>
      </trkpt>
      <trkpt lat="50.06679" lon="5.27166">
        <ele>307</ele>
        <time>2013-05-05T07:00:59Z</time>
      </trkpt>
      <trkpt lat="50.06678" lon="5.27165">
        <ele>307</ele>
        <time>2013-05-05T07:01:09Z</time>
      </trkpt>
      <trkpt lat="50.0667" lon="5.27147">
        <ele>306</ele>
        <time>2013-05-05T07:01:19Z</time>
      </trkpt>
      <trkpt lat="50.06662" lon="5.27107">
        <ele>304</ele>
        <time>2013-05-05T07:01:29Z</time>
      </trkpt>
      <trkpt lat="50.06663" lon="5.27061">
        <ele>301</ele>
        <time>2013-05-05T07:01:39Z</time>
      </trkpt>
      <trkpt lat="50.06665" lon="5.27027">
        <ele>299</ele>
        <time>2013-05-05T07:01:49Z</time>
      </trkpt>
      <trkpt lat="50.06669" lon="5.27011">
        <ele>298</ele>
        <time>2013-05-05T07:01:59Z</time>
      </trkpt>
      <trkpt lat="50.06675" lon="5.26989">
        <ele>297</ele>
        <time>2013-05-05T07:02:09Z</time>
      </trkpt>
      <trkpt lat="50.0668" lon="5.26967">
        <ele>295</ele>
        <time>2013-05-05T07:02:19Z</time>
      </trkpt>
      <trkpt lat="50.06686" lon="5.26948">
        <ele>294</ele>
        <time>2013-05-05T07:02:29Z</time>
      </trkpt>
      <trkpt lat="50.06692" lon="5.26931">
        <ele>293</ele>
        <time>2013-05-05T07:02:39Z</time>
      </trkpt>
      <trkpt lat="50.06697" lon="5.2692">
        <ele>292</ele>
        <time>2013-05-05T07:02:49Z</time>
      </trkpt>
      <trkpt lat="50.06701" lon="5.26915">
        <ele>293</ele>
        <time>2013-05-05T07:02:59Z</time>
      </trkpt>
      <trkpt lat="50.06706" lon="5.26907">
        <ele>292</ele>
        <time>2013-05-05T07:03:10Z</time>
      </trkpt>
      <trkpt lat="50.06703" lon="5.26892">
        <ele>292</ele>
        <time>2013-05-05T07:03:20Z</time>
      </trkpt>
      <trkpt lat="50.06694" lon="5.26878">
        <ele>292</ele>
        <time>2013-05-05T07:03:30Z</time>
      </trkpt>
      <trkpt lat="50.06682" lon="5.2687">
        <ele>292</ele>
        <time>2013-05-05T07:03:40Z</time>
      </trkpt>
      <trkpt lat="50.0667" lon="5.26866">
        <ele>291</ele>
        <time>2013-05-05T07:03:50Z</time>
      </trkpt>
      <trkpt lat="50.06659" lon="5.26863">
        <ele>290</ele>
        <time>2013-05-05T07:04:00Z</time>
      </trkpt>
      <trkpt lat="50.06645" lon="5.2686">
        <ele>290</ele>
        <time>2013-05-05T07:04:10Z</time>
      </trkpt>
      <trkpt lat="50.0663" lon="5.26858">
        <ele>290</ele>
        <time>2013-05-05T07:04:20Z</time>
      </trkpt>
      <trkpt lat="50.06615" lon="5.26852">
        <ele>292</ele>
        <time>2013-05-05T07:04:30Z</time>
      </trkpt>
      <trkpt lat="50.06604" lon="5.26843">
        <ele>292</ele>
        <time>2013-05-05T07:04:40Z</time>
      </trkpt>
      <trkpt lat="50.06592" lon="5.26835">
        <ele>292</ele>
        <time>2013-05-05T07:04:50Z</time>
      </trkpt>
      <trkpt lat="50.06581" lon="5.26831">
        <ele>293</ele>
        <time>2013-05-05T07:05:00Z</time>
      </trkpt>
      <trkpt lat="50.06572" lon="5.26828">
        <ele>295</ele>
        <time>2013-05-05T07:05:10Z</time>
      </trkpt>
      <trkpt lat="50.06562" lon="5.26825">
        <ele>296</ele>
        <time>2013-05-05T07:05:20Z</time>
      </trkpt>
      <trkpt lat="50.06553" lon="5.26823">
        <ele>298</ele>
        <time>2013-05-05T07:05:30Z</time>
      </trkpt>
      <trkpt lat="50.06545" lon="5.26825">
        <ele>299</ele>
        <time>2013-05-05T07:05:40Z</time>
      </trkpt>
      <trkpt lat="50.06536" lon="5.26827">
        <ele>300</ele>
        <time>2013-05-05T07:05:50Z</time>
      </trkpt>
      <trkpt lat="50.06526" lon="5.26831">
        <ele>302</ele>
        <time>2013-05-05T07:06:01Z</time>
      </trkpt>
      <trkpt lat="50.06518" lon="5.26834">
        <ele>304</ele>
        <time>2013-05-05T07:06:11Z</time>
      </trkpt>
      <trkpt lat="50.06509" lon="5.26838">
        <ele>305</ele>
        <time>2013-05-05T07:06:21Z</time>
      </trkpt>
      <trkpt lat="50.06501" lon="5.26842">
        <ele>306</ele>
        <time>2013-05-05T07:06:31Z</time>
      </trkpt>
      <trkpt lat="50.06491" lon="5.26844">
        <ele>308</ele>
        <time>2013-05-05T07:06:41Z</time>
      </trkpt>
      <trkpt lat="50.06483" lon="5.26843">
        <ele>309</ele>
        <time>2013-05-05T07:06:51Z</time>
      </trkpt>
      <trkpt lat="50.06474" lon="5.26846">
        <ele>310</ele>
        <time>2013-05-05T07:07:01Z</time>
      </trkpt>
      <trkpt lat="50.06464" lon="5.26847">
        <ele>311</ele>
        <time>2013-05-05T07:07:11Z</time>
      </trkpt>
      <trkpt lat="50.06457" lon="5.26848">
        <ele>312</ele>
        <time>2013-05-05T07:07:21Z</time>
      </trkpt>
      <trkpt lat="50.06448" lon="5.26848">
        <ele>313</ele>
        <time>2013-05-05T07:07:31Z</time>
      </trkpt>
      <trkpt lat="50.0644" lon="5.2685">
        <ele>314</ele>
        <time>2013-05-05T07:07:41Z</time>
      </trkpt>
      <trkpt lat="50.06442" lon="5.26852">
        <ele>314</ele>
        <time>2013-05-05T07:07:51Z</time>
      </trkpt>
      <trkpt lat="50.0644" lon="5.26848">
        <ele>315</ele>
        <time>2013-05-05T07:08:01Z</time>
      </trkpt>
      <trkpt lat="50.06434" lon="5.26849">
        <ele>317</ele>
        <time>2013-05-05T07:08:11Z</time>
      </trkpt>
      <trkpt lat="50.06427" lon="5.26851">
        <ele>318</ele>
        <time>2013-05-05T07:08:21Z</time>
      </trkpt>
      <trkpt lat="50.06419" lon="5.26851">
        <ele>319</ele>
        <time>2013-05-05T07:08:31Z</time>
      </trkpt>
      <trkpt lat="50.06408" lon="5.26853">
        <ele>320</ele>
        <time>2013-05-05T07:08:41Z</time>
      </trkpt>
      <trkpt lat="50.06398" lon="5.26855">
        <ele>321</ele>
        <time>2013-05-05T07:08:51Z</time>
      </trkpt>
      <trkpt lat="50.06385" lon="5.26857">
        <ele>323</ele>
        <time>2013-05-05T07:09:02Z</time>
      </trkpt>
      <trkpt lat="50.06374" lon="5.26858">
        <ele>324</ele>
        <time>2013-05-05T07:09:12Z</time>
      </trkpt>
      <trkpt lat="50.06364" lon="5.2686">
        <ele>325</ele>
        <time>2013-05-05T07:09:22Z</time>
      </trkpt>
      <trkpt lat="50.06354" lon="5.26862">
        <ele>326</ele>
        <time>2013-05-05T07:09:32Z</time>
      </trkpt>
      <trkpt lat="50.06346" lon="5.26861">
        <ele>327</ele>
        <time>2013-05-05T07:09:42Z</time>
      </trkpt>
      <trkpt lat="50.0634" lon="5.26858">
        <ele>328</ele>
        <time>2013-05-05T07:09:52Z</time>
      </trkpt>
      <trkpt lat="50.06331" lon="5.26858">
        <ele>329</ele>
        <time>2013-05-05T07:10:02Z</time>
      </trkpt>
      <trkpt lat="50.06321" lon="5.26857">
        <ele>330</ele>
        <time>2013-05-05T07:10:12Z</time>
      </trkpt>
      <trkpt lat="50.06313" lon="5.26856">
        <ele>331</ele>
        <time>2013-05-05T07:10:22Z</time>
      </trkpt>
      <trkpt lat="50.06304" lon="5.26852">
        <ele>332</ele>
        <time>2013-05-05T07:10:32Z</time>
      </trkpt>
      <trkpt lat="50.06295" lon="5.26848">
        <ele>333</ele>
        <time>2013-05-05T07:10:42Z</time>
      </trkpt>
      <trkpt lat="50.06283" lon="5.26845">
        <ele>334</ele>
        <time>2013-05-05T07:10:52Z</time>
      </trkpt>
      <trkpt lat="50.06272" lon="5.26839">
        <ele>335</ele>
        <time>2013-05-05T07:11:02Z</time>
      </trkpt>
      <trkpt lat="50.06267" lon="5.26833">
        <ele>335</ele>
        <time>2013-05-05T07:11:13Z</time>
      </trkpt>
      <trkpt lat="50.06263" lon="5.26829">
        <ele>336</ele>
        <time>2013-05-05T07:11:23Z</time>
      </trkpt>
      <trkpt lat="50.06262" lon="5.26828">
        <ele>336</ele>
        <time>2013-05-05T07:11:33Z</time>
      </trkpt>
      <trkpt lat="50.06261" lon="5.26828">
        <ele>336</ele>
        <time>2013-05-05T07:11:43Z</time>
      </trkpt>
      <trkpt lat="50.06261" lon="5.26828">
        <ele>336</ele>
        <time>2013-05-05T07:11:53Z</time>
      </trkpt>
      <trkpt lat="50.0626" lon="5.26829">
        <ele>336</ele>
        <time>2013-05-05T07:12:03Z</time>
      </trkpt>
      <trkpt lat="50.0626" lon="5.26829">
        <ele>336</ele>
        <time>2013-05-05T07:12:13Z</time>
      </trkpt>
      <trkpt lat="50.06259" lon="5.26831">
        <ele>335</ele>
        <time>2013-05-05T07:12:23Z</time>
      </trkpt>
      <trkpt lat="50.06258" lon="5.2683">
        <ele>335</ele>
        <time>2013-05-05T07:12:33Z</time>
      </trkpt>
      <trkpt lat="50.06258" lon="5.26828">
        <ele>336</ele>
        <time>2013-05-05T07:12:43Z</time>
      </trkpt>
      <trkpt lat="50.06259" lon="5.26827">
        <ele>335</ele>
        <time>2013-05-05T07:12:53Z</time>
      </trkpt>
      <trkpt lat="50.06259" lon="5.26826">
        <ele>336</ele>
        <time>2013-05-05T07:13:03Z</time>
      </trkpt>
      <trkpt lat="50.06258" lon="5.26827">
        <ele>336</ele>
        <time>2013-05-05T07:13:13Z</time>
      </trkpt>
      <trkpt lat="50.06258" lon="5.26828">
        <ele>336</ele>
        <time>2013-05-05T07:13:23Z</time>
      </trkpt>
      <trkpt lat="50.06257" lon="5.2683">
        <ele>336</ele>
        <time>2013-05-05T07:13:33Z</time>
      </trkpt>
      <trkpt lat="50.06259" lon="5.26832">
        <ele>336</ele>
        <time>2013-05-05T07:13:43Z</time>
      </trkpt>
      <trkpt lat="50.06259" lon="5.26832">
        <ele>336</ele>
        <time>2013-05-05T07:13:53Z</time>
      </trkpt>
      <trkpt lat="50.0626" lon="5.26832">
        <ele>336</ele>
        <time>2013-05-05T07:14:03Z</time>
      </trkpt>
      <trkpt lat="50.06263" lon="5.26833">
        <ele>336</ele>
        <time>2013-05-05T07:14:13Z</time>
      </trkpt>
      <trkpt lat="50.06264" lon="5.26832">
        <ele>336</ele>
        <time>2013-05-05T07:14:24Z</time>
      </trkpt>
      <trkpt lat="50.06264" lon="5.26832">
        <ele>336</ele>
        <time>2013-05-05T07:14:34Z</time>
      </trkpt>
      <trkpt lat="50.06264" lon="5.26831">
        <ele>336</ele>
        <time>2013-05-05T07:14:44Z</time>
      </trkpt>
      <trkpt lat="50.06264" lon="5.26831">
        <ele>336</ele>
        <time>2013-05-05T07:14:54Z</time>
      </trkpt>
      <trkpt lat="50.06263" lon="5.2683">
        <ele>336</ele>
        <time>2013-05-05T07:15:04Z</time>
      </trkpt>
      <trkpt lat="50.06263" lon="5.26828">
        <ele>337</ele>
        <time>2013-05-05T07:15:14Z</time>
      </trkpt>
      <trkpt lat="50.06261" lon="5.26828">
        <ele>336</ele>
        <time>2013-05-05T07:15:24Z</time>
      </trkpt>
      <trkpt lat="50.06261" lon="5.26828">
        <ele>336</ele>
        <time>2013-05-05T07:15:34Z</time>
      </trkpt>
      <trkpt lat="50.06261" lon="5.26828">
        <ele>335</ele>
        <time>2013-05-05T07:15:44Z</time>
      </trkpt>
      <trkpt lat="50.06261" lon="5.26828">
        <ele>336</ele>
        <time>2013-05-05T07:15:54Z</time>
      </trkpt>
      <trkpt lat="50.06262" lon="5.26828">
        <ele>336</ele>
        <time>2013-05-05T07:16:04Z</time>
      </trkpt>
      <trkpt lat="50.06261" lon="5.26828">
        <ele>336</ele>
        <time>2013-05-05T07:16:14Z</time>
      </trkpt>
      <trkpt lat="50.06261" lon="5.26828">
        <ele>335</ele>
        <time>2013-05-05T07:16:24Z</time>
      </trkpt>
      <trkpt lat="50.06261" lon="5.26829">
        <ele>335</ele>
        <time>2013-05-05T07:16:34Z</time>
      </trkpt>
      <trkpt lat="50.06261" lon="5.26829">
        <ele>335</ele>
        <time>2013-05-05T07:16:44Z</time>
      </trkpt>
      <trkpt lat="50.06261" lon="5.26829">
        <ele>336</ele>
        <time>2013-05-05T07:16:54Z</time>
      </trkpt>
      <trkpt lat="50.06261" lon="5.26829">
        <ele>336</ele>
        <time>2013-05-05T07:17:04Z</time>
      </trkpt>
      <trkpt lat="50.06261" lon="5.26829">
        <ele>335</ele>
        <time>2013-05-05T07:17:14Z</time>
      </trkpt>
      <trkpt lat="50.06261" lon="5.26829">
        <ele>335</ele>
        <time>2013-05-05T07:17:24Z</time>
      </trkpt>
      <trkpt lat="50.06261" lon="5.26829">
        <ele>336</ele>
        <time>2013-05-05T07:17:34Z</time>
      </trkpt>
      <trkpt lat="50.06261" lon="5.26829">
        <ele>335</ele>
        <time>2013-05-05T07:17:44Z</time>
      </trkpt>
      <trkpt lat="50.06261" lon="5.26829">
        <ele>335</ele>
        <time>2013-05-05T07:17:55Z</time>
      </trkpt>
      <trkpt lat="50.06261" lon="5.26829">
        <ele>335</ele>
        <time>2013-05-05T07:18:05Z</time>
      </trkpt>
      <trkpt lat="50.0626" lon="5.26829">
        <ele>335</ele>
        <time>2013-05-05T07:18:15Z</time>
      </trkpt>
      <trkpt lat="50.0626" lon="5.26829">
        <ele>335</ele>
        <time>2013-05-05T07:18:25Z</time>
      </trkpt>
      <trkpt lat="50.06262" lon="5.26828">
        <ele>335</ele>
        <time>2013-05-05T07:18:35Z</time>
      </trkpt>
      <trkpt lat="50.06263" lon="5.26828">
        <ele>335</ele>
        <time>2013-05-05T07:18:45Z</time>
      </trkpt>
      <trkpt lat="50.06263" lon="5.26828">
        <ele>335</ele>
        <time>2013-05-05T07:18:55Z</time>
      </trkpt>
      <trkpt lat="50.06263" lon="5.26827">
        <ele>335</ele>
        <time>2013-05-05T07:19:05Z</time>
      </trkpt>
      <trkpt lat="50.06262" lon="5.26826">
        <ele>335</ele>
        <time>2013-05-05T07:19:15Z</time>
      </trkpt>
      <trkpt lat="50.06262" lon="5.26826">
        <ele>335</ele>
        <time>2013-05-05T07:19:25Z</time>
      </trkpt>
      <trkpt lat="50.06261" lon="5.26826">
        <ele>335</ele>
        <time>2013-05-05T07:19:36Z</time>
      </trkpt>
      <trkpt lat="50.0626" lon="5.26826">
        <ele>335</ele>
        <time>2013-05-05T07:19:46Z</time>
      </trkpt>
      <trkpt lat="50.06259" lon="5.26826">
        <ele>335</ele>
        <time>2013-05-05T07:19:56Z</time>
      </trkpt>
      <trkpt lat="50.06258" lon="5.26826">
        <ele>335</ele>
        <time>2013-05-05T07:20:06Z</time>
      </trkpt>
      <trkpt lat="50.06258" lon="5.26826">
        <ele>335</ele>
        <time>2013-05-05T07:20:16Z</time>
      </trkpt>
      <trkpt lat="50.06258" lon="5.26825">
        <ele>335</ele>
        <time>2013-05-05T07:20:26Z</time>
      </trkpt>
      <trkpt lat="50.06258" lon="5.26825">
        <ele>335</ele>
        <time>2013-05-05T07:20:36Z</time>
      </trkpt>
      <trkpt lat="50.06258" lon="5.26826">
        <ele>335</ele>
        <time>2013-05-05T07:20:46Z</time>
      </trkpt>
      <trkpt lat="50.06258" lon="5.26826">
        <ele>336</ele>
        <time>2013-05-05T07:20:56Z</time>
      </trkpt>
      <trkpt lat="50.06258" lon="5.26826">
        <ele>336</ele>
        <time>2013-05-05T07:21:06Z</time>
      </trkpt>
      <trkpt lat="50.06258" lon="5.26825">
        <ele>337</ele>
        <time>2013-05-05T07:21:16Z</time>
      </trkpt>
      <trkpt lat="50.0626" lon="5.26825">
        <ele>336</ele>
        <time>2013-05-05T07:21:27Z</time>
      </trkpt>
      <trkpt lat="50.06262" lon="5.26827">
        <ele>336</ele>
        <time>2013-05-05T07:21:37Z</time>
      </trkpt>
      <trkpt lat="50.06261" lon="5.26824">
        <ele>336</ele>
        <time>2013-05-05T07:21:47Z</time>
      </trkpt>
      <trkpt lat="50.06253" lon="5.26818">
        <ele>336</ele>
        <time>2013-05-05T07:21:57Z</time>
      </trkpt>
      <trkpt lat="50.06245" lon="5.26812">
        <ele>337</ele>
        <time>2013-05-05T07:22:07Z</time>
      </trkpt>
      <trkpt lat="50.06235" lon="5.26805">
        <ele>338</ele>
        <time>2013-05-05T07:22:17Z</time>
      </trkpt>
      <trkpt lat="50.06226" lon="5.26799">
        <ele>338</ele>
        <time>2013-05-05T07:22:27Z</time>
      </trkpt>
      <trkpt lat="50.06216" lon="5.26791">
        <ele>339</ele>
        <time>2013-05-05T07:22:37Z</time>
      </trkpt>
      <trkpt lat="50.06208" lon="5.26785">
        <ele>339</ele>
        <time>2013-05-05T07:22:47Z</time>
      </trkpt>
      <trkpt lat="50.06199" lon="5.26777">
        <ele>340</ele>
        <time>2013-05-05T07:22:57Z</time>
      </trkpt>
      <trkpt lat="50.06192" lon="5.2677">
        <ele>341</ele>
        <time>2013-05-05T07:23:07Z</time>
      </trkpt>
      <trkpt lat="50.06184" lon="5.26761">
        <ele>341</ele>
        <time>2013-05-05T07:23:17Z</time>
      </trkpt>
      <trkpt lat="50.06173" lon="5.26753">
        <ele>341</ele>
        <time>2013-05-05T07:23:27Z</time>
      </trkpt>
      <trkpt lat="50.06162" lon="5.26747">
        <ele>342</ele>
        <time>2013-05-05T07:23:37Z</time>
      </trkpt>
      <trkpt lat="50.06152" lon="5.26742">
        <ele>343</ele>
        <time>2013-05-05T07:23:47Z</time>
      </trkpt>
      <trkpt lat="50.06138" lon="5.26736">
        <ele>344</ele>
        <time>2013-05-05T07:23:57Z</time>
      </trkpt>
      <trkpt lat="50.06122" lon="5.26734">
        <ele>344</ele>
        <time>2013-05-05T07:24:08Z</time>
      </trkpt>
      <trkpt lat="50.0611" lon="5.26734">
        <ele>345</ele>
        <time>2013-05-05T07:24:18Z</time>
      </trkpt>
      <trkpt lat="50.06099" lon="5.26733">
        <ele>346</ele>
        <time>2013-05-05T07:24:28Z</time>
      </trkpt>
      <trkpt lat="50.06087" lon="5.26732">
        <ele>347</ele>
        <time>2013-05-05T07:24:38Z</time>
      </trkpt>
      <trkpt lat="50.06075" lon="5.2673">
        <ele>348</ele>
        <time>2013-05-05T07:24:48Z</time>
      </trkpt>
      <trkpt lat="50.06065" lon="5.26728">
        <ele>349</ele>
        <time>2013-05-05T07:24:58Z</time>
      </trkpt>
      <trkpt lat="50.06055" lon="5.26727">
        <ele>350</ele>
        <time>2013-05-05T07:25:08Z</time>
      </trkpt>
      <trkpt lat="50.06045" lon="5.26722">
        <ele>351</ele>
        <time>2013-05-05T07:25:18Z</time>
      </trkpt>
      <trkpt lat="50.06035" lon="5.26717">
        <ele>352</ele>
        <time>2013-05-05T07:25:28Z</time>
      </trkpt>
      <trkpt lat="50.06025" lon="5.26711">
        <ele>352</ele>
        <time>2013-05-05T07:25:38Z</time>
      </trkpt>
      <trkpt lat="50.06016" lon="5.26703">
        <ele>354</ele>
        <time>2013-05-05T07:25:48Z</time>
      </trkpt>
      <trkpt lat="50.06006" lon="5.26695">
        <ele>355</ele>
        <time>2013-05-05T07:25:58Z</time>
      </trkpt>
      <trkpt lat="50.05995" lon="5.26689">
        <ele>355</ele>
        <time>2013-05-05T07:26:08Z</time>
      </trkpt>
      <trkpt lat="50.05986" lon="5.26683">
        <ele>356</ele>
        <time>2013-05-05T07:26:18Z</time>
      </trkpt>
      <trkpt lat="50.05976" lon="5.2668">
        <ele>357</ele>
        <time>2013-05-05T07:26:28Z</time>
      </trkpt>
      <trkpt lat="50.05965" lon="5.26675">
        <ele>357</ele>
        <time>2013-05-05T07:26:38Z</time>
      </trkpt>
      <trkpt lat="50.05955" lon="5.2667">
        <ele>358</ele>
        <time>2013-05-05T07:26:48Z</time>
      </trkpt>
      <trkpt lat="50.05946" lon="5.26664">
        <ele>359</ele>
        <time>2013-05-05T07:26:58Z</time>
      </trkpt>
      <trkpt lat="50.05936" lon="5.26659">
        <ele>359</ele>
        <time>2013-05-05T07:27:08Z</time>
      </trkpt>
      <trkpt lat="50.05926" lon="5.26651">
        <ele>361</ele>
        <time>2013-05-05T07:27:18Z</time>
      </trkpt>
      <trkpt lat="50.05916" lon="5.26641">
        <ele>361</ele>
        <time>2013-05-05T07:27:28Z</time>
      </trkpt>
      <trkpt lat="50.05906" lon="5.26631">
        <ele>362</ele>
        <time>2013-05-05T07:27:38Z</time>
      </trkpt>
      <trkpt lat="50.05898" lon="5.26623">
        <ele>362</ele>
        <time>2013-05-05T07:27:48Z</time>
      </trkpt>
      <trkpt lat="50.05888" lon="5.26614">
        <ele>363</ele>
        <time>2013-05-05T07:27:59Z</time>
      </trkpt>
      <trkpt lat="50.05877" lon="5.26605">
        <ele>363</ele>
        <time>2013-05-05T07:28:09Z</time>
      </trkpt>
      <trkpt lat="50.05867" lon="5.26597">
        <ele>363</ele>
        <time>2013-05-05T07:28:19Z</time>
      </trkpt>
      <trkpt lat="50.05857" lon="5.26587">
        <ele>364</ele>
        <time>2013-05-05T07:28:29Z</time>
      </trkpt>
      <trkpt lat="50.05845" lon="5.26579">
        <ele>363</ele>
        <time>2013-05-05T07:28:39Z</time>
      </trkpt>
      <trkpt lat="50.05835" lon="5.26567">
        <ele>363</ele>
        <time>2013-05-05T07:28:49Z</time>
      </trkpt>
      <trkpt lat="50.05824" lon="5.26556">
        <ele>363</ele>
        <time>2013-05-05T07:28:59Z</time>
      </trkpt>
      <trkpt lat="50.05814" lon="5.26544">
        <ele>364</ele>
        <time>2013-05-05T07:29:09Z</time>
      </trkpt>
      <trkpt lat="50.05804" lon="5.26533">
        <ele>363</ele>
        <time>2013-05-05T07:29:19Z</time>
      </trkpt>
      <trkpt lat="50.05793" lon="5.26528">
        <ele>364</ele>
        <time>2013-05-05T07:29:30Z</time>
      </trkpt>
      <trkpt lat="50.05782" lon="5.26519">
        <ele>364</ele>
        <time>2013-05-05T07:29:40Z</time>
      </trkpt>
      <trkpt lat="50.05772" lon="5.26508">
        <ele>365</ele>
        <time>2013-05-05T07:29:50Z</time>
      </trkpt>
      <trkpt lat="50.05762" lon="5.26498">
        <ele>364</ele>
        <time>2013-05-05T07:30:00Z</time>
      </trkpt>
      <trkpt lat="50.05751" lon="5.26486">
        <ele>365</ele>
        <time>2013-05-05T07:30:10Z</time>
      </trkpt>
      <trkpt lat="50.05741" lon="5.26475">
        <ele>365</ele>
        <time>2013-05-05T07:30:20Z</time>
      </trkpt>
      <trkpt lat="50.05728" lon="5.26465">
        <ele>366</ele>
        <time>2013-05-05T07:30:30Z</time>
      </trkpt>
      <trkpt lat="50.05718" lon="5.26455">
        <ele>367</ele>
        <time>2013-05-05T07:30:40Z</time>
      </trkpt>
      <trkpt lat="50.05708" lon="5.26445">
        <ele>367</ele>
        <time>2013-05-05T07:30:50Z</time>
      </trkpt>
      <trkpt lat="50.05699" lon="5.26433">
        <ele>367</ele>
        <time>2013-05-05T07:31:00Z</time>
      </trkpt>
      <trkpt lat="50.05689" lon="5.26422">
        <ele>368</ele>
        <time>2013-05-05T07:31:10Z</time>
      </trkpt>
      <trkpt lat="50.0568" lon="5.26411">
        <ele>368</ele>
        <time>2013-05-05T07:31:20Z</time>
      </trkpt>
      <trkpt lat="50.05669" lon="5.26401">
        <ele>368</ele>
        <time>2013-05-05T07:31:30Z</time>
      </trkpt>
      <trkpt lat="50.05659" lon="5.26392">
        <ele>368</ele>
        <time>2013-05-05T07:31:40Z</time>
      </trkpt>
      <trkpt lat="50.05648" lon="5.26379">
        <ele>368</ele>
        <time>2013-05-05T07:31:50Z</time>
      </trkpt>
      <trkpt lat="50.05635" lon="5.26366">
        <ele>367</ele>
        <time>2013-05-05T07:32:00Z</time>
      </trkpt>
      <trkpt lat="50.05625" lon="5.26357">
        <ele>367</ele>
        <time>2013-05-05T07:32:10Z</time>
      </trkpt>
      <trkpt lat="50.05616" lon="5.26342">
        <ele>366</ele>
        <time>2013-05-05T07:32:20Z</time>
      </trkpt>
      <trkpt lat="50.0561" lon="5.26326">
        <ele>366</ele>
        <time>2013-05-05T07:32:30Z</time>
      </trkpt>
      <trkpt lat="50.05606" lon="5.26308">
        <ele>366</ele>
        <time>2013-05-05T07:32:40Z</time>
      </trkpt>
      <trkpt lat="50.05602" lon="5.26287">
        <ele>365</ele>
        <time>2013-05-05T07:32:51Z</time>
      </trkpt>
      <trkpt lat="50.05598" lon="5.26267">
        <ele>365</ele>
        <time>2013-05-05T07:33:01Z</time>
      </trkpt>
      <trkpt lat="50.05595" lon="5.26248">
        <ele>365</ele>
        <time>2013-05-05T07:33:11Z</time>
      </trkpt>
      <trkpt lat="50.05591" lon="5.26229">
        <ele>364</ele>
        <time>2013-05-05T07:33:21Z</time>
      </trkpt>
      <trkpt lat="50.05587" lon="5.26209">
        <ele>363</ele>
        <time>2013-05-05T07:33:31Z</time>
      </trkpt>
      <trkpt lat="50.05585" lon="5.26191">
        <ele>363</ele>
        <time>2013-05-05T07:33:41Z</time>
      </trkpt>
      <trkpt lat="50.05591" lon="5.26172">
        <ele>362</ele>
        <time>2013-05-05T07:33:51Z</time>
      </trkpt>
      <trkpt lat="50.05601" lon="5.26159">
        <ele>361</ele>
        <time>2013-05-05T07:34:01Z</time>
      </trkpt>
      <trkpt lat="50.05613" lon="5.26148">
        <ele>360</ele>
        <time>2013-05-05T07:34:11Z</time>
      </trkpt>
      <trkpt lat="50.05624" lon="5.26136">
        <ele>358</ele>
        <time>2013-05-05T07:34:21Z</time>
      </trkpt>
      <trkpt lat="50.05633" lon="5.26121">
        <ele>357</ele>
        <time>2013-05-05T07:34:31Z</time>
      </trkpt>
      <trkpt lat="50.05641" lon="5.26104">
        <ele>356</ele>
        <time>2013-05-05T07:34:41Z</time>
      </trkpt>
      <trkpt lat="50.05649" lon="5.26088">
        <ele>354</ele>
        <time>2013-05-05T07:34:51Z</time>
      </trkpt>
      <trkpt lat="50.05657" lon="5.2607">
        <ele>353</ele>
        <time>2013-05-05T07:35:01Z</time>
      </trkpt>
      <trkpt lat="50.05663" lon="5.26051">
        <ele>352</ele>
        <time>2013-05-05T07:35:11Z</time>
      </trkpt>
      <trkpt lat="50.05667" lon="5.26036">
        <ele>351</ele>
        <time>2013-05-05T07:35:21Z</time>
      </trkpt>
      <trkpt lat="50.0567" lon="5.26032">
        <ele>350</ele>
        <time>2013-05-05T07:35:31Z</time>
      </trkpt>
      <trkpt lat="50.0567" lon="5.26031">
        <ele>350</ele>
        <time>2013-05-05T07:35:41Z</time>
      </trkpt>
      <trkpt lat="50.05667" lon="5.26033">
        <ele>351</ele>
        <time>2013-05-05T07:35:51Z</time>
      </trkpt>
      <trkpt lat="50.05667" lon="5.26032">
        <ele>350</ele>
        <time>2013-05-05T07:36:02Z</time>
      </trkpt>
      <trkpt lat="50.05665" lon="5.26033">
        <ele>350</ele>
        <time>2013-05-05T07:36:12Z</time>
      </trkpt>
      <trkpt lat="50.05665" lon="5.26022">
        <ele>350</ele>
        <time>2013-05-05T07:36:22Z</time>
      </trkpt>
      <trkpt lat="50.05669" lon="5.26">
        <ele>349</ele>
        <time>2013-05-05T07:36:32Z</time>
      </trkpt>
      <trkpt lat="50.05672" lon="5.25979">
        <ele>348</ele>
        <time>2013-05-05T07:36:42Z</time>
      </trkpt>
      <trkpt lat="50.05673" lon="5.25961">
        <ele>347</ele>
        <time>2013-05-05T07:36:52Z</time>
      </trkpt>
      <trkpt lat="50.05677" lon="5.25943">
        <ele>346</ele>
        <time>2013-05-05T07:37:02Z</time>
      </trkpt>
      <trkpt lat="50.05689" lon="5.25917">
        <ele>344</ele>
        <time>2013-05-05T07:37:12Z</time>
      </trkpt>
      <trkpt lat="50.05702" lon="5.25893">
        <ele>342</ele>
        <time>2013-05-05T07:37:22Z</time>
      </trkpt>
      <trkpt lat="50.05701" lon="5.2587">
        <ele>340</ele>
        <time>2013-05-05T07:37:32Z</time>
      </trkpt>
      <trkpt lat="50.05694" lon="5.25852">
        <ele>339</ele>
        <time>2013-05-05T07:37:42Z</time>
      </trkpt>
      <trkpt lat="50.05683" lon="5.25836">
        <ele>338</ele>
        <time>2013-05-05T07:37:53Z</time>
      </trkpt>
      <trkpt lat="50.05673" lon="5.25821">
        <ele>336</ele>
        <time>2013-05-05T07:38:03Z</time>
      </trkpt>
      <trkpt lat="50.05661" lon="5.2581">
        <ele>335</ele>
        <time>2013-05-05T07:38:13Z</time>
      </trkpt>
      <trkpt lat="50.0565" lon="5.25797">
        <ele>333</ele>
        <time>2013-05-05T07:38:23Z</time>
      </trkpt>
      <trkpt lat="50.05638" lon="5.25783">
        <ele>331</ele>
        <time>2013-05-05T07:38:33Z</time>
      </trkpt>
      <trkpt lat="50.05628" lon="5.25767">
        <ele>329</ele>
        <time>2013-05-05T07:38:43Z</time>
      </trkpt>
      <trkpt lat="50.05616" lon="5.25755">
        <ele>328</ele>
        <time>2013-05-05T07:38:53Z</time>
      </trkpt>
      <trkpt lat="50.05605" lon="5.25741">
        <ele>326</ele>
        <time>2013-05-05T07:39:03Z</time>
      </trkpt>
      <trkpt lat="50.05595" lon="5.25727">
        <ele>325</ele>
        <time>2013-05-05T07:39:13Z</time>
      </trkpt>
      <trkpt lat="50.05583" lon="5.25712">
        <ele>323</ele>
        <time>2013-05-05T07:39:23Z</time>
      </trkpt>
      <trkpt lat="50.05572" lon="5.25697">
        <ele>322</ele>
        <time>2013-05-05T07:39:33Z</time>
      </trkpt>
      <trkpt lat="50.0556" lon="5.25686">
        <ele>320</ele>
        <time>2013-05-05T07:39:43Z</time>
      </trkpt>
      <trkpt lat="50.05549" lon="5.25672">
        <ele>318</ele>
        <time>2013-05-05T07:39:53Z</time>
      </trkpt>
      <trkpt lat="50.0554" lon="5.25658">
        <ele>317</ele>
        <time>2013-05-05T07:40:03Z</time>
      </trkpt>
      <trkpt lat="50.05531" lon="5.25644">
        <ele>315</ele>
        <time>2013-05-05T07:40:13Z</time>
      </trkpt>
      <trkpt lat="50.05521" lon="5.25626">
        <ele>314</ele>
        <time>2013-05-05T07:40:23Z</time>
      </trkpt>
      <trkpt lat="50.05512" lon="5.25609">
        <ele>313</ele>
        <time>2013-05-05T07:40:33Z</time>
      </trkpt>
      <trkpt lat="50.05498" lon="5.25592">
        <ele>311</ele>
        <time>2013-05-05T07:40:44Z</time>
      </trkpt>
      <trkpt lat="50.05486" lon="5.25578">
        <ele>309</ele>
        <time>2013-05-05T07:40:54Z</time>
      </trkpt>
      <trkpt lat="50.05472" lon="5.25566">
        <ele>308</ele>
        <time>2013-05-05T07:41:04Z</time>
      </trkpt>
      <trkpt lat="50.0546" lon="5.25552">
        <ele>306</ele>
        <time>2013-05-05T07:41:14Z</time>
      </trkpt>
      <trkpt lat="50.0545" lon="5.25536">
        <ele>305</ele>
        <time>2013-05-05T07:41:24Z</time>
      </trkpt>
      <trkpt lat="50.05442" lon="5.25519">
        <ele>303</ele>
        <time>2013-05-05T07:41:34Z</time>
      </trkpt>
      <trkpt lat="50.05433" lon="5.25501">
        <ele>302</ele>
        <time>2013-05-05T07:41:44Z</time>
      </trkpt>
      <trkpt lat="50.05427" lon="5.25484">
        <ele>301</ele>
        <time>2013-05-05T07:41:54Z</time>
      </trkpt>
      <trkpt lat="50.05428" lon="5.25479">
        <ele>300</ele>
        <time>2013-05-05T07:42:04Z</time>
      </trkpt>
      <trkpt lat="50.05424" lon="5.25469">
        <ele>300</ele>
        <time>2013-05-05T07:42:14Z</time>
      </trkpt>
      <trkpt lat="50.05415" lon="5.25452">
        <ele>298</ele>
        <time>2013-05-05T07:42:24Z</time>
      </trkpt>
      <trkpt lat="50.05408" lon="5.25434">
        <ele>297</ele>
        <time>2013-05-05T07:42:34Z</time>
      </trkpt>
      <trkpt lat="50.05406" lon="5.25417">
        <ele>298</ele>
        <time>2013-05-05T07:42:44Z</time>
      </trkpt>
      <trkpt lat="50.05395" lon="5.25411">
        <ele>297</ele>
        <time>2013-05-05T07:42:54Z</time>
      </trkpt>
      <trkpt lat="50.05391" lon="5.25409">
        <ele>297</ele>
        <time>2013-05-05T07:43:05Z</time>
      </trkpt>
      <trkpt lat="50.05394" lon="5.25408">
        <ele>298</ele>
        <time>2013-05-05T07:43:15Z</time>
      </trkpt>
      <trkpt lat="50.05394" lon="5.25403">
        <ele>298</ele>
        <time>2013-05-05T07:43:25Z</time>
      </trkpt>
      <trkpt lat="50.05391" lon="5.25396">
        <ele>298</ele>
        <time>2013-05-05T07:43:35Z</time>
      </trkpt>
      <trkpt lat="50.05392" lon="5.25394">
        <ele>298</ele>
        <time>2013-05-05T07:43:45Z</time>
      </trkpt>
      <trkpt lat="50.05394" lon="5.25394">
        <ele>298</ele>
        <time>2013-05-05T07:43:55Z</time>
      </trkpt>
      <trkpt lat="50.05397" lon="5.25392">
        <ele>298</ele>
        <time>2013-05-05T07:44:05Z</time>
      </trkpt>
      <trkpt lat="50.05396" lon="5.2539">
        <ele>297</ele>
        <time>2013-05-05T07:44:15Z</time>
      </trkpt>
      <trkpt lat="50.05388" lon="5.25379">
        <ele>298</ele>
        <time>2013-05-05T07:44:25Z</time>
      </trkpt>
      <trkpt lat="50.05379" lon="5.25377">
        <ele>298</ele>
        <time>2013-05-05T07:44:35Z</time>
      </trkpt>
      <trkpt lat="50.05372" lon="5.25387">
        <ele>298</ele>
        <time>2013-05-05T07:44:45Z</time>
      </trkpt>
      <trkpt lat="50.05367" lon="5.25402">
        <ele>298</ele>
        <time>2013-05-05T07:44:56Z</time>
      </trkpt>
      <trkpt lat="50.05362" lon="5.25408">
        <ele>298</ele>
        <time>2013-05-05T07:45:06Z</time>
      </trkpt>
      <trkpt lat="50.05357" lon="5.25414">
        <ele>300</ele>
        <time>2013-05-05T07:45:16Z</time>
      </trkpt>
      <trkpt lat="50.05351" lon="5.25419">
        <ele>303</ele>
        <time>2013-05-05T07:45:26Z</time>
      </trkpt>
      <trkpt lat="50.05345" lon="5.25425">
        <ele>304</ele>
        <time>2013-05-05T07:45:36Z</time>
      </trkpt>
      <trkpt lat="50.05337" lon="5.25432">
        <ele>304</ele>
        <time>2013-05-05T07:45:46Z</time>
      </trkpt>
      <trkpt lat="50.0533" lon="5.25442">
        <ele>303</ele>
        <time>2013-05-05T07:45:56Z</time>
      </trkpt>
      <trkpt lat="50.05321" lon="5.25456">
        <ele>301</ele>
        <time>2013-05-05T07:46:06Z</time>
      </trkpt>
      <trkpt lat="50.05314" lon="5.2547">
        <ele>302</ele>
        <time>2013-05-05T07:46:16Z</time>
      </trkpt>
      <trkpt lat="50.05308" lon="5.25486">
        <ele>302</ele>
        <time>2013-05-05T07:46:26Z</time>
      </trkpt>
      <trkpt lat="50.05305" lon="5.25504">
        <ele>302</ele>
        <time>2013-05-05T07:46:36Z</time>
      </trkpt>
      <trkpt lat="50.05304" lon="5.25524">
        <ele>302</ele>
        <time>2013-05-05T07:46:46Z</time>
      </trkpt>
      <trkpt lat="50.05305" lon="5.25545">
        <ele>301</ele>
        <time>2013-05-05T07:46:56Z</time>
      </trkpt>
      <trkpt lat="50.05309" lon="5.25563">
        <ele>301</ele>
        <time>2013-05-05T07:47:07Z</time>
      </trkpt>
      <trkpt lat="50.05311" lon="5.25581">
        <ele>301</ele>
        <time>2013-05-05T07:47:17Z</time>
      </trkpt>
      <trkpt lat="50.05314" lon="5.25601">
        <ele>302</ele>
        <time>2013-05-05T07:47:27Z</time>
      </trkpt>
      <trkpt lat="50.0532" lon="5.2562">
        <ele>301</ele>
        <time>2013-05-05T07:47:37Z</time>
      </trkpt>
      <trkpt lat="50.05324" lon="5.25637">
        <ele>302</ele>
        <time>2013-05-05T07:47:47Z</time>
      </trkpt>
      <trkpt lat="50.05328" lon="5.25654">
        <ele>302</ele>
        <time>2013-05-05T07:47:57Z</time>
      </trkpt>
      <trkpt lat="50.05331" lon="5.25673">
        <ele>302</ele>
        <time>2013-05-05T07:48:07Z</time>
      </trkpt>
      <trkpt lat="50.05334" lon="5.25691">
        <ele>302</ele>
        <time>2013-05-05T07:48:17Z</time>
      </trkpt>
      <trkpt lat="50.05337" lon="5.25711">
        <ele>301</ele>
        <time>2013-05-05T07:48:27Z</time>
      </trkpt>
      <trkpt lat="50.0534" lon="5.25731">
        <ele>302</ele>
        <time>2013-05-05T07:48:37Z</time>
      </trkpt>
      <trkpt lat="50.05341" lon="5.25751">
        <ele>302</ele>
        <time>2013-05-05T07:48:47Z</time>
      </trkpt>
      <trkpt lat="50.05341" lon="5.25769">
        <ele>302</ele>
        <time>2013-05-05T07:48:57Z</time>
      </trkpt>
      <trkpt lat="50.05341" lon="5.25784">
        <ele>302</ele>
        <time>2013-05-05T07:49:07Z</time>
      </trkpt>
      <trkpt lat="50.05342" lon="5.25805">
        <ele>301</ele>
        <time>2013-05-05T07:49:17Z</time>
      </trkpt>
      <trkpt lat="50.05344" lon="5.25824">
        <ele>302</ele>
        <time>2013-05-05T07:49:27Z</time>
      </trkpt>
      <trkpt lat="50.05345" lon="5.25843">
        <ele>302</ele>
        <time>2013-05-05T07:49:37Z</time>
      </trkpt>
      <trkpt lat="50.05347" lon="5.25862">
        <ele>302</ele>
        <time>2013-05-05T07:49:47Z</time>
      </trkpt>
      <trkpt lat="50.0535" lon="5.25883">
        <ele>302</ele>
        <time>2013-05-05T07:49:57Z</time>
      </trkpt>
      <trkpt lat="50.05355" lon="5.25903">
        <ele>302</ele>
        <time>2013-05-05T07:50:08Z</time>
      </trkpt>
      <trkpt lat="50.05357" lon="5.25919">
        <ele>302</ele>
        <time>2013-05-05T07:50:18Z</time>
      </trkpt>
      <trkpt lat="50.05361" lon="5.25938">
        <ele>301</ele>
        <time>2013-05-05T07:50:28Z</time>
      </trkpt>
      <trkpt lat="50.05365" lon="5.25955">
        <ele>301</ele>
        <time>2013-05-05T07:50:38Z</time>
      </trkpt>
      <trkpt lat="50.0537" lon="5.25972">
        <ele>302</ele>
        <time>2013-05-05T07:50:48Z</time>
      </trkpt>
      <trkpt lat="50.05373" lon="5.25992">
        <ele>302</ele>
        <time>2013-05-05T07:50:58Z</time>
      </trkpt>
      <trkpt lat="50.05378" lon="5.26011">
        <ele>303</ele>
        <time>2013-05-05T07:51:08Z</time>
      </trkpt>
      <trkpt lat="50.05384" lon="5.26027">
        <ele>303</ele>
        <time>2013-05-05T07:51:18Z</time>
      </trkpt>
      <trkpt lat="50.0539" lon="5.26043">
        <ele>304</ele>
        <time>2013-05-05T07:51:28Z</time>
      </trkpt>
      <trkpt lat="50.05397" lon="5.26056">
        <ele>303</ele>
        <time>2013-05-05T07:51:38Z</time>
      </trkpt>
      <trkpt lat="50.05407" lon="5.26077">
        <ele>302</ele>
        <time>2013-05-05T07:51:48Z</time>
      </trkpt>
      <trkpt lat="50.05413" lon="5.26092">
        <ele>302</ele>
        <time>2013-05-05T07:51:58Z</time>
      </trkpt>
      <trkpt lat="50.05416" lon="5.26104">
        <ele>303</ele>
        <time>2013-05-05T07:52:08Z</time>
      </trkpt>
      <trkpt lat="50.05421" lon="5.26117">
        <ele>304</ele>
        <time>2013-05-05T07:52:18Z</time>
      </trkpt>
      <trkpt lat="50.05425" lon="5.26124">
        <ele>307</ele>
        <time>2013-05-05T07:52:29Z</time>
      </trkpt>
      <trkpt lat="50.0543" lon="5.26136">
        <ele>308</ele>
        <time>2013-05-05T07:52:39Z</time>
      </trkpt>
      <trkpt lat="50.05433" lon="5.26145">
        <ele>309</ele>
        <time>2013-05-05T07:52:49Z</time>
      </trkpt>
      <trkpt lat="50.05434" lon="5.26154">
        <ele>309</ele>
        <time>2013-05-05T07:52:59Z</time>
      </trkpt>
      <trkpt lat="50.05437" lon="5.26166">
        <ele>307</ele>
        <time>2013-05-05T07:53:09Z</time>
      </trkpt>
      <trkpt lat="50.05441" lon="5.26183">
        <ele>305</ele>
        <time>2013-05-05T07:53:19Z</time>
      </trkpt>
      <trkpt lat="50.05449" lon="5.26198">
        <ele>306</ele>
        <time>2013-05-05T07:53:29Z</time>
      </trkpt>
      <trkpt lat="50.05458" lon="5.26212">
        <ele>306</ele>
        <time>2013-05-05T07:53:39Z</time>
      </trkpt>
      <trkpt lat="50.05465" lon="5.26226">
        <ele>306</ele>
        <time>2013-05-05T07:53:49Z</time>
      </trkpt>
      <trkpt lat="50.0547" lon="5.26239">
        <ele>306</ele>
        <time>2013-05-05T07:53:59Z</time>
      </trkpt>
      <trkpt lat="50.05475" lon="5.26256">
        <ele>307</ele>
        <time>2013-05-05T07:54:09Z</time>
      </trkpt>
      <trkpt lat="50.05478" lon="5.26276">
        <ele>307</ele>
        <time>2013-05-05T07:54:19Z</time>
      </trkpt>
      <trkpt lat="50.05481" lon="5.26298">
        <ele>307</ele>
        <time>2013-05-05T07:54:29Z</time>
      </trkpt>
      <trkpt lat="50.0548" lon="5.26319">
        <ele>307</ele>
        <time>2013-05-05T07:54:39Z</time>
      </trkpt>
      <trkpt lat="50.05477" lon="5.26337">
        <ele>307</ele>
        <time>2013-05-05T07:54:49Z</time>
      </trkpt>
      <trkpt lat="50.05478" lon="5.26355">
        <ele>307</ele>
        <time>2013-05-05T07:54:59Z</time>
      </trkpt>
      <trkpt lat="50.05476" lon="5.26369">
        <ele>307</ele>
        <time>2013-05-05T07:55:09Z</time>
      </trkpt>
      <trkpt lat="50.05474" lon="5.26388">
        <ele>307</ele>
        <time>2013-05-05T07:55:20Z</time>
      </trkpt>
      <trkpt lat="50.05471" lon="5.26404">
        <ele>307</ele>
        <time>2013-05-05T07:55:30Z</time>
      </trkpt>
      <trkpt lat="50.05468" lon="5.26425">
        <ele>307</ele>
        <time>2013-05-05T07:55:40Z</time>
      </trkpt>
      <trkpt lat="50.05463" lon="5.26442">
        <ele>307</ele>
        <time>2013-05-05T07:55:50Z</time>
      </trkpt>
      <trkpt lat="50.0546" lon="5.2646">
        <ele>307</ele>
        <time>2013-05-05T07:56:00Z</time>
      </trkpt>
      <trkpt lat="50.05458" lon="5.26478">
        <ele>307</ele>
        <time>2013-05-05T07:56:10Z</time>
      </trkpt>
      <trkpt lat="50.05455" lon="5.26499">
        <ele>307</ele>
        <time>2013-05-05T07:56:20Z</time>
      </trkpt>
      <trkpt lat="50.05455" lon="5.26515">
        <ele>307</ele>
        <time>2013-05-05T07:56:30Z</time>
      </trkpt>
      <trkpt lat="50.05452" lon="5.26534">
        <ele>308</ele>
        <time>2013-05-05T07:56:40Z</time>
      </trkpt>
      <trkpt lat="50.05451" lon="5.26549">
        <ele>308</ele>
        <time>2013-05-05T07:56:50Z</time>
      </trkpt>
      <trkpt lat="50.05446" lon="5.26565">
        <ele>308</ele>
        <time>2013-05-05T07:57:00Z</time>
      </trkpt>
      <trkpt lat="50.05443" lon="5.2658">
        <ele>309</ele>
        <time>2013-05-05T07:57:10Z</time>
      </trkpt>
      <trkpt lat="50.0544" lon="5.26596">
        <ele>309</ele>
        <time>2013-05-05T07:57:21Z</time>
      </trkpt>
      <trkpt lat="50.05436" lon="5.26613">
        <ele>309</ele>
        <time>2013-05-05T07:57:31Z</time>
      </trkpt>
      <trkpt lat="50.0543" lon="5.26629">
        <ele>309</ele>
        <time>2013-05-05T07:57:41Z</time>
      </trkpt>
      <trkpt lat="50.05423" lon="5.26645">
        <ele>309</ele>
        <time>2013-05-05T07:57:51Z</time>
      </trkpt>
      <trkpt lat="50.05415" lon="5.2666">
        <ele>310</ele>
        <time>2013-05-05T07:58:01Z</time>
      </trkpt>
      <trkpt lat="50.0541" lon="5.26676">
        <ele>311</ele>
        <time>2013-05-05T07:58:11Z</time>
      </trkpt>
      <trkpt lat="50.05403" lon="5.2669">
        <ele>311</ele>
        <time>2013-05-05T07:58:21Z</time>
      </trkpt>
      <trkpt lat="50.05395" lon="5.26704">
        <ele>313</ele>
        <time>2013-05-05T07:58:31Z</time>
      </trkpt>
      <trkpt lat="50.05389" lon="5.26719">
        <ele>314</ele>
        <time>2013-05-05T07:58:41Z</time>
      </trkpt>
      <trkpt lat="50.05384" lon="5.26732">
        <ele>314</ele>
        <time>2013-05-05T07:58:51Z</time>
      </trkpt>
      <trkpt lat="50.05383" lon="5.26743">
        <ele>314</ele>
        <time>2013-05-05T07:59:01Z</time>
      </trkpt>
      <trkpt lat="50.05376" lon="5.26756">
        <ele>315</ele>
        <time>2013-05-05T07:59:11Z</time>
      </trkpt>
      <trkpt lat="50.05364" lon="5.26768">
        <ele>316</ele>
        <time>2013-05-05T07:59:22Z</time>
      </trkpt>
      <trkpt lat="50.05354" lon="5.26772">
        <ele>315</ele>
        <time>2013-05-05T07:59:32Z</time>
      </trkpt>
      <trkpt lat="50.05344" lon="5.26776">
        <ele>313</ele>
        <time>2013-05-05T07:59:42Z</time>
      </trkpt>
      <trkpt lat="50.05334" lon="5.26777">
        <ele>310</ele>
        <time>2013-05-05T07:59:52Z</time>
      </trkpt>
      <trkpt lat="50.05324" lon="5.2678">
        <ele>308</ele>
        <time>2013-05-05T08:00:02Z</time>
      </trkpt>
      <trkpt lat="50.05314" lon="5.26777">
        <ele>308</ele>
        <time>2013-05-05T08:00:12Z</time>
      </trkpt>
      <trkpt lat="50.05308" lon="5.26759">
        <ele>308</ele>
        <time>2013-05-05T08:00:22Z</time>
      </trkpt>
      <trkpt lat="50.05298" lon="5.26754">
        <ele>308</ele>
        <time>2013-05-05T08:00:32Z</time>
      </trkpt>
      <trkpt lat="50.05295" lon="5.26758">
        <ele>308</ele>
        <time>2013-05-05T08:00:42Z</time>
      </trkpt>
      <trkpt lat="50.05295" lon="5.26758">
        <ele>308</ele>
        <time>2013-05-05T08:00:52Z</time>
      </trkpt>
      <trkpt lat="50.05297" lon="5.26758">
        <ele>308</ele>
        <time>2013-05-05T08:01:02Z</time>
      </trkpt>
      <trkpt lat="50.05302" lon="5.26758">
        <ele>308</ele>
        <time>2013-05-05T08:01:12Z</time>
      </trkpt>
      <trkpt lat="50.05308" lon="5.26758">
        <ele>308</ele>
        <time>2013-05-05T08:01:22Z</time>
      </trkpt>
      <trkpt lat="50.0531" lon="5.2676">
        <ele>308</ele>
        <time>2013-05-05T08:01:32Z</time>
      </trkpt>
      <trkpt lat="50.05309" lon="5.26757">
        <ele>308</ele>
        <time>2013-05-05T08:01:42Z</time>
      </trkpt>
      <trkpt lat="50.05307" lon="5.26754">
        <ele>308</ele>
        <time>2013-05-05T08:01:52Z</time>
      </trkpt>
      <trkpt lat="50.05306" lon="5.26754">
        <ele>307</ele>
        <time>2013-05-05T08:02:02Z</time>
      </trkpt>
      <trkpt lat="50.05306" lon="5.26756">
        <ele>308</ele>
        <time>2013-05-05T08:02:13Z</time>
      </trkpt>
      <trkpt lat="50.05304" lon="5.26755">
        <ele>307</ele>
        <time>2013-05-05T08:02:23Z</time>
      </trkpt>
      <trkpt lat="50.05302" lon="5.26756">
        <ele>308</ele>
        <time>2013-05-05T08:02:33Z</time>
      </trkpt>
      <trkpt lat="50.05302" lon="5.26757">
        <ele>308</ele>
        <time>2013-05-05T08:02:43Z</time>
      </trkpt>
      <trkpt lat="50.05302" lon="5.26757">
        <ele>308</ele>
        <time>2013-05-05T08:02:53Z</time>
      </trkpt>
      <trkpt lat="50.053" lon="5.26757">
        <ele>308</ele>
        <time>2013-05-05T08:03:03Z</time>
      </trkpt>
      <trkpt lat="50.05299" lon="5.26757">
        <ele>308</ele>
        <time>2013-05-05T08:03:13Z</time>
      </trkpt>
      <trkpt lat="50.05301" lon="5.26756">
        <ele>308</ele>
        <time>2013-05-05T08:03:23Z</time>
      </trkpt>
      <trkpt lat="50.05302" lon="5.26755">
        <ele>308</ele>
        <time>2013-05-05T08:03:33Z</time>
      </trkpt>
      <trkpt lat="50.05303" lon="5.26754">
        <ele>307</ele>
        <time>2013-05-05T08:03:43Z</time>
      </trkpt>
      <trkpt lat="50.05303" lon="5.26752">
        <ele>308</ele>
        <time>2013-05-05T08:03:53Z</time>
      </trkpt>
      <trkpt lat="50.05303" lon="5.26752">
        <ele>308</ele>
        <time>2013-05-05T08:04:03Z</time>
      </trkpt>
      <trkpt lat="50.053" lon="5.2675">
        <ele>307</ele>
        <time>2013-05-05T08:04:13Z</time>
      </trkpt>
      <trkpt lat="50.053" lon="5.26752">
        <ele>307</ele>
        <time>2013-05-05T08:04:24Z</time>
      </trkpt>
      <trkpt lat="50.05299" lon="5.26753">
        <ele>308</ele>
        <time>2013-05-05T08:04:34Z</time>
      </trkpt>
      <trkpt lat="50.05298" lon="5.26752">
        <ele>308</ele>
        <time>2013-05-05T08:04:44Z</time>
      </trkpt>
      <trkpt lat="50.05298" lon="5.26751">
        <ele>308</ele>
        <time>2013-05-05T08:04:54Z</time>
      </trkpt>
      <trkpt lat="50.05299" lon="5.2675">
        <ele>308</ele>
        <time>2013-05-05T08:05:04Z</time>
      </trkpt>
      <trkpt lat="50.053" lon="5.26748">
        <ele>308</ele>
        <time>2013-05-05T08:05:14Z</time>
      </trkpt>
      <trkpt lat="50.05302" lon="5.26747">
        <ele>308</ele>
        <time>2013-05-05T08:05:24Z</time>
      </trkpt>
      <trkpt lat="50.05302" lon="5.26747">
        <ele>309</ele>
        <time>2013-05-05T08:05:34Z</time>
      </trkpt>
      <trkpt lat="50.053" lon="5.26746">
        <ele>308</ele>
        <time>2013-05-05T08:05:44Z</time>
      </trkpt>
      <trkpt lat="50.05297" lon="5.26745">
        <ele>308</ele>
        <time>2013-05-05T08:05:54Z</time>
      </trkpt>
      <trkpt lat="50.05297" lon="5.26745">
        <ele>308</ele>
        <time>2013-05-05T08:06:04Z</time>
      </trkpt>
      <trkpt lat="50.05299" lon="5.26746">
        <ele>308</ele>
        <time>2013-05-05T08:06:15Z</time>
      </trkpt>
      <trkpt lat="50.05302" lon="5.26745">
        <ele>308</ele>
        <time>2013-05-05T08:06:25Z</time>
      </trkpt>
      <trkpt lat="50.05304" lon="5.26745">
        <ele>309</ele>
        <time>2013-05-05T08:06:35Z</time>
      </trkpt>
      <trkpt lat="50.05304" lon="5.26745">
        <ele>309</ele>
        <time>2013-05-05T08:06:45Z</time>
      </trkpt>
      <trkpt lat="50.05303" lon="5.26747">
        <ele>308</ele>
        <time>2013-05-05T08:06:55Z</time>
      </trkpt>
      <trkpt lat="50.05305" lon="5.26752">
        <ele>308</ele>
        <time>2013-05-05T08:07:05Z</time>
      </trkpt>
      <trkpt lat="50.05307" lon="5.26756">
        <ele>308</ele>
        <time>2013-05-05T08:07:15Z</time>
      </trkpt>
      <trkpt lat="50.05304" lon="5.26755">
        <ele>309</ele>
        <time>2013-05-05T08:07:25Z</time>
      </trkpt>
      <trkpt lat="50.05302" lon="5.26752">
        <ele>309</ele>
        <time>2013-05-05T08:07:35Z</time>
      </trkpt>
      <trkpt lat="50.05301" lon="5.2675">
        <ele>309</ele>
        <time>2013-05-05T08:07:45Z</time>
      </trkpt>
      <trkpt lat="50.05302" lon="5.26751">
        <ele>309</ele>
        <time>2013-05-05T08:07:55Z</time>
      </trkpt>
      <trkpt lat="50.05302" lon="5.26753">
        <ele>309</ele>
        <time>2013-05-05T08:08:05Z</time>
      </trkpt>
      <trkpt lat="50.05302" lon="5.26753">
        <ele>309</ele>
        <time>2013-05-05T08:08:15Z</time>
      </trkpt>
      <trkpt lat="50.053" lon="5.26753">
        <ele>309</ele>
        <time>2013-05-05T08:08:25Z</time>
      </trkpt>
      <trkpt lat="50.05299" lon="5.26753">
        <ele>309</ele>
        <time>2013-05-05T08:08:35Z</time>
      </trkpt>
      <trkpt lat="50.05299" lon="5.26753">
        <ele>309</ele>
        <time>2013-05-05T08:08:46Z</time>
      </trkpt>
      <trkpt lat="50.05299" lon="5.26753">
        <ele>310</ele>
        <time>2013-05-05T08:08:56Z</time>
      </trkpt>
      <trkpt lat="50.05298" lon="5.26754">
        <ele>310</ele>
        <time>2013-05-05T08:09:06Z</time>
      </trkpt>
      <trkpt lat="50.05299" lon="5.26756">
        <ele>310</ele>
        <time>2013-05-05T08:09:16Z</time>
      </trkpt>
      <trkpt lat="50.05301" lon="5.26758">
        <ele>309</ele>
        <time>2013-05-05T08:09:26Z</time>
      </trkpt>
      <trkpt lat="50.05304" lon="5.2676">
        <ele>309</ele>
        <time>2013-05-05T08:09:36Z</time>
      </trkpt>
      <trkpt lat="50.05306" lon="5.26761">
        <ele>309</ele>
        <time>2013-05-05T08:09:46Z</time>
      </trkpt>
      <trkpt lat="50.05305" lon="5.26758">
        <ele>310</ele>
        <time>2013-05-05T08:09:56Z</time>
      </trkpt>
      <trkpt lat="50.05303" lon="5.26754">
        <ele>310</ele>
        <time>2013-05-05T08:10:06Z</time>
      </trkpt>
      <trkpt lat="50.05302" lon="5.26751">
        <ele>310</ele>
        <time>2013-05-05T08:10:17Z</time>
      </trkpt>
      <trkpt lat="50.053" lon="5.26749">
        <ele>310</ele>
        <time>2013-05-05T08:10:27Z</time>
      </trkpt>
      <trkpt lat="50.05302" lon="5.2675">
        <ele>310</ele>
        <time>2013-05-05T08:10:37Z</time>
      </trkpt>
      <trkpt lat="50.05305" lon="5.2675">
        <ele>310</ele>
        <time>2013-05-05T08:10:47Z</time>
      </trkpt>
      <trkpt lat="50.05306" lon="5.26747">
        <ele>310</ele>
        <time>2013-05-05T08:10:57Z</time>
      </trkpt>
      <trkpt lat="50.05304" lon="5.26745">
        <ele>310</ele>
        <time>2013-05-05T08:11:07Z</time>
      </trkpt>
      <trkpt lat="50.05302" lon="5.26744">
        <ele>309</ele>
        <time>2013-05-05T08:11:17Z</time>
      </trkpt>
      <trkpt lat="50.05301" lon="5.26745">
        <ele>310</ele>
        <time>2013-05-05T08:11:27Z</time>
      </trkpt>
      <trkpt lat="50.053" lon="5.26745">
        <ele>309</ele>
        <time>2013-05-05T08:11:37Z</time>
      </trkpt>
      <trkpt lat="50.053" lon="5.26746">
        <ele>310</ele>
        <time>2013-05-05T08:11:47Z</time>
      </trkpt>
      <trkpt lat="50.053" lon="5.26748">
        <ele>310</ele>
        <time>2013-05-05T08:11:57Z</time>
      </trkpt>
      <trkpt lat="50.05301" lon="5.2675">
        <ele>310</ele>
        <time>2013-05-05T08:12:07Z</time>
      </trkpt>
      <trkpt lat="50.05301" lon="5.26751">
        <ele>309</ele>
        <time>2013-05-05T08:12:17Z</time>
      </trkpt>
      <trkpt lat="50.053" lon="5.26753">
        <ele>310</ele>
        <time>2013-05-05T08:12:27Z</time>
      </trkpt>
      <trkpt lat="50.05299" lon="5.26759">
        <ele>309</ele>
        <time>2013-05-05T08:12:37Z</time>
      </trkpt>
      <trkpt lat="50.05299" lon="5.26762">
        <ele>311</ele>
        <time>2013-05-05T08:12:47Z</time>
      </trkpt>
      <trkpt lat="50.05296" lon="5.26764">
        <ele>311</ele>
        <time>2013-05-05T08:12:57Z</time>
      </trkpt>
      <trkpt lat="50.05294" lon="5.26762">
        <ele>310</ele>
        <time>2013-05-05T08:13:08Z</time>
      </trkpt>
      <trkpt lat="50.05293" lon="5.26763">
        <ele>310</ele>
        <time>2013-05-05T08:13:18Z</time>
      </trkpt>
      <trkpt lat="50.05294" lon="5.26761">
        <ele>310</ele>
        <time>2013-05-05T08:13:28Z</time>
      </trkpt>
      <trkpt lat="50.05295" lon="5.26757">
        <ele>310</ele>
        <time>2013-05-05T08:13:38Z</time>
      </trkpt>
      <trkpt lat="50.05296" lon="5.26753">
        <ele>310</ele>
        <time>2013-05-05T08:13:48Z</time>
      </trkpt>
      <trkpt lat="50.05299" lon="5.2675">
        <ele>310</ele>
        <time>2013-05-05T08:13:58Z</time>
      </trkpt>
      <trkpt lat="50.05302" lon="5.26745">
        <ele>310</ele>
        <time>2013-05-05T08:14:08Z</time>
      </trkpt>
      <trkpt lat="50.05296" lon="5.26736">
        <ele>311</ele>
        <time>2013-05-05T08:14:18Z</time>
      </trkpt>
      <trkpt lat="50.05283" lon="5.26733">
        <ele>310</ele>
        <time>2013-05-05T08:14:28Z</time>
      </trkpt>
      <trkpt lat="50.05268" lon="5.2674">
        <ele>310</ele>
        <time>2013-05-05T08:14:38Z</time>
      </trkpt>
      <trkpt lat="50.05254" lon="5.26743">
        <ele>311</ele>
        <time>2013-05-05T08:14:48Z</time>
      </trkpt>
      <trkpt lat="50.0524" lon="5.26738">
        <ele>311</ele>
        <time>2013-05-05T08:14:58Z</time>
      </trkpt>
      <trkpt lat="50.05228" lon="5.26729">
        <ele>310</ele>
        <time>2013-05-05T08:15:08Z</time>
      </trkpt>
      <trkpt lat="50.05219" lon="5.26719">
        <ele>310</ele>
        <time>2013-05-05T08:15:18Z</time>
      </trkpt>
      <trkpt lat="50.05207" lon="5.26713">
        <ele>310</ele>
        <time>2013-05-05T08:15:28Z</time>
      </trkpt>
      <trkpt lat="50.05195" lon="5.26707">
        <ele>310</ele>
        <time>2013-05-05T08:15:38Z</time>
      </trkpt>
      <trkpt lat="50.05183" lon="5.267">
        <ele>310</ele>
        <time>2013-05-05T08:15:48Z</time>
      </trkpt>
      <trkpt lat="50.05172" lon="5.26696">
        <ele>311</ele>
        <time>2013-05-05T08:15:59Z</time>
      </trkpt>
      <trkpt lat="50.05163" lon="5.2669">
        <ele>311</ele>
        <time>2013-05-05T08:16:09Z</time>
      </trkpt>
      <trkpt lat="50.05154" lon="5.26685">
        <ele>310</ele>
        <time>2013-05-05T08:16:19Z</time>
      </trkpt>
      <trkpt lat="50.05143" lon="5.26679">
        <ele>310</ele>
        <time>2013-05-05T08:16:29Z</time>
      </trkpt>
      <trkpt lat="50.05132" lon="5.26675">
        <ele>310</ele>
        <time>2013-05-05T08:16:39Z</time>
      </trkpt>
      <trkpt lat="50.05123" lon="5.26674">
        <ele>310</ele>
        <time>2013-05-05T08:16:49Z</time>
      </trkpt>
      <trkpt lat="50.05118" lon="5.26674">
        <ele>310</ele>
        <time>2013-05-05T08:16:59Z</time>
      </trkpt>
      <trkpt lat="50.05106" lon="5.26678">
        <ele>310</ele>
        <time>2013-05-05T08:17:09Z</time>
      </trkpt>
      <trkpt lat="50.05093" lon="5.26682">
        <ele>311</ele>
        <time>2013-05-05T08:17:19Z</time>
      </trkpt>
      <trkpt lat="50.05082" lon="5.26685">
        <ele>310</ele>
        <time>2013-05-05T08:17:29Z</time>
      </trkpt>
      <trkpt lat="50.0507" lon="5.2669">
        <ele>310</ele>
        <time>2013-05-05T08:17:39Z</time>
      </trkpt>
      <trkpt lat="50.0506" lon="5.26693">
        <ele>311</ele>
        <time>2013-05-05T08:17:49Z</time>
      </trkpt>
      <trkpt lat="50.05048" lon="5.26696">
        <ele>311</ele>
        <time>2013-05-05T08:17:59Z</time>
      </trkpt>
      <trkpt lat="50.05038" lon="5.26701">
        <ele>311</ele>
        <time>2013-05-05T08:18:10Z</time>
      </trkpt>
      <trkpt lat="50.05036" lon="5.26703">
        <ele>311</ele>
        <time>2013-05-05T08:18:20Z</time>
      </trkpt>
      <trkpt lat="50.05031" lon="5.2671">
        <ele>311</ele>
        <time>2013-05-05T08:18:30Z</time>
      </trkpt>
      <trkpt lat="50.05018" lon="5.26718">
        <ele>311</ele>
        <time>2013-05-05T08:18:40Z</time>
      </trkpt>
      <trkpt lat="50.05014" lon="5.26721">
        <ele>311</ele>
        <time>2013-05-05T08:18:50Z</time>
      </trkpt>
      <trkpt lat="50.05016" lon="5.26718">
        <ele>311</ele>
        <time>2013-05-05T08:19:00Z</time>
      </trkpt>
      <trkpt lat="50.0501" lon="5.26721">
        <ele>311</ele>
        <time>2013-05-05T08:19:10Z</time>
      </trkpt>
      <trkpt lat="50.05" lon="5.26724">
        <ele>312</ele>
        <time>2013-05-05T08:19:20Z</time>
      </trkpt>
      <trkpt lat="50.04991" lon="5.26726">
        <ele>312</ele>
        <time>2013-05-05T08:19:30Z</time>
      </trkpt>
      <trkpt lat="50.04981" lon="5.26727">
        <ele>311</ele>
        <time>2013-05-05T08:19:40Z</time>
      </trkpt>
      <trkpt lat="50.0497" lon="5.26729">
        <ele>311</ele>
        <time>2013-05-05T08:19:50Z</time>
      </trkpt>
      <trkpt lat="50.04967" lon="5.26729">
        <ele>311</ele>
        <time>2013-05-05T08:20:00Z</time>
      </trkpt>
      <trkpt lat="50.04959" lon="5.26727">
        <ele>311</ele>
        <time>2013-05-05T08:20:10Z</time>
      </trkpt>
      <trkpt lat="50.04948" lon="5.26731">
        <ele>312</ele>
        <time>2013-05-05T08:20:20Z</time>
      </trkpt>
      <trkpt lat="50.04938" lon="5.26734">
        <ele>313</ele>
        <time>2013-05-05T08:20:30Z</time>
      </trkpt>
      <trkpt lat="50.04928" lon="5.26738">
        <ele>314</ele>
        <time>2013-05-05T08:20:40Z</time>
      </trkpt>
      <trkpt lat="50.04927" lon="5.26738">
        <ele>314</ele>
        <time>2013-05-05T08:20:50Z</time>
      </trkpt>
      <trkpt lat="50.04915" lon="5.26739">
        <ele>314</ele>
        <time>2013-05-05T08:21:01Z</time>
      </trkpt>
      <trkpt lat="50.049" lon="5.26743">
        <ele>313</ele>
        <time>2013-05-05T08:21:11Z</time>
      </trkpt>
      <trkpt lat="50.04891" lon="5.26752">
        <ele>314</ele>
        <time>2013-05-05T08:21:21Z</time>
      </trkpt>
      <trkpt lat="50.04884" lon="5.26762">
        <ele>314</ele>
        <time>2013-05-05T08:21:31Z</time>
      </trkpt>
      <trkpt lat="50.04877" lon="5.26774">
        <ele>314</ele>
        <time>2013-05-05T08:21:41Z</time>
      </trkpt>
      <trkpt lat="50.04873" lon="5.2679">
        <ele>315</ele>
        <time>2013-05-05T08:21:51Z</time>
      </trkpt>
      <trkpt lat="50.04873" lon="5.26804">
        <ele>315</ele>
        <time>2013-05-05T08:22:01Z</time>
      </trkpt>
      <trkpt lat="50.04872" lon="5.26822">
        <ele>316</ele>
        <time>2013-05-05T08:22:11Z</time>
      </trkpt>
      <trkpt lat="50.04873" lon="5.26837">
        <ele>316</ele>
        <time>2013-05-05T08:22:21Z</time>
      </trkpt>
      <trkpt lat="50.04876" lon="5.26855">
        <ele>317</ele>
        <time>2013-05-05T08:22:31Z</time>
      </trkpt>
      <trkpt lat="50.04878" lon="5.26871">
        <ele>318</ele>
        <time>2013-05-05T08:22:41Z</time>
      </trkpt>
      <trkpt lat="50.04878" lon="5.26888">
        <ele>318</ele>
        <time>2013-05-05T08:22:51Z</time>
      </trkpt>
      <trkpt lat="50.04877" lon="5.26905">
        <ele>318</ele>
        <time>2013-05-05T08:23:01Z</time>
      </trkpt>
      <trkpt lat="50.04879" lon="5.26922">
        <ele>319</ele>
        <time>2013-05-05T08:23:11Z</time>
      </trkpt>
      <trkpt lat="50.04882" lon="5.26935">
        <ele>320</ele>
        <time>2013-05-05T08:23:22Z</time>
      </trkpt>
      <trkpt lat="50.04887" lon="5.26952">
        <ele>321</ele>
        <time>2013-05-05T08:23:32Z</time>
      </trkpt>
      <trkpt lat="50.0489" lon="5.26969">
        <ele>321</ele>
        <time>2013-05-05T08:23:42Z</time>
      </trkpt>
      <trkpt lat="50.04892" lon="5.26986">
        <ele>321</ele>
        <time>2013-05-05T08:23:52Z</time>
      </trkpt>
      <trkpt lat="50.04892" lon="5.27004">
        <ele>322</ele>
        <time>2013-05-05T08:24:02Z</time>
      </trkpt>
      <trkpt lat="50.0489" lon="5.27022">
        <ele>323</ele>
        <time>2013-05-05T08:24:12Z</time>
      </trkpt>
      <trkpt lat="50.04887" lon="5.27038">
        <ele>323</ele>
        <time>2013-05-05T08:24:22Z</time>
      </trkpt>
      <trkpt lat="50.04884" lon="5.27052">
        <ele>324</ele>
        <time>2013-05-05T08:24:32Z</time>
      </trkpt>
      <trkpt lat="50.04883" lon="5.27058">
        <ele>325</ele>
        <time>2013-05-05T08:24:42Z</time>
      </trkpt>
      <trkpt lat="50.0488" lon="5.27073">
        <ele>325</ele>
        <time>2013-05-05T08:24:52Z</time>
      </trkpt>
      <trkpt lat="50.04877" lon="5.27089">
        <ele>326</ele>
        <time>2013-05-05T08:25:02Z</time>
      </trkpt>
      <trkpt lat="50.04875" lon="5.27106">
        <ele>327</ele>
        <time>2013-05-05T08:25:12Z</time>
      </trkpt>
      <trkpt lat="50.04873" lon="5.27121">
        <ele>327</ele>
        <time>2013-05-05T08:25:22Z</time>
      </trkpt>
      <trkpt lat="50.04871" lon="5.27127">
        <ele>327</ele>
        <time>2013-05-05T08:25:32Z</time>
      </trkpt>
      <trkpt lat="50.04871" lon="5.27126">
        <ele>327</ele>
        <time>2013-05-05T08:25:42Z</time>
      </trkpt>
      <trkpt lat="50.04872" lon="5.27141">
        <ele>327</ele>
        <time>2013-05-05T08:25:52Z</time>
      </trkpt>
      <trkpt lat="50.04872" lon="5.27157">
        <ele>326</ele>
        <time>2013-05-05T08:26:03Z</time>
      </trkpt>
      <trkpt lat="50.04875" lon="5.27174">
        <ele>327</ele>
        <time>2013-05-05T08:26:13Z</time>
      </trkpt>
      <trkpt lat="50.04879" lon="5.27191">
        <ele>327</ele>
        <time>2013-05-05T08:26:23Z</time>
      </trkpt>
      <trkpt lat="50.04882" lon="5.27209">
        <ele>327</ele>
        <time>2013-05-05T08:26:33Z</time>
      </trkpt>
      <trkpt lat="50.04883" lon="5.27226">
        <ele>328</ele>
        <time>2013-05-05T08:26:43Z</time>
      </trkpt>
      <trkpt lat="50.04884" lon="5.27243">
        <ele>329</ele>
        <time>2013-05-05T08:26:53Z</time>
      </trkpt>
      <trkpt lat="50.04882" lon="5.2726">
        <ele>330</ele>
        <time>2013-05-05T08:27:03Z</time>
      </trkpt>
      <trkpt lat="50.04881" lon="5.27279">
        <ele>330</ele>
        <time>2013-05-05T08:27:13Z</time>
      </trkpt>
      <trkpt lat="50.0488" lon="5.27296">
        <ele>330</ele>
        <time>2013-05-05T08:27:23Z</time>
      </trkpt>
      <trkpt lat="50.04877" lon="5.27314">
        <ele>330</ele>
        <time>2013-05-05T08:27:33Z</time>
      </trkpt>
      <trkpt lat="50.04876" lon="5.27329">
        <ele>332</ele>
        <time>2013-05-05T08:27:43Z</time>
      </trkpt>
      <trkpt lat="50.04875" lon="5.27345">
        <ele>333</ele>
        <time>2013-05-05T08:27:53Z</time>
      </trkpt>
      <trkpt lat="50.04877" lon="5.27361">
        <ele>333</ele>
        <time>2013-05-05T08:28:03Z</time>
      </trkpt>
      <trkpt lat="50.04881" lon="5.27378">
        <ele>334</ele>
        <time>2013-05-05T08:28:13Z</time>
      </trkpt>
      <trkpt lat="50.04883" lon="5.27396">
        <ele>335</ele>
        <time>2013-05-05T08:28:24Z</time>
      </trkpt>
      <trkpt lat="50.04887" lon="5.27413">
        <ele>335</ele>
        <time>2013-05-05T08:28:34Z</time>
      </trkpt>
      <trkpt lat="50.0489" lon="5.27429">
        <ele>335</ele>
        <time>2013-05-05T08:28:44Z</time>
      </trkpt>
      <trkpt lat="50.04893" lon="5.27445">
        <ele>336</ele>
        <time>2013-05-05T08:28:54Z</time>
      </trkpt>
      <trkpt lat="50.04893" lon="5.27461">
        <ele>337</ele>
        <time>2013-05-05T08:29:04Z</time>
      </trkpt>
      <trkpt lat="50.04896" lon="5.27477">
        <ele>338</ele>
        <time>2013-05-05T08:29:14Z</time>
      </trkpt>
      <trkpt lat="50.04899" lon="5.27493">
        <ele>339</ele>
        <time>2013-05-05T08:29:24Z</time>
      </trkpt>
      <trkpt lat="50.04902" lon="5.27508">
        <ele>339</ele>
        <time>2013-05-05T08:29:34Z</time>
      </trkpt>
      <trkpt lat="50.04906" lon="5.27522">
        <ele>341</ele>
        <time>2013-05-05T08:29:44Z</time>
      </trkpt>
      <trkpt lat="50.04908" lon="5.27536">
        <ele>341</ele>
        <time>2013-05-05T08:29:54Z</time>
      </trkpt>
      <trkpt lat="50.04911" lon="5.27551">
        <ele>342</ele>
        <time>2013-05-05T08:30:04Z</time>
      </trkpt>
      <trkpt lat="50.04913" lon="5.27565">
        <ele>343</ele>
        <time>2013-05-05T08:30:15Z</time>
      </trkpt>
      <trkpt lat="50.04912" lon="5.2758">
        <ele>344</ele>
        <time>2013-05-05T08:30:25Z</time>
      </trkpt>
      <trkpt lat="50.04911" lon="5.27596">
        <ele>344</ele>
        <time>2013-05-05T08:30:35Z</time>
      </trkpt>
      <trkpt lat="50.04909" lon="5.27612">
        <ele>346</ele>
        <time>2013-05-05T08:30:45Z</time>
      </trkpt>
      <trkpt lat="50.04908" lon="5.27626">
        <ele>346</ele>
        <time>2013-05-05T08:30:55Z</time>
      </trkpt>
      <trkpt lat="50.04908" lon="5.27641">
        <ele>347</ele>
        <time>2013-05-05T08:31:05Z</time>
      </trkpt>
      <trkpt lat="50.04908" lon="5.27659">
        <ele>347</ele>
        <time>2013-05-05T08:31:15Z</time>
      </trkpt>
      <trkpt lat="50.0491" lon="5.27676">
        <ele>347</ele>
        <time>2013-05-05T08:31:25Z</time>
      </trkpt>
      <trkpt lat="50.04913" lon="5.27691">
        <ele>348</ele>
        <time>2013-05-05T08:31:35Z</time>
      </trkpt>
      <trkpt lat="50.04916" lon="5.27708">
        <ele>349</ele>
        <time>2013-05-05T08:31:45Z</time>
      </trkpt>
      <trkpt lat="50.04919" lon="5.27723">
        <ele>349</ele>
        <time>2013-05-05T08:31:55Z</time>
      </trkpt>
      <trkpt lat="50.04924" lon="5.27737">
        <ele>350</ele>
        <time>2013-05-05T08:32:05Z</time>
      </trkpt>
      <trkpt lat="50.04929" lon="5.27751">
        <ele>350</ele>
        <time>2013-05-05T08:32:16Z</time>
      </trkpt>
      <trkpt lat="50.04934" lon="5.27763">
        <ele>351</ele>
        <time>2013-05-05T08:32:26Z</time>
      </trkpt>
      <trkpt lat="50.04937" lon="5.27776">
        <ele>352</ele>
        <time>2013-05-05T08:32:36Z</time>
      </trkpt>
      <trkpt lat="50.0494" lon="5.2779">
        <ele>353</ele>
        <time>2013-05-05T08:32:46Z</time>
      </trkpt>
      <trkpt lat="50.04945" lon="5.27802">
        <ele>353</ele>
        <time>2013-05-05T08:32:56Z</time>
      </trkpt>
      <trkpt lat="50.0495" lon="5.27815">
        <ele>353</ele>
        <time>2013-05-05T08:33:06Z</time>
      </trkpt>
      <trkpt lat="50.04955" lon="5.2783">
        <ele>353</ele>
        <time>2013-05-05T08:33:16Z</time>
      </trkpt>
      <trkpt lat="50.0496" lon="5.27845">
        <ele>354</ele>
        <time>2013-05-05T08:33:26Z</time>
      </trkpt>
      <trkpt lat="50.04964" lon="5.27857">
        <ele>354</ele>
        <time>2013-05-05T08:33:36Z</time>
      </trkpt>
      <trkpt lat="50.0497" lon="5.27872">
        <ele>354</ele>
        <time>2013-05-05T08:33:46Z</time>
      </trkpt>
      <trkpt lat="50.04976" lon="5.27887">
        <ele>353</ele>
        <time>2013-05-05T08:33:56Z</time>
      </trkpt>
      <trkpt lat="50.04981" lon="5.27904">
        <ele>354</ele>
        <time>2013-05-05T08:34:06Z</time>
      </trkpt>
      <trkpt lat="50.04986" lon="5.27919">
        <ele>355</ele>
        <time>2013-05-05T08:34:16Z</time>
      </trkpt>
      <trkpt lat="50.0499" lon="5.27934">
        <ele>355</ele>
        <time>2013-05-05T08:34:26Z</time>
      </trkpt>
      <trkpt lat="50.04992" lon="5.2795">
        <ele>355</ele>
        <time>2013-05-05T08:34:36Z</time>
      </trkpt>
      <trkpt lat="50.04997" lon="5.27965">
        <ele>357</ele>
        <time>2013-05-05T08:34:46Z</time>
      </trkpt>
      <trkpt lat="50.05003" lon="5.27978">
        <ele>357</ele>
        <time>2013-05-05T08:34:56Z</time>
      </trkpt>
      <trkpt lat="50.05007" lon="5.27977">
        <ele>358</ele>
        <time>2013-05-05T08:35:06Z</time>
      </trkpt>
      <trkpt lat="50.05018" lon="5.27984">
        <ele>358</ele>
        <time>2013-05-05T08:35:17Z</time>
      </trkpt>
      <trkpt lat="50.0503" lon="5.27994">
        <ele>360</ele>
        <time>2013-05-05T08:35:27Z</time>
      </trkpt>
      <trkpt lat="50.05035" lon="5.28007">
        <ele>360</ele>
        <time>2013-05-05T08:35:37Z</time>
      </trkpt>
      <trkpt lat="50.0504" lon="5.28019">
        <ele>360</ele>
        <time>2013-05-05T08:35:47Z</time>
      </trkpt>
      <trkpt lat="50.05045" lon="5.2803">
        <ele>361</ele>
        <time>2013-05-05T08:35:57Z</time>
      </trkpt>
      <trkpt lat="50.05044" lon="5.28034">
        <ele>361</ele>
        <time>2013-05-05T08:36:07Z</time>
      </trkpt>
      <trkpt lat="50.05049" lon="5.28047">
        <ele>363</ele>
        <time>2013-05-05T08:36:17Z</time>
      </trkpt>
      <trkpt lat="50.05055" lon="5.28058">
        <ele>363</ele>
        <time>2013-05-05T08:36:27Z</time>
      </trkpt>
      <trkpt lat="50.05062" lon="5.28069">
        <ele>364</ele>
        <time>2013-05-05T08:36:37Z</time>
      </trkpt>
      <trkpt lat="50.05064" lon="5.28077">
        <ele>364</ele>
        <time>2013-05-05T08:36:47Z</time>
      </trkpt>
      <trkpt lat="50.0507" lon="5.28089">
        <ele>364</ele>
        <time>2013-05-05T08:36:57Z</time>
      </trkpt>
      <trkpt lat="50.05077" lon="5.281">
        <ele>366</ele>
        <time>2013-05-05T08:37:07Z</time>
      </trkpt>
      <trkpt lat="50.05082" lon="5.28107">
        <ele>367</ele>
        <time>2013-05-05T08:37:17Z</time>
      </trkpt>
      <trkpt lat="50.05088" lon="5.28114">
        <ele>368</ele>
        <time>2013-05-05T08:37:27Z</time>
      </trkpt>
      <trkpt lat="50.05094" lon="5.2812">
        <ele>369</ele>
        <time>2013-05-05T08:37:38Z</time>
      </trkpt>
      <trkpt lat="50.05101" lon="5.28125">
        <ele>370</ele>
        <time>2013-05-05T08:37:48Z</time>
      </trkpt>
      <trkpt lat="50.05107" lon="5.28128">
        <ele>371</ele>
        <time>2013-05-05T08:37:58Z</time>
      </trkpt>
      <trkpt lat="50.05115" lon="5.28133">
        <ele>372</ele>
        <time>2013-05-05T08:38:08Z</time>
      </trkpt>
      <trkpt lat="50.05122" lon="5.28137">
        <ele>373</ele>
        <time>2013-05-05T08:38:18Z</time>
      </trkpt>
      <trkpt lat="50.0513" lon="5.28141">
        <ele>374</ele>
        <time>2013-05-05T08:38:28Z</time>
      </trkpt>
      <trkpt lat="50.05137" lon="5.28146">
        <ele>374</ele>
        <time>2013-05-05T08:38:38Z</time>
      </trkpt>
      <trkpt lat="50.05143" lon="5.2815">
        <ele>375</ele>
        <time>2013-05-05T08:38:48Z</time>
      </trkpt>
      <trkpt lat="50.05151" lon="5.28154">
        <ele>376</ele>
        <time>2013-05-05T08:38:58Z</time>
      </trkpt>
      <trkpt lat="50.05161" lon="5.2816">
        <ele>377</ele>
        <time>2013-05-05T08:39:08Z</time>
      </trkpt>
      <trkpt lat="50.0517" lon="5.28165">
        <ele>377</ele>
        <time>2013-05-05T08:39:18Z</time>
      </trkpt>
      <trkpt lat="50.0518" lon="5.28175">
        <ele>377</ele>
        <time>2013-05-05T08:39:29Z</time>
      </trkpt>
      <trkpt lat="50.05189" lon="5.28186">
        <ele>377</ele>
        <time>2013-05-05T08:39:39Z</time>
      </trkpt>
      <trkpt lat="50.05196" lon="5.28192">
        <ele>377</ele>
        <time>2013-05-05T08:39:49Z</time>
      </trkpt>
      <trkpt lat="50.05204" lon="5.28198">
        <ele>378</ele>
        <time>2013-05-05T08:39:59Z</time>
      </trkpt>
      <trkpt lat="50.05212" lon="5.28203">
        <ele>378</ele>
        <time>2013-05-05T08:40:09Z</time>
      </trkpt>
      <trkpt lat="50.05219" lon="5.28206">
        <ele>379</ele>
        <time>2013-05-05T08:40:19Z</time>
      </trkpt>
      <trkpt lat="50.05228" lon="5.28208">
        <ele>380</ele>
        <time>2013-05-05T08:40:29Z</time>
      </trkpt>
      <trkpt lat="50.05238" lon="5.2821">
        <ele>381</ele>
        <time>2013-05-05T08:40:39Z</time>
      </trkpt>
      <trkpt lat="50.05248" lon="5.28212">
        <ele>381</ele>
        <time>2013-05-05T08:40:49Z</time>
      </trkpt>
      <trkpt lat="50.05256" lon="5.28215">
        <ele>382</ele>
        <time>2013-05-05T08:40:59Z</time>
      </trkpt>
      <trkpt lat="50.05263" lon="5.28219">
        <ele>383</ele>
        <time>2013-05-05T08:41:09Z</time>
      </trkpt>
      <trkpt lat="50.05273" lon="5.28226">
        <ele>384</ele>
        <time>2013-05-05T08:41:19Z</time>
      </trkpt>
      <trkpt lat="50.05278" lon="5.28232">
        <ele>385</ele>
        <time>2013-05-05T08:41:29Z</time>
      </trkpt>
      <trkpt lat="50.05285" lon="5.2824">
        <ele>386</ele>
        <time>2013-05-05T08:41:39Z</time>
      </trkpt>
      <trkpt lat="50.05296" lon="5.28244">
        <ele>387</ele>
        <time>2013-05-05T08:41:49Z</time>
      </trkpt>
      <trkpt lat="50.05304" lon="5.28248">
        <ele>387</ele>
        <time>2013-05-05T08:41:59Z</time>
      </trkpt>
      <trkpt lat="50.05313" lon="5.28257">
        <ele>388</ele>
        <time>2013-05-05T08:42:09Z</time>
      </trkpt>
      <trkpt lat="50.05322" lon="5.28268">
        <ele>388</ele>
        <time>2013-05-05T08:42:19Z</time>
      </trkpt>
      <trkpt lat="50.05328" lon="5.28277">
        <ele>387</ele>
        <time>2013-05-05T08:42:29Z</time>
      </trkpt>
      <trkpt lat="50.05327" lon="5.28279">
        <ele>388</ele>
        <time>2013-05-05T08:42:39Z</time>
      </trkpt>
      <trkpt lat="50.05331" lon="5.2828">
        <ele>390</ele>
        <time>2013-05-05T08:42:49Z</time>
      </trkpt>
      <trkpt lat="50.0533" lon="5.28283">
        <ele>390</ele>
        <time>2013-05-05T08:42:59Z</time>
      </trkpt>
      <trkpt lat="50.05329" lon="5.28287">
        <ele>391</ele>
        <time>2013-05-05T08:43:10Z</time>
      </trkpt>
      <trkpt lat="50.05328" lon="5.28289">
        <ele>391</ele>
        <time>2013-05-05T08:43:20Z</time>
      </trkpt>
      <trkpt lat="50.05328" lon="5.28294">
        <ele>389</ele>
        <time>2013-05-05T08:43:30Z</time>
      </trkpt>
      <trkpt lat="50.0533" lon="5.283">
        <ele>388</ele>
        <time>2013-05-05T08:43:40Z</time>
      </trkpt>
      <trkpt lat="50.05333" lon="5.28303">
        <ele>388</ele>
        <time>2013-05-05T08:43:50Z</time>
      </trkpt>
      <trkpt lat="50.0534" lon="5.28314">
        <ele>389</ele>
        <time>2013-05-05T08:44:00Z</time>
      </trkpt>
      <trkpt lat="50.05348" lon="5.28325">
        <ele>389</ele>
        <time>2013-05-05T08:44:10Z</time>
      </trkpt>
      <trkpt lat="50.05355" lon="5.28338">
        <ele>390</ele>
        <time>2013-05-05T08:44:20Z</time>
      </trkpt>
      <trkpt lat="50.05365" lon="5.28349">
        <ele>390</ele>
        <time>2013-05-05T08:44:30Z</time>
      </trkpt>
      <trkpt lat="50.05372" lon="5.28358">
        <ele>390</ele>
        <time>2013-05-05T08:44:40Z</time>
      </trkpt>
      <trkpt lat="50.05375" lon="5.28356">
        <ele>390</ele>
        <time>2013-05-05T08:44:50Z</time>
      </trkpt>
      <trkpt lat="50.05373" lon="5.28357">
        <ele>390</ele>
        <time>2013-05-05T08:45:00Z</time>
      </trkpt>
      <trkpt lat="50.05374" lon="5.28358">
        <ele>390</ele>
        <time>2013-05-05T08:45:10Z</time>
      </trkpt>
      <trkpt lat="50.05373" lon="5.28359">
        <ele>390</ele>
        <time>2013-05-05T08:45:20Z</time>
      </trkpt>
      <trkpt lat="50.05376" lon="5.28359">
        <ele>390</ele>
        <time>2013-05-05T08:45:30Z</time>
      </trkpt>
      <trkpt lat="50.05376" lon="5.28364">
        <ele>391</ele>
        <time>2013-05-05T08:45:40Z</time>
      </trkpt>
      <trkpt lat="50.05378" lon="5.28365">
        <ele>390</ele>
        <time>2013-05-05T08:45:50Z</time>
      </trkpt>
      <trkpt lat="50.0538" lon="5.28364">
        <ele>390</ele>
        <time>2013-05-05T08:46:00Z</time>
      </trkpt>
      <trkpt lat="50.05379" lon="5.28363">
        <ele>390</ele>
        <time>2013-05-05T08:46:11Z</time>
      </trkpt>
      <trkpt lat="50.05377" lon="5.28361">
        <ele>390</ele>
        <time>2013-05-05T08:46:21Z</time>
      </trkpt>
      <trkpt lat="50.05374" lon="5.2836">
        <ele>389</ele>
        <time>2013-05-05T08:46:31Z</time>
      </trkpt>
      <trkpt lat="50.05376" lon="5.28358">
        <ele>390</ele>
        <time>2013-05-05T08:46:41Z</time>
      </trkpt>
      <trkpt lat="50.05376" lon="5.28358">
        <ele>390</ele>
        <time>2013-05-05T08:46:51Z</time>
      </trkpt>
      <trkpt lat="50.05381" lon="5.2837">
        <ele>391</ele>
        <time>2013-05-05T08:47:01Z</time>
      </trkpt>
      <trkpt lat="50.05385" lon="5.2838">
        <ele>392</ele>
        <time>2013-05-05T08:47:11Z</time>
      </trkpt>
      <trkpt lat="50.05389" lon="5.28392">
        <ele>393</ele>
        <time>2013-05-05T08:47:21Z</time>
      </trkpt>
      <trkpt lat="50.05393" lon="5.28404">
        <ele>394</ele>
        <time>2013-05-05T08:47:31Z</time>
      </trkpt>
      <trkpt lat="50.05399" lon="5.28417">
        <ele>394</ele>
        <time>2013-05-05T08:47:41Z</time>
      </trkpt>
      <trkpt lat="50.05407" lon="5.2843">
        <ele>394</ele>
        <time>2013-05-05T08:47:51Z</time>
      </trkpt>
      <trkpt lat="50.05413" lon="5.28444">
        <ele>395</ele>
        <time>2013-05-05T08:48:01Z</time>
      </trkpt>
      <trkpt lat="50.05419" lon="5.28459">
        <ele>395</ele>
        <time>2013-05-05T08:48:11Z</time>
      </trkpt>
      <trkpt lat="50.05424" lon="5.28474">
        <ele>396</ele>
        <time>2013-05-05T08:48:21Z</time>
      </trkpt>
      <trkpt lat="50.05429" lon="5.28489">
        <ele>397</ele>
        <time>2013-05-05T08:48:31Z</time>
      </trkpt>
      <trkpt lat="50.05433" lon="5.28505">
        <ele>398</ele>
        <time>2013-05-05T08:48:42Z</time>
      </trkpt>
      <trkpt lat="50.05438" lon="5.28521">
        <ele>398</ele>
        <time>2013-05-05T08:48:52Z</time>
      </trkpt>
      <trkpt lat="50.05441" lon="5.28536">
        <ele>398</ele>
        <time>2013-05-05T08:49:02Z</time>
      </trkpt>
      <trkpt lat="50.05444" lon="5.28552">
        <ele>399</ele>
        <time>2013-05-05T08:49:12Z</time>
      </trkpt>
      <trkpt lat="50.05447" lon="5.28567">
        <ele>399</ele>
        <time>2013-05-05T08:49:22Z</time>
      </trkpt>
      <trkpt lat="50.05447" lon="5.28583">
        <ele>400</ele>
        <time>2013-05-05T08:49:32Z</time>
      </trkpt>
      <trkpt lat="50.05447" lon="5.28602">
        <ele>400</ele>
        <time>2013-05-05T08:49:42Z</time>
      </trkpt>
      <trkpt lat="50.0545" lon="5.2862">
        <ele>400</ele>
        <time>2013-05-05T08:49:52Z</time>
      </trkpt>
      <trkpt lat="50.05452" lon="5.28636">
        <ele>401</ele>
        <time>2013-05-05T08:50:02Z</time>
      </trkpt>
      <trkpt lat="50.05456" lon="5.28651">
        <ele>402</ele>
        <time>2013-05-05T08:50:12Z</time>
      </trkpt>
      <trkpt lat="50.05458" lon="5.28665">
        <ele>402</ele>
        <time>2013-05-05T08:50:23Z</time>
      </trkpt>
      <trkpt lat="50.05462" lon="5.28682">
        <ele>403</ele>
        <time>2013-05-05T08:50:33Z</time>
      </trkpt>
      <trkpt lat="50.05466" lon="5.28695">
        <ele>404</ele>
        <time>2013-05-05T08:50:43Z</time>
      </trkpt>
      <trkpt lat="50.05471" lon="5.28709">
        <ele>405</ele>
        <time>2013-05-05T08:50:53Z</time>
      </trkpt>
      <trkpt lat="50.05474" lon="5.28723">
        <ele>406</ele>
        <time>2013-05-05T08:51:03Z</time>
      </trkpt>
      <trkpt lat="50.05479" lon="5.28737">
        <ele>407</ele>
        <time>2013-05-05T08:51:13Z</time>
      </trkpt>
      <trkpt lat="50.05484" lon="5.28753">
        <ele>408</ele>
        <time>2013-05-05T08:51:23Z</time>
      </trkpt>
      <trkpt lat="50.05487" lon="5.28767">
        <ele>408</ele>
        <time>2013-05-05T08:51:33Z</time>
      </trkpt>
      <trkpt lat="50.0549" lon="5.28779">
        <ele>409</ele>
        <time>2013-05-05T08:51:43Z</time>
      </trkpt>
      <trkpt lat="50.05493" lon="5.28791">
        <ele>411</ele>
        <time>2013-05-05T08:51:53Z</time>
      </trkpt>
      <trkpt lat="50.05496" lon="5.28805">
        <ele>412</ele>
        <time>2013-05-05T08:52:03Z</time>
      </trkpt>
      <trkpt lat="50.05497" lon="5.28819">
        <ele>413</ele>
        <time>2013-05-05T08:52:14Z</time>
      </trkpt>
      <trkpt lat="50.05495" lon="5.28837">
        <ele>413</ele>
        <time>2013-05-05T08:52:24Z</time>
      </trkpt>
      <trkpt lat="50.05494" lon="5.28854">
        <ele>414</ele>
        <time>2013-05-05T08:52:34Z</time>
      </trkpt>
      <trkpt lat="50.05492" lon="5.28869">
        <ele>414</ele>
        <time>2013-05-05T08:52:44Z</time>
      </trkpt>
      <trkpt lat="50.05491" lon="5.28884">
        <ele>415</ele>
        <time>2013-05-05T08:52:54Z</time>
      </trkpt>
      <trkpt lat="50.0549" lon="5.28897">
        <ele>415</ele>
        <time>2013-05-05T08:53:04Z</time>
      </trkpt>
      <trkpt lat="50.05489" lon="5.28914">
        <ele>416</ele>
        <time>2013-05-05T08:53:14Z</time>
      </trkpt>
      <trkpt lat="50.05488" lon="5.2893">
        <ele>417</ele>
        <time>2013-05-05T08:53:24Z</time>
      </trkpt>
      <trkpt lat="50.05486" lon="5.28944">
        <ele>418</ele>
        <time>2013-05-05T08:53:34Z</time>
      </trkpt>
      <trkpt lat="50.05482" lon="5.28962">
        <ele>418</ele>
        <time>2013-05-05T08:53:44Z</time>
      </trkpt>
      <trkpt lat="50.05477" lon="5.28978">
        <ele>418</ele>
        <time>2013-05-05T08:53:54Z</time>
      </trkpt>
      <trkpt lat="50.05472" lon="5.28991">
        <ele>419</ele>
        <time>2013-05-05T08:54:04Z</time>
      </trkpt>
      <trkpt lat="50.05466" lon="5.29005">
        <ele>418</ele>
        <time>2013-05-05T08:54:14Z</time>
      </trkpt>
      <trkpt lat="50.05461" lon="5.2902">
        <ele>419</ele>
        <time>2013-05-05T08:54:25Z</time>
      </trkpt>
      <trkpt lat="50.05455" lon="5.29035">
        <ele>419</ele>
        <time>2013-05-05T08:54:35Z</time>
      </trkpt>
      <trkpt lat="50.05451" lon="5.29051">
        <ele>419</ele>
        <time>2013-05-05T08:54:45Z</time>
      </trkpt>
      <trkpt lat="50.05445" lon="5.29068">
        <ele>419</ele>
        <time>2013-05-05T08:54:55Z</time>
      </trkpt>
      <trkpt lat="50.05437" lon="5.29085">
        <ele>419</ele>
        <time>2013-05-05T08:55:05Z</time>
      </trkpt>
      <trkpt lat="50.05431" lon="5.29101">
        <ele>420</ele>
        <time>2013-05-05T08:55:15Z</time>
      </trkpt>
      <trkpt lat="50.05424" lon="5.29114">
        <ele>421</ele>
        <time>2013-05-05T08:55:25Z</time>
      </trkpt>
      <trkpt lat="50.05418" lon="5.29127">
        <ele>420</ele>
        <time>2013-05-05T08:55:35Z</time>
      </trkpt>
      <trkpt lat="50.05413" lon="5.29141">
        <ele>421</ele>
        <time>2013-05-05T08:55:45Z</time>
      </trkpt>
      <trkpt lat="50.05408" lon="5.29154">
        <ele>421</ele>
        <time>2013-05-05T08:55:55Z</time>
      </trkpt>
      <trkpt lat="50.05403" lon="5.29166">
        <ele>421</ele>
        <time>2013-05-05T08:56:05Z</time>
      </trkpt>
      <trkpt lat="50.05398" lon="5.29179">
        <ele>422</ele>
        <time>2013-05-05T08:56:15Z</time>
      </trkpt>
      <trkpt lat="50.05393" lon="5.29194">
        <ele>423</ele>
        <time>2013-05-05T08:56:25Z</time>
      </trkpt>
      <trkpt lat="50.05387" lon="5.29208">
        <ele>423</ele>
        <time>2013-05-05T08:56:35Z</time>
      </trkpt>
      <trkpt lat="50.05383" lon="5.29223">
        <ele>423</ele>
        <time>2013-05-05T08:56:46Z</time>
      </trkpt>
      <trkpt lat="50.05377" lon="5.29238">
        <ele>423</ele>
        <time>2013-05-05T08:56:56Z</time>
      </trkpt>
      <trkpt lat="50.0537" lon="5.29255">
        <ele>424</ele>
        <time>2013-05-05T08:57:06Z</time>
      </trkpt>
      <trkpt lat="50.05363" lon="5.29269">
        <ele>423</ele>
        <time>2013-05-05T08:57:16Z</time>
      </trkpt>
      <trkpt lat="50.05358" lon="5.29282">
        <ele>424</ele>
        <time>2013-05-05T08:57:26Z</time>
      </trkpt>
      <trkpt lat="50.05352" lon="5.29293">
        <ele>425</ele>
        <time>2013-05-05T08:57:36Z</time>
      </trkpt>
      <trkpt lat="50.05346" lon="5.29306">
        <ele>426</ele>
        <time>2013-05-05T08:57:46Z</time>
      </trkpt>
      <trkpt lat="50.05341" lon="5.2932">
        <ele>427</ele>
        <time>2013-05-05T08:57:56Z</time>
      </trkpt>
      <trkpt lat="50.05336" lon="5.29331">
        <ele>427</ele>
        <time>2013-05-05T08:58:06Z</time>
      </trkpt>
      <trkpt lat="50.05334" lon="5.29335">
        <ele>428</ele>
        <time>2013-05-05T08:58:16Z</time>
      </trkpt>
      <trkpt lat="50.05333" lon="5.29336">
        <ele>428</ele>
        <time>2013-05-05T08:58:26Z</time>
      </trkpt>
      <trkpt lat="50.05336" lon="5.29335">
        <ele>428</ele>
        <time>2013-05-05T08:58:36Z</time>
      </trkpt>
      <trkpt lat="50.05338" lon="5.29337">
        <ele>429</ele>
        <time>2013-05-05T08:58:46Z</time>
      </trkpt>
      <trkpt lat="50.05336" lon="5.29338">
        <ele>429</ele>
        <time>2013-05-05T08:58:56Z</time>
      </trkpt>
      <trkpt lat="50.05332" lon="5.29336">
        <ele>428</ele>
        <time>2013-05-05T08:59:06Z</time>
      </trkpt>
      <trkpt lat="50.0533" lon="5.29337">
        <ele>428</ele>
        <time>2013-05-05T08:59:16Z</time>
      </trkpt>
      <trkpt lat="50.0533" lon="5.2934">
        <ele>428</ele>
        <time>2013-05-05T08:59:26Z</time>
      </trkpt>
      <trkpt lat="50.0533" lon="5.29339">
        <ele>428</ele>
        <time>2013-05-05T08:59:36Z</time>
      </trkpt>
      <trkpt lat="50.05327" lon="5.2934">
        <ele>428</ele>
        <time>2013-05-05T08:59:47Z</time>
      </trkpt>
      <trkpt lat="50.05324" lon="5.29341">
        <ele>428</ele>
        <time>2013-05-05T08:59:57Z</time>
      </trkpt>
      <trkpt lat="50.05318" lon="5.29351">
        <ele>428</ele>
        <time>2013-05-05T09:00:07Z</time>
      </trkpt>
      <trkpt lat="50.05317" lon="5.29357">
        <ele>429</ele>
        <time>2013-05-05T09:00:17Z</time>
      </trkpt>
      <trkpt lat="50.05315" lon="5.2936">
        <ele>429</ele>
        <time>2013-05-05T09:00:27Z</time>
      </trkpt>
      <trkpt lat="50.05311" lon="5.29363">
        <ele>429</ele>
        <time>2013-05-05T09:00:37Z</time>
      </trkpt>
      <trkpt lat="50.05307" lon="5.29375">
        <ele>429</ele>
        <time>2013-05-05T09:00:47Z</time>
      </trkpt>
      <trkpt lat="50.05302" lon="5.29387">
        <ele>431</ele>
        <time>2013-05-05T09:00:57Z</time>
      </trkpt>
      <trkpt lat="50.05296" lon="5.29402">
        <ele>431</ele>
        <time>2013-05-05T09:01:07Z</time>
      </trkpt>
      <trkpt lat="50.05291" lon="5.29414">
        <ele>432</ele>
        <time>2013-05-05T09:01:17Z</time>
      </trkpt>
      <trkpt lat="50.05286" lon="5.29426">
        <ele>433</ele>
        <time>2013-05-05T09:01:27Z</time>
      </trkpt>
      <trkpt lat="50.05281" lon="5.29439">
        <ele>435</ele>
        <time>2013-05-05T09:01:37Z</time>
      </trkpt>
      <trkpt lat="50.05277" lon="5.29448">
        <ele>435</ele>
        <time>2013-05-05T09:01:47Z</time>
      </trkpt>
      <trkpt lat="50.05271" lon="5.29459">
        <ele>436</ele>
        <time>2013-05-05T09:01:57Z</time>
      </trkpt>
      <trkpt lat="50.05264" lon="5.29472">
        <ele>436</ele>
        <time>2013-05-05T09:02:08Z</time>
      </trkpt>
      <trkpt lat="50.05258" lon="5.29483">
        <ele>437</ele>
        <time>2013-05-05T09:02:18Z</time>
      </trkpt>
      <trkpt lat="50.05253" lon="5.29494">
        <ele>438</ele>
        <time>2013-05-05T09:02:28Z</time>
      </trkpt>
      <trkpt lat="50.05247" lon="5.29505">
        <ele>439</ele>
        <time>2013-05-05T09:02:38Z</time>
      </trkpt>
      <trkpt lat="50.05241" lon="5.29516">
        <ele>440</ele>
        <time>2013-05-05T09:02:48Z</time>
      </trkpt>
      <trkpt lat="50.05234" lon="5.29527">
        <ele>440</ele>
        <time>2013-05-05T09:02:58Z</time>
      </trkpt>
      <trkpt lat="50.05227" lon="5.29542">
        <ele>441</ele>
        <time>2013-05-05T09:03:08Z</time>
      </trkpt>
      <trkpt lat="50.05222" lon="5.29555">
        <ele>442</ele>
        <time>2013-05-05T09:03:18Z</time>
      </trkpt>
      <trkpt lat="50.05219" lon="5.29567">
        <ele>442</ele>
        <time>2013-05-05T09:03:28Z</time>
      </trkpt>
      <trkpt lat="50.05215" lon="5.29581">
        <ele>443</ele>
        <time>2013-05-05T09:03:38Z</time>
      </trkpt>
      <trkpt lat="50.0521" lon="5.29595">
        <ele>442</ele>
        <time>2013-05-05T09:03:48Z</time>
      </trkpt>
      <trkpt lat="50.05207" lon="5.2961">
        <ele>443</ele>
        <time>2013-05-05T09:03:58Z</time>
      </trkpt>
      <trkpt lat="50.05204" lon="5.29624">
        <ele>444</ele>
        <time>2013-05-05T09:04:08Z</time>
      </trkpt>
      <trkpt lat="50.05197" lon="5.29636">
        <ele>445</ele>
        <time>2013-05-05T09:04:19Z</time>
      </trkpt>
      <trkpt lat="50.05189" lon="5.29648">
        <ele>445</ele>
        <time>2013-05-05T09:04:29Z</time>
      </trkpt>
      <trkpt lat="50.05181" lon="5.29658">
        <ele>445</ele>
        <time>2013-05-05T09:04:39Z</time>
      </trkpt>
      <trkpt lat="50.05173" lon="5.29663">
        <ele>445</ele>
        <time>2013-05-05T09:04:49Z</time>
      </trkpt>
      <trkpt lat="50.05165" lon="5.29669">
        <ele>446</ele>
        <time>2013-05-05T09:04:59Z</time>
      </trkpt>
      <trkpt lat="50.05157" lon="5.29683">
        <ele>446</ele>
        <time>2013-05-05T09:05:09Z</time>
      </trkpt>
      <trkpt lat="50.05152" lon="5.29697">
        <ele>447</ele>
        <time>2013-05-05T09:05:19Z</time>
      </trkpt>
      <trkpt lat="50.05149" lon="5.29707">
        <ele>448</ele>
        <time>2013-05-05T09:05:29Z</time>
      </trkpt>
      <trkpt lat="50.05148" lon="5.29719">
        <ele>449</ele>
        <time>2013-05-05T09:05:39Z</time>
      </trkpt>
      <trkpt lat="50.05146" lon="5.29733">
        <ele>450</ele>
        <time>2013-05-05T09:05:49Z</time>
      </trkpt>
      <trkpt lat="50.05143" lon="5.29748">
        <ele>451</ele>
        <time>2013-05-05T09:05:59Z</time>
      </trkpt>
      <trkpt lat="50.05139" lon="5.29761">
        <ele>452</ele>
        <time>2013-05-05T09:06:09Z</time>
      </trkpt>
      <trkpt lat="50.05138" lon="5.29778">
        <ele>453</ele>
        <time>2013-05-05T09:06:19Z</time>
      </trkpt>
      <trkpt lat="50.05137" lon="5.29795">
        <ele>454</ele>
        <time>2013-05-05T09:06:29Z</time>
      </trkpt>
      <trkpt lat="50.05136" lon="5.2981">
        <ele>454</ele>
        <time>2013-05-05T09:06:40Z</time>
      </trkpt>
      <trkpt lat="50.05135" lon="5.29824">
        <ele>455</ele>
        <time>2013-05-05T09:06:50Z</time>
      </trkpt>
      <trkpt lat="50.05134" lon="5.29838">
        <ele>455</ele>
        <time>2013-05-05T09:07:00Z</time>
      </trkpt>
      <trkpt lat="50.05132" lon="5.29854">
        <ele>456</ele>
        <time>2013-05-05T09:07:10Z</time>
      </trkpt>
      <trkpt lat="50.0513" lon="5.29868">
        <ele>456</ele>
        <time>2013-05-05T09:07:20Z</time>
      </trkpt>
      <trkpt lat="50.05129" lon="5.29882">
        <ele>457</ele>
        <time>2013-05-05T09:07:30Z</time>
      </trkpt>
      <trkpt lat="50.05128" lon="5.29897">
        <ele>457</ele>
        <time>2013-05-05T09:07:40Z</time>
      </trkpt>
      <trkpt lat="50.05128" lon="5.29912">
        <ele>458</ele>
        <time>2013-05-05T09:07:50Z</time>
      </trkpt>
      <trkpt lat="50.05128" lon="5.29919">
        <ele>459</ele>
        <time>2013-05-05T09:08:00Z</time>
      </trkpt>
      <trkpt lat="50.05129" lon="5.29929">
        <ele>459</ele>
        <time>2013-05-05T09:08:10Z</time>
      </trkpt>
      <trkpt lat="50.0513" lon="5.29938">
        <ele>459</ele>
        <time>2013-05-05T09:08:20Z</time>
      </trkpt>
      <trkpt lat="50.0513" lon="5.29951">
        <ele>460</ele>
        <time>2013-05-05T09:08:30Z</time>
      </trkpt>
      <trkpt lat="50.05133" lon="5.29965">
        <ele>460</ele>
        <time>2013-05-05T09:08:41Z</time>
      </trkpt>
      <trkpt lat="50.05135" lon="5.29975">
        <ele>461</ele>
        <time>2013-05-05T09:08:51Z</time>
      </trkpt>
      <trkpt lat="50.05136" lon="5.29986">
        <ele>462</ele>
        <time>2013-05-05T09:09:01Z</time>
      </trkpt>
      <trkpt lat="50.05137" lon="5.30001">
        <ele>462</ele>
        <time>2013-05-05T09:09:11Z</time>
      </trkpt>
      <trkpt lat="50.0514" lon="5.30011">
        <ele>463</ele>
        <time>2013-05-05T09:09:21Z</time>
      </trkpt>
      <trkpt lat="50.05143" lon="5.30027">
        <ele>463</ele>
        <time>2013-05-05T09:09:31Z</time>
      </trkpt>
      <trkpt lat="50.05145" lon="5.30041">
        <ele>464</ele>
        <time>2013-05-05T09:09:41Z</time>
      </trkpt>
      <trkpt lat="50.05146" lon="5.30055">
        <ele>465</ele>
        <time>2013-05-05T09:09:51Z</time>
      </trkpt>
      <trkpt lat="50.05147" lon="5.30067">
        <ele>465</ele>
        <time>2013-05-05T09:10:01Z</time>
      </trkpt>
      <trkpt lat="50.05148" lon="5.30081">
        <ele>466</ele>
        <time>2013-05-05T09:10:11Z</time>
      </trkpt>
      <trkpt lat="50.05148" lon="5.30086">
        <ele>466</ele>
        <time>2013-05-05T09:10:21Z</time>
      </trkpt>
      <trkpt lat="50.05148" lon="5.30092">
        <ele>466</ele>
        <time>2013-05-05T09:10:31Z</time>
      </trkpt>
      <trkpt lat="50.05145" lon="5.30099">
        <ele>467</ele>
        <time>2013-05-05T09:10:41Z</time>
      </trkpt>
      <trkpt lat="50.05143" lon="5.30103">
        <ele>466</ele>
        <time>2013-05-05T09:10:51Z</time>
      </trkpt>
      <trkpt lat="50.05142" lon="5.30105">
        <ele>466</ele>
        <time>2013-05-05T09:11:01Z</time>
      </trkpt>
      <trkpt lat="50.05142" lon="5.30106">
        <ele>466</ele>
        <time>2013-05-05T09:11:11Z</time>
      </trkpt>
      <trkpt lat="50.05141" lon="5.30107">
        <ele>466</ele>
        <time>2013-05-05T09:11:22Z</time>
      </trkpt>
      <trkpt lat="50.05142" lon="5.30109">
        <ele>467</ele>
        <time>2013-05-05T09:11:32Z</time>
      </trkpt>
      <trkpt lat="50.05143" lon="5.3011">
        <ele>466</ele>
        <time>2013-05-05T09:11:42Z</time>
      </trkpt>
      <trkpt lat="50.05146" lon="5.30117">
        <ele>467</ele>
        <time>2013-05-05T09:11:52Z</time>
      </trkpt>
      <trkpt lat="50.05149" lon="5.30126">
        <ele>468</ele>
        <time>2013-05-05T09:12:02Z</time>
      </trkpt>
      <trkpt lat="50.05153" lon="5.30136">
        <ele>468</ele>
        <time>2013-05-05T09:12:12Z</time>
      </trkpt>
      <trkpt lat="50.05156" lon="5.30149">
        <ele>469</ele>
        <time>2013-05-05T09:12:22Z</time>
      </trkpt>
      <trkpt lat="50.05158" lon="5.30163">
        <ele>470</ele>
        <time>2013-05-05T09:12:32Z</time>
      </trkpt>
      <trkpt lat="50.05161" lon="5.30179">
        <ele>471</ele>
        <time>2013-05-05T09:12:42Z</time>
      </trkpt>
      <trkpt lat="50.05162" lon="5.30191">
        <ele>471</ele>
        <time>2013-05-05T09:12:52Z</time>
      </trkpt>
      <trkpt lat="50.05163" lon="5.302">
        <ele>472</ele>
        <time>2013-05-05T09:13:02Z</time>
      </trkpt>
      <trkpt lat="50.05164" lon="5.30213">
        <ele>472</ele>
        <time>2013-05-05T09:13:12Z</time>
      </trkpt>
      <trkpt lat="50.05168" lon="5.30227">
        <ele>474</ele>
        <time>2013-05-05T09:13:22Z</time>
      </trkpt>
      <trkpt lat="50.0517" lon="5.30239">
        <ele>475</ele>
        <time>2013-05-05T09:13:33Z</time>
      </trkpt>
      <trkpt lat="50.05171" lon="5.30249">
        <ele>476</ele>
        <time>2013-05-05T09:13:43Z</time>
      </trkpt>
      <trkpt lat="50.05173" lon="5.30259">
        <ele>478</ele>
        <time>2013-05-05T09:13:53Z</time>
      </trkpt>
      <trkpt lat="50.05175" lon="5.3027">
        <ele>478</ele>
        <time>2013-05-05T09:14:03Z</time>
      </trkpt>
      <trkpt lat="50.05177" lon="5.3028">
        <ele>479</ele>
        <time>2013-05-05T09:14:13Z</time>
      </trkpt>
      <trkpt lat="50.0518" lon="5.3029">
        <ele>479</ele>
        <time>2013-05-05T09:14:23Z</time>
      </trkpt>
      <trkpt lat="50.05182" lon="5.30297">
        <ele>479</ele>
        <time>2013-05-05T09:14:33Z</time>
      </trkpt>
      <trkpt lat="50.05186" lon="5.30309">
        <ele>480</ele>
        <time>2013-05-05T09:14:43Z</time>
      </trkpt>
      <trkpt lat="50.05191" lon="5.30323">
        <ele>481</ele>
        <time>2013-05-05T09:14:53Z</time>
      </trkpt>
      <trkpt lat="50.05196" lon="5.30335">
        <ele>482</ele>
        <time>2013-05-05T09:15:03Z</time>
      </trkpt>
      <trkpt lat="50.05199" lon="5.30347">
        <ele>483</ele>
        <time>2013-05-05T09:15:13Z</time>
      </trkpt>
      <trkpt lat="50.05202" lon="5.3036">
        <ele>485</ele>
        <time>2013-05-05T09:15:23Z</time>
      </trkpt>
      <trkpt lat="50.05207" lon="5.3037">
        <ele>486</ele>
        <time>2013-05-05T09:15:33Z</time>
      </trkpt>
      <trkpt lat="50.05212" lon="5.30383">
        <ele>488</ele>
        <time>2013-05-05T09:15:43Z</time>
      </trkpt>
      <trkpt lat="50.05216" lon="5.30392">
        <ele>489</ele>
        <time>2013-05-05T09:15:53Z</time>
      </trkpt>
      <trkpt lat="50.05216" lon="5.30393">
        <ele>489</ele>
        <time>2013-05-05T09:16:03Z</time>
      </trkpt>
      <trkpt lat="50.05213" lon="5.3039">
        <ele>489</ele>
        <time>2013-05-05T09:16:13Z</time>
      </trkpt>
      <trkpt lat="50.05211" lon="5.30389">
        <ele>489</ele>
        <time>2013-05-05T09:16:23Z</time>
      </trkpt>
      <trkpt lat="50.05209" lon="5.30393">
        <ele>489</ele>
        <time>2013-05-05T09:16:34Z</time>
      </trkpt>
      <trkpt lat="50.05207" lon="5.30399">
        <ele>489</ele>
        <time>2013-05-05T09:16:44Z</time>
      </trkpt>
      <trkpt lat="50.05206" lon="5.30407">
        <ele>489</ele>
        <time>2013-05-05T09:16:54Z</time>
      </trkpt>
      <trkpt lat="50.05204" lon="5.30414">
        <ele>489</ele>
        <time>2013-05-05T09:17:04Z</time>
      </trkpt>
      <trkpt lat="50.05202" lon="5.30417">
        <ele>489</ele>
        <time>2013-05-05T09:17:14Z</time>
      </trkpt>
      <trkpt lat="50.05203" lon="5.30414">
        <ele>489</ele>
        <time>2013-05-05T09:17:24Z</time>
      </trkpt>
      <trkpt lat="50.052" lon="5.30413">
        <ele>489</ele>
        <time>2013-05-05T09:17:34Z</time>
      </trkpt>
      <trkpt lat="50.05197" lon="5.30414">
        <ele>489</ele>
        <time>2013-05-05T09:17:44Z</time>
      </trkpt>
      <trkpt lat="50.05193" lon="5.30413">
        <ele>489</ele>
        <time>2013-05-05T09:17:54Z</time>
      </trkpt>
      <trkpt lat="50.05191" lon="5.30411">
        <ele>489</ele>
        <time>2013-05-05T09:18:04Z</time>
      </trkpt>
      <trkpt lat="50.05195" lon="5.30414">
        <ele>489</ele>
        <time>2013-05-05T09:18:14Z</time>
      </trkpt>
      <trkpt lat="50.05197" lon="5.30419">
        <ele>489</ele>
        <time>2013-05-05T09:18:24Z</time>
      </trkpt>
      <trkpt lat="50.05198" lon="5.30419">
        <ele>489</ele>
        <time>2013-05-05T09:18:34Z</time>
      </trkpt>
      <trkpt lat="50.05199" lon="5.30421">
        <ele>488</ele>
        <time>2013-05-05T09:18:45Z</time>
      </trkpt>
      <trkpt lat="50.052" lon="5.30421">
        <ele>488</ele>
        <time>2013-05-05T09:18:55Z</time>
      </trkpt>
      <trkpt lat="50.05201" lon="5.30412">
        <ele>489</ele>
        <time>2013-05-05T09:19:05Z</time>
      </trkpt>
      <trkpt lat="50.05199" lon="5.30404">
        <ele>487</ele>
        <time>2013-05-05T09:19:15Z</time>
      </trkpt>
      <trkpt lat="50.05198" lon="5.304">
        <ele>488</ele>
        <time>2013-05-05T09:19:25Z</time>
      </trkpt>
      <trkpt lat="50.05198" lon="5.30401">
        <ele>489</ele>
        <time>2013-05-05T09:19:35Z</time>
      </trkpt>
      <trkpt lat="50.05199" lon="5.30407">
        <ele>489</ele>
        <time>2013-05-05T09:19:45Z</time>
      </trkpt>
      <trkpt lat="50.05199" lon="5.30412">
        <ele>488</ele>
        <time>2013-05-05T09:19:55Z</time>
      </trkpt>
      <trkpt lat="50.05199" lon="5.30416">
        <ele>489</ele>
        <time>2013-05-05T09:20:05Z</time>
      </trkpt>
      <trkpt lat="50.052" lon="5.30418">
        <ele>488</ele>
        <time>2013-05-05T09:20:15Z</time>
      </trkpt>
      <trkpt lat="50.05201" lon="5.30419">
        <ele>488</ele>
        <time>2013-05-05T09:20:25Z</time>
      </trkpt>
      <trkpt lat="50.05201" lon="5.30419">
        <ele>489</ele>
        <time>2013-05-05T09:20:36Z</time>
      </trkpt>
      <trkpt lat="50.05201" lon="5.3042">
        <ele>489</ele>
        <time>2013-05-05T09:20:46Z</time>
      </trkpt>
      <trkpt lat="50.05198" lon="5.30422">
        <ele>489</ele>
        <time>2013-05-05T09:20:56Z</time>
      </trkpt>
      <trkpt lat="50.05198" lon="5.30423">
        <ele>489</ele>
        <time>2013-05-05T09:21:06Z</time>
      </trkpt>
      <trkpt lat="50.05198" lon="5.30426">
        <ele>489</ele>
        <time>2013-05-05T09:21:16Z</time>
      </trkpt>
      <trkpt lat="50.05199" lon="5.30424">
        <ele>489</ele>
        <time>2013-05-05T09:21:26Z</time>
      </trkpt>
      <trkpt lat="50.05202" lon="5.30425">
        <ele>489</ele>
        <time>2013-05-05T09:21:36Z</time>
      </trkpt>
      <trkpt lat="50.05207" lon="5.30416">
        <ele>489</ele>
        <time>2013-05-05T09:21:46Z</time>
      </trkpt>
      <trkpt lat="50.05208" lon="5.30407">
        <ele>490</ele>
        <time>2013-05-05T09:21:56Z</time>
      </trkpt>
      <trkpt lat="50.05208" lon="5.304">
        <ele>489</ele>
        <time>2013-05-05T09:22:06Z</time>
      </trkpt>
      <trkpt lat="50.05209" lon="5.30395">
        <ele>489</ele>
        <time>2013-05-05T09:22:16Z</time>
      </trkpt>
      <trkpt lat="50.0521" lon="5.30392">
        <ele>489</ele>
        <time>2013-05-05T09:22:26Z</time>
      </trkpt>
      <trkpt lat="50.05209" lon="5.3039">
        <ele>489</ele>
        <time>2013-05-05T09:22:36Z</time>
      </trkpt>
      <trkpt lat="50.05211" lon="5.30389">
        <ele>489</ele>
        <time>2013-05-05T09:22:47Z</time>
      </trkpt>
      <trkpt lat="50.05211" lon="5.30387">
        <ele>490</ele>
        <time>2013-05-05T09:22:57Z</time>
      </trkpt>
      <trkpt lat="50.05212" lon="5.30395">
        <ele>489</ele>
        <time>2013-05-05T09:23:07Z</time>
      </trkpt>
      <trkpt lat="50.05216" lon="5.30412">
        <ele>490</ele>
        <time>2013-05-05T09:23:17Z</time>
      </trkpt>
      <trkpt lat="50.05219" lon="5.30428">
        <ele>489</ele>
        <time>2013-05-05T09:23:27Z</time>
      </trkpt>
      <trkpt lat="50.05222" lon="5.30447">
        <ele>490</ele>
        <time>2013-05-05T09:23:37Z</time>
      </trkpt>
      <trkpt lat="50.05226" lon="5.30463">
        <ele>491</ele>
        <time>2013-05-05T09:23:47Z</time>
      </trkpt>
      <trkpt lat="50.05228" lon="5.30479">
        <ele>492</ele>
        <time>2013-05-05T09:23:57Z</time>
      </trkpt>
      <trkpt lat="50.0523" lon="5.30496">
        <ele>492</ele>
        <time>2013-05-05T09:24:07Z</time>
      </trkpt>
      <trkpt lat="50.05232" lon="5.30512">
        <ele>492</ele>
        <time>2013-05-05T09:24:17Z</time>
      </trkpt>
      <trkpt lat="50.05235" lon="5.30527">
        <ele>493</ele>
        <time>2013-05-05T09:24:27Z</time>
      </trkpt>
      <trkpt lat="50.05236" lon="5.30541">
        <ele>494</ele>
        <time>2013-05-05T09:24:37Z</time>
      </trkpt>
      <trkpt lat="50.05239" lon="5.3056">
        <ele>495</ele>
        <time>2013-05-05T09:24:47Z</time>
      </trkpt>
      <trkpt lat="50.05242" lon="5.30574">
        <ele>495</ele>
        <time>2013-05-05T09:24:57Z</time>
      </trkpt>
      <trkpt lat="50.05249" lon="5.3058">
        <ele>496</ele>
        <time>2013-05-05T09:25:07Z</time>
      </trkpt>
      <trkpt lat="50.05254" lon="5.30584">
        <ele>498</ele>
        <time>2013-05-05T09:25:18Z</time>
      </trkpt>
      <trkpt lat="50.05261" lon="5.30589">
        <ele>498</ele>
        <time>2013-05-05T09:25:28Z</time>
      </trkpt>
      <trkpt lat="50.05262" lon="5.30604">
        <ele>498</ele>
        <time>2013-05-05T09:25:38Z</time>
      </trkpt>
      <trkpt lat="50.05257" lon="5.3062">
        <ele>497</ele>
        <time>2013-05-05T09:25:48Z</time>
      </trkpt>
      <trkpt lat="50.05252" lon="5.30636">
        <ele>497</ele>
        <time>2013-05-05T09:25:58Z</time>
      </trkpt>
      <trkpt lat="50.05248" lon="5.30652">
        <ele>496</ele>
        <time>2013-05-05T09:26:08Z</time>
      </trkpt>
      <trkpt lat="50.05243" lon="5.30665">
        <ele>496</ele>
        <time>2013-05-05T09:26:18Z</time>
      </trkpt>
      <trkpt lat="50.05236" lon="5.30679">
        <ele>495</ele>
        <time>2013-05-05T09:26:28Z</time>
      </trkpt>
      <trkpt lat="50.0523" lon="5.30696">
        <ele>493</ele>
        <time>2013-05-05T09:26:38Z</time>
      </trkpt>
      <trkpt lat="50.05223" lon="5.30707">
        <ele>492</ele>
        <time>2013-05-05T09:26:48Z</time>
      </trkpt>
      <trkpt lat="50.05214" lon="5.30717">
        <ele>491</ele>
        <time>2013-05-05T09:26:58Z</time>
      </trkpt>
      <trkpt lat="50.05205" lon="5.30727">
        <ele>491</ele>
        <time>2013-05-05T09:27:08Z</time>
      </trkpt>
      <trkpt lat="50.05196" lon="5.30734">
        <ele>490</ele>
        <time>2013-05-05T09:27:18Z</time>
      </trkpt>
      <trkpt lat="50.05186" lon="5.30739">
        <ele>489</ele>
        <time>2013-05-05T09:27:28Z</time>
      </trkpt>
      <trkpt lat="50.05176" lon="5.30746">
        <ele>488</ele>
        <time>2013-05-05T09:27:38Z</time>
      </trkpt>
      <trkpt lat="50.05171" lon="5.30754">
        <ele>487</ele>
        <time>2013-05-05T09:27:49Z</time>
      </trkpt>
      <trkpt lat="50.05169" lon="5.30763">
        <ele>488</ele>
        <time>2013-05-05T09:27:59Z</time>
      </trkpt>
      <trkpt lat="50.05165" lon="5.30773">
        <ele>488</ele>
        <time>2013-05-05T09:28:09Z</time>
      </trkpt>
      <trkpt lat="50.05164" lon="5.30777">
        <ele>488</ele>
        <time>2013-05-05T09:28:19Z</time>
      </trkpt>
      <trkpt lat="50.05166" lon="5.30781">
        <ele>489</ele>
        <time>2013-05-05T09:28:29Z</time>
      </trkpt>
      <trkpt lat="50.05171" lon="5.30784">
        <ele>490</ele>
        <time>2013-05-05T09:28:39Z</time>
      </trkpt>
      <trkpt lat="50.05179" lon="5.30788">
        <ele>491</ele>
        <time>2013-05-05T09:28:49Z</time>
      </trkpt>
      <trkpt lat="50.05188" lon="5.30793">
        <ele>493</ele>
        <time>2013-05-05T09:28:59Z</time>
      </trkpt>
      <trkpt lat="50.05195" lon="5.30794">
        <ele>493</ele>
        <time>2013-05-05T09:29:09Z</time>
      </trkpt>
      <trkpt lat="50.05206" lon="5.30795">
        <ele>494</ele>
        <time>2013-05-05T09:29:19Z</time>
      </trkpt>
      <trkpt lat="50.05215" lon="5.30796">
        <ele>495</ele>
        <time>2013-05-05T09:29:30Z</time>
      </trkpt>
      <trkpt lat="50.05223" lon="5.30794">
        <ele>496</ele>
        <time>2013-05-05T09:29:40Z</time>
      </trkpt>
      <trkpt lat="50.05232" lon="5.30798">
        <ele>497</ele>
        <time>2013-05-05T09:29:50Z</time>
      </trkpt>
      <trkpt lat="50.0524" lon="5.30799">
        <ele>498</ele>
        <time>2013-05-05T09:30:00Z</time>
      </trkpt>
      <trkpt lat="50.05248" lon="5.308">
        <ele>499</ele>
        <time>2013-05-05T09:30:10Z</time>
      </trkpt>
      <trkpt lat="50.05256" lon="5.30801">
        <ele>501</ele>
        <time>2013-05-05T09:30:20Z</time>
      </trkpt>
      <trkpt lat="50.05265" lon="5.30803">
        <ele>501</ele>
        <time>2013-05-05T09:30:30Z</time>
      </trkpt>
      <trkpt lat="50.05275" lon="5.30806">
        <ele>502</ele>
        <time>2013-05-05T09:30:40Z</time>
      </trkpt>
      <trkpt lat="50.05281" lon="5.30807">
        <ele>503</ele>
        <time>2013-05-05T09:30:50Z</time>
      </trkpt>
      <trkpt lat="50.05289" lon="5.30808">
        <ele>503</ele>
        <time>2013-05-05T09:31:00Z</time>
      </trkpt>
      <trkpt lat="50.05299" lon="5.30809">
        <ele>504</ele>
        <time>2013-05-05T09:31:10Z</time>
      </trkpt>
      <trkpt lat="50.05309" lon="5.30812">
        <ele>504</ele>
        <time>2013-05-05T09:31:20Z</time>
      </trkpt>
      <trkpt lat="50.05315" lon="5.30815">
        <ele>505</ele>
        <time>2013-05-05T09:31:30Z</time>
      </trkpt>
      <trkpt lat="50.05325" lon="5.30817">
        <ele>506</ele>
        <time>2013-05-05T09:31:40Z</time>
      </trkpt>
      <trkpt lat="50.05333" lon="5.30818">
        <ele>506</ele>
        <time>2013-05-05T09:31:50Z</time>
      </trkpt>
      <trkpt lat="50.05343" lon="5.3082">
        <ele>507</ele>
        <time>2013-05-05T09:32:00Z</time>
      </trkpt>
      <trkpt lat="50.05351" lon="5.30825">
        <ele>507</ele>
        <time>2013-05-05T09:32:11Z</time>
      </trkpt>
      <trkpt lat="50.05361" lon="5.30828">
        <ele>508</ele>
        <time>2013-05-05T09:32:21Z</time>
      </trkpt>
      <trkpt lat="50.05369" lon="5.30831">
        <ele>509</ele>
        <time>2013-05-05T09:32:31Z</time>
      </trkpt>
      <trkpt lat="50.05379" lon="5.30835">
        <ele>510</ele>
        <time>2013-05-05T09:32:41Z</time>
      </trkpt>
      <trkpt lat="50.05389" lon="5.30836">
        <ele>510</ele>
        <time>2013-05-05T09:32:51Z</time>
      </trkpt>
      <trkpt lat="50.05397" lon="5.30835">
        <ele>511</ele>
        <time>2013-05-05T09:33:01Z</time>
      </trkpt>
      <trkpt lat="50.05407" lon="5.30834">
        <ele>511</ele>
        <time>2013-05-05T09:33:11Z</time>
      </trkpt>
      <trkpt lat="50.05418" lon="5.30831">
        <ele>511</ele>
        <time>2013-05-05T09:33:21Z</time>
      </trkpt>
      <trkpt lat="50.05427" lon="5.30832">
        <ele>511</ele>
        <time>2013-05-05T09:33:31Z</time>
      </trkpt>
      <trkpt lat="50.05439" lon="5.30837">
        <ele>511</ele>
        <time>2013-05-05T09:33:41Z</time>
      </trkpt>
      <trkpt lat="50.05448" lon="5.30845">
        <ele>511</ele>
        <time>2013-05-05T09:33:51Z</time>
      </trkpt>
      <trkpt lat="50.05457" lon="5.30851">
        <ele>511</ele>
        <time>2013-05-05T09:34:01Z</time>
      </trkpt>
      <trkpt lat="50.05468" lon="5.30859">
        <ele>511</ele>
        <time>2013-05-05T09:34:11Z</time>
      </trkpt>
      <trkpt lat="50.05478" lon="5.30867">
        <ele>511</ele>
        <time>2013-05-05T09:34:21Z</time>
      </trkpt>
      <trkpt lat="50.05485" lon="5.30872">
        <ele>511</ele>
        <time>2013-05-05T09:34:31Z</time>
      </trkpt>
      <trkpt lat="50.05491" lon="5.30879">
        <ele>512</ele>
        <time>2013-05-05T09:34:41Z</time>
      </trkpt>
      <trkpt lat="50.05494" lon="5.30882">
        <ele>511</ele>
        <time>2013-05-05T09:34:52Z</time>
      </trkpt>
      <trkpt lat="50.05495" lon="5.30885">
        <ele>511</ele>
        <time>2013-05-05T09:35:02Z</time>
      </trkpt>
      <trkpt lat="50.05497" lon="5.30889">
        <ele>512</ele>
        <time>2013-05-05T09:35:12Z</time>
      </trkpt>
      <trkpt lat="50.05507" lon="5.30893">
        <ele>512</ele>
        <time>2013-05-05T09:35:22Z</time>
      </trkpt>
      <trkpt lat="50.05514" lon="5.30897">
        <ele>511</ele>
        <time>2013-05-05T09:35:32Z</time>
      </trkpt>
      <trkpt lat="50.05521" lon="5.30901">
        <ele>511</ele>
        <time>2013-05-05T09:35:42Z</time>
      </trkpt>
      <trkpt lat="50.0553" lon="5.30908">
        <ele>511</ele>
        <time>2013-05-05T09:35:52Z</time>
      </trkpt>
      <trkpt lat="50.0554" lon="5.30916">
        <ele>511</ele>
        <time>2013-05-05T09:36:02Z</time>
      </trkpt>
      <trkpt lat="50.05548" lon="5.30926">
        <ele>510</ele>
        <time>2013-05-05T09:36:12Z</time>
      </trkpt>
      <trkpt lat="50.05557" lon="5.30934">
        <ele>510</ele>
        <time>2013-05-05T09:36:22Z</time>
      </trkpt>
      <trkpt lat="50.05567" lon="5.30944">
        <ele>510</ele>
        <time>2013-05-05T09:36:32Z</time>
      </trkpt>
      <trkpt lat="50.05577" lon="5.30952">
        <ele>509</ele>
        <time>2013-05-05T09:36:42Z</time>
      </trkpt>
      <trkpt lat="50.05587" lon="5.30961">
        <ele>509</ele>
        <time>2013-05-05T09:36:52Z</time>
      </trkpt>
      <trkpt lat="50.05597" lon="5.30971">
        <ele>509</ele>
        <time>2013-05-05T09:37:03Z</time>
      </trkpt>
      <trkpt lat="50.0561" lon="5.30979">
        <ele>509</ele>
        <time>2013-05-05T09:37:13Z</time>
      </trkpt>
      <trkpt lat="50.05619" lon="5.30988">
        <ele>508</ele>
        <time>2013-05-05T09:37:23Z</time>
      </trkpt>
      <trkpt lat="50.05626" lon="5.30996">
        <ele>509</ele>
        <time>2013-05-05T09:37:33Z</time>
      </trkpt>
      <trkpt lat="50.05634" lon="5.31001">
        <ele>508</ele>
        <time>2013-05-05T09:37:43Z</time>
      </trkpt>
      <trkpt lat="50.05647" lon="5.31011">
        <ele>508</ele>
        <time>2013-05-05T09:37:53Z</time>
      </trkpt>
      <trkpt lat="50.05658" lon="5.31023">
        <ele>508</ele>
        <time>2013-05-05T09:38:03Z</time>
      </trkpt>
      <trkpt lat="50.05668" lon="5.31032">
        <ele>508</ele>
        <time>2013-05-05T09:38:13Z</time>
      </trkpt>
      <trkpt lat="50.05678" lon="5.31041">
        <ele>508</ele>
        <time>2013-05-05T09:38:23Z</time>
      </trkpt>
      <trkpt lat="50.05688" lon="5.31051">
        <ele>508</ele>
        <time>2013-05-05T09:38:33Z</time>
      </trkpt>
      <trkpt lat="50.05698" lon="5.31058">
        <ele>508</ele>
        <time>2013-05-05T09:38:43Z</time>
      </trkpt>
      <trkpt lat="50.05707" lon="5.31063">
        <ele>508</ele>
        <time>2013-05-05T09:38:53Z</time>
      </trkpt>
      <trkpt lat="50.05716" lon="5.31063">
        <ele>508</ele>
        <time>2013-05-05T09:39:03Z</time>
      </trkpt>
      <trkpt lat="50.05724" lon="5.3107">
        <ele>509</ele>
        <time>2013-05-05T09:39:13Z</time>
      </trkpt>
      <trkpt lat="50.05736" lon="5.31076">
        <ele>508</ele>
        <time>2013-05-05T09:39:23Z</time>
      </trkpt>
      <trkpt lat="50.05745" lon="5.3108">
        <ele>508</ele>
        <time>2013-05-05T09:39:33Z</time>
      </trkpt>
      <trkpt lat="50.05755" lon="5.31084">
        <ele>507</ele>
        <time>2013-05-05T09:39:44Z</time>
      </trkpt>
      <trkpt lat="50.05767" lon="5.31089">
        <ele>507</ele>
        <time>2013-05-05T09:39:54Z</time>
      </trkpt>
      <trkpt lat="50.05778" lon="5.31093">
        <ele>507</ele>
        <time>2013-05-05T09:40:04Z</time>
      </trkpt>
      <trkpt lat="50.05788" lon="5.31096">
        <ele>507</ele>
        <time>2013-05-05T09:40:14Z</time>
      </trkpt>
      <trkpt lat="50.05799" lon="5.31102">
        <ele>506</ele>
        <time>2013-05-05T09:40:24Z</time>
      </trkpt>
      <trkpt lat="50.05811" lon="5.31107">
        <ele>506</ele>
        <time>2013-05-05T09:40:34Z</time>
      </trkpt>
      <trkpt lat="50.05811" lon="5.31112">
        <ele>506</ele>
        <time>2013-05-05T09:40:44Z</time>
      </trkpt>
      <trkpt lat="50.05818" lon="5.31115">
        <ele>506</ele>
        <time>2013-05-05T09:40:54Z</time>
      </trkpt>
      <trkpt lat="50.05828" lon="5.31121">
        <ele>506</ele>
        <time>2013-05-05T09:41:04Z</time>
      </trkpt>
      <trkpt lat="50.05837" lon="5.31126">
        <ele>505</ele>
        <time>2013-05-05T09:41:14Z</time>
      </trkpt>
      <trkpt lat="50.05845" lon="5.3113">
        <ele>505</ele>
        <time>2013-05-05T09:41:24Z</time>
      </trkpt>
      <trkpt lat="50.05855" lon="5.31137">
        <ele>505</ele>
        <time>2013-05-05T09:41:34Z</time>
      </trkpt>
      <trkpt lat="50.05866" lon="5.3114">
        <ele>505</ele>
        <time>2013-05-05T09:41:44Z</time>
      </trkpt>
      <trkpt lat="50.05877" lon="5.31137">
        <ele>504</ele>
        <time>2013-05-05T09:41:54Z</time>
      </trkpt>
      <trkpt lat="50.05887" lon="5.31134">
        <ele>503</ele>
        <time>2013-05-05T09:42:04Z</time>
      </trkpt>
      <trkpt lat="50.05897" lon="5.31133">
        <ele>502</ele>
        <time>2013-05-05T09:42:14Z</time>
      </trkpt>
      <trkpt lat="50.05909" lon="5.31131">
        <ele>501</ele>
        <time>2013-05-05T09:42:25Z</time>
      </trkpt>
      <trkpt lat="50.05919" lon="5.31128">
        <ele>500</ele>
        <time>2013-05-05T09:42:35Z</time>
      </trkpt>
      <trkpt lat="50.05928" lon="5.31124">
        <ele>498</ele>
        <time>2013-05-05T09:42:45Z</time>
      </trkpt>
      <trkpt lat="50.05936" lon="5.31128">
        <ele>497</ele>
        <time>2013-05-05T09:42:55Z</time>
      </trkpt>
      <trkpt lat="50.05939" lon="5.3113">
        <ele>497</ele>
        <time>2013-05-05T09:43:05Z</time>
      </trkpt>
      <trkpt lat="50.0594" lon="5.31132">
        <ele>497</ele>
        <time>2013-05-05T09:43:15Z</time>
      </trkpt>
      <trkpt lat="50.05943" lon="5.31135">
        <ele>497</ele>
        <time>2013-05-05T09:43:25Z</time>
      </trkpt>
      <trkpt lat="50.05949" lon="5.31134">
        <ele>497</ele>
        <time>2013-05-05T09:43:35Z</time>
      </trkpt>
      <trkpt lat="50.05958" lon="5.31135">
        <ele>496</ele>
        <time>2013-05-05T09:43:45Z</time>
      </trkpt>
      <trkpt lat="50.05965" lon="5.31134">
        <ele>495</ele>
        <time>2013-05-05T09:43:55Z</time>
      </trkpt>
      <trkpt lat="50.05971" lon="5.31126">
        <ele>493</ele>
        <time>2013-05-05T09:44:05Z</time>
      </trkpt>
      <trkpt lat="50.05976" lon="5.31116">
        <ele>492</ele>
        <time>2013-05-05T09:44:15Z</time>
      </trkpt>
      <trkpt lat="50.05984" lon="5.31111">
        <ele>492</ele>
        <time>2013-05-05T09:44:26Z</time>
      </trkpt>
      <trkpt lat="50.05993" lon="5.31114">
        <ele>490</ele>
        <time>2013-05-05T09:44:36Z</time>
      </trkpt>
      <trkpt lat="50.06002" lon="5.31126">
        <ele>490</ele>
        <time>2013-05-05T09:44:46Z</time>
      </trkpt>
      <trkpt lat="50.06013" lon="5.31139">
        <ele>489</ele>
        <time>2013-05-05T09:44:56Z</time>
      </trkpt>
      <trkpt lat="50.06023" lon="5.3115">
        <ele>488</ele>
        <time>2013-05-05T09:45:06Z</time>
      </trkpt>
      <trkpt lat="50.0603" lon="5.3116">
        <ele>487</ele>
        <time>2013-05-05T09:45:16Z</time>
      </trkpt>
      <trkpt lat="50.06036" lon="5.31171">
        <ele>485</ele>
        <time>2013-05-05T09:45:26Z</time>
      </trkpt>
      <trkpt lat="50.06042" lon="5.3118">
        <ele>485</ele>
        <time>2013-05-05T09:45:36Z</time>
      </trkpt>
      <trkpt lat="50.06047" lon="5.31188">
        <ele>484</ele>
        <time>2013-05-05T09:45:46Z</time>
      </trkpt>
      <trkpt lat="50.06053" lon="5.312">
        <ele>484</ele>
        <time>2013-05-05T09:45:56Z</time>
      </trkpt>
      <trkpt lat="50.0606" lon="5.3121">
        <ele>483</ele>
        <time>2013-05-05T09:46:06Z</time>
      </trkpt>
      <trkpt lat="50.06067" lon="5.31221">
        <ele>483</ele>
        <time>2013-05-05T09:46:16Z</time>
      </trkpt>
      <trkpt lat="50.06076" lon="5.3123">
        <ele>482</ele>
        <time>2013-05-05T09:46:26Z</time>
      </trkpt>
      <trkpt lat="50.06088" lon="5.31242">
        <ele>480</ele>
        <time>2013-05-05T09:46:36Z</time>
      </trkpt>
      <trkpt lat="50.06096" lon="5.31251">
        <ele>479</ele>
        <time>2013-05-05T09:46:47Z</time>
      </trkpt>
      <trkpt lat="50.06105" lon="5.3126">
        <ele>478</ele>
        <time>2013-05-05T09:46:57Z</time>
      </trkpt>
      <trkpt lat="50.06113" lon="5.3127">
        <ele>477</ele>
        <time>2013-05-05T09:47:07Z</time>
      </trkpt>
      <trkpt lat="50.06115" lon="5.31276">
        <ele>477</ele>
        <time>2013-05-05T09:47:17Z</time>
      </trkpt>
      <trkpt lat="50.06123" lon="5.31284">
        <ele>476</ele>
        <time>2013-05-05T09:47:27Z</time>
      </trkpt>
      <trkpt lat="50.06131" lon="5.31287">
        <ele>476</ele>
        <time>2013-05-05T09:47:37Z</time>
      </trkpt>
      <trkpt lat="50.06138" lon="5.31292">
        <ele>475</ele>
        <time>2013-05-05T09:47:47Z</time>
      </trkpt>
      <trkpt lat="50.06143" lon="5.31296">
        <ele>474</ele>
        <time>2013-05-05T09:47:57Z</time>
      </trkpt>
      <trkpt lat="50.06146" lon="5.31297">
        <ele>473</ele>
        <time>2013-05-05T09:48:07Z</time>
      </trkpt>
      <trkpt lat="50.06145" lon="5.31296">
        <ele>473</ele>
        <time>2013-05-05T09:48:17Z</time>
      </trkpt>
      <trkpt lat="50.06149" lon="5.31299">
        <ele>473</ele>
        <time>2013-05-05T09:48:27Z</time>
      </trkpt>
      <trkpt lat="50.06157" lon="5.31304">
        <ele>472</ele>
        <time>2013-05-05T09:48:37Z</time>
      </trkpt>
      <trkpt lat="50.06165" lon="5.31312">
        <ele>470</ele>
        <time>2013-05-05T09:48:48Z</time>
      </trkpt>
      <trkpt lat="50.06174" lon="5.31323">
        <ele>469</ele>
        <time>2013-05-05T09:48:58Z</time>
      </trkpt>
      <trkpt lat="50.06182" lon="5.31333">
        <ele>468</ele>
        <time>2013-05-05T09:49:08Z</time>
      </trkpt>
      <trkpt lat="50.0619" lon="5.31342">
        <ele>466</ele>
        <time>2013-05-05T09:49:18Z</time>
      </trkpt>
      <trkpt lat="50.06197" lon="5.31351">
        <ele>464</ele>
        <time>2013-05-05T09:49:28Z</time>
      </trkpt>
      <trkpt lat="50.06206" lon="5.31362">
        <ele>463</ele>
        <time>2013-05-05T09:49:38Z</time>
      </trkpt>
      <trkpt lat="50.06213" lon="5.31376">
        <ele>461</ele>
        <time>2013-05-05T09:49:48Z</time>
      </trkpt>
      <trkpt lat="50.0622" lon="5.31387">
        <ele>459</ele>
        <time>2013-05-05T09:49:58Z</time>
      </trkpt>
      <trkpt lat="50.06228" lon="5.31397">
        <ele>459</ele>
        <time>2013-05-05T09:50:08Z</time>
      </trkpt>
      <trkpt lat="50.06238" lon="5.31407">
        <ele>457</ele>
        <time>2013-05-05T09:50:18Z</time>
      </trkpt>
      <trkpt lat="50.06247" lon="5.31419">
        <ele>456</ele>
        <time>2013-05-05T09:50:28Z</time>
      </trkpt>
      <trkpt lat="50.06251" lon="5.31424">
        <ele>455</ele>
        <time>2013-05-05T09:50:38Z</time>
      </trkpt>
      <trkpt lat="50.06251" lon="5.31423">
        <ele>455</ele>
        <time>2013-05-05T09:50:48Z</time>
      </trkpt>
      <trkpt lat="50.06255" lon="5.31429">
        <ele>454</ele>
        <time>2013-05-05T09:50:58Z</time>
      </trkpt>
      <trkpt lat="50.06261" lon="5.31435">
        <ele>454</ele>
        <time>2013-05-05T09:51:08Z</time>
      </trkpt>
      <trkpt lat="50.06269" lon="5.31442">
        <ele>453</ele>
        <time>2013-05-05T09:51:18Z</time>
      </trkpt>
      <trkpt lat="50.06277" lon="5.31449">
        <ele>453</ele>
        <time>2013-05-05T09:51:28Z</time>
      </trkpt>
      <trkpt lat="50.06282" lon="5.31457">
        <ele>452</ele>
        <time>2013-05-05T09:51:38Z</time>
      </trkpt>
      <trkpt lat="50.06284" lon="5.31461">
        <ele>451</ele>
        <time>2013-05-05T09:51:48Z</time>
      </trkpt>
      <trkpt lat="50.06291" lon="5.31469">
        <ele>450</ele>
        <time>2013-05-05T09:51:59Z</time>
      </trkpt>
      <trkpt lat="50.06299" lon="5.31476">
        <ele>449</ele>
        <time>2013-05-05T09:52:09Z</time>
      </trkpt>
      <trkpt lat="50.06307" lon="5.31483">
        <ele>449</ele>
        <time>2013-05-05T09:52:19Z</time>
      </trkpt>
      <trkpt lat="50.06318" lon="5.3149">
        <ele>447</ele>
        <time>2013-05-05T09:52:29Z</time>
      </trkpt>
      <trkpt lat="50.06326" lon="5.31498">
        <ele>447</ele>
        <time>2013-05-05T09:52:39Z</time>
      </trkpt>
      <trkpt lat="50.06335" lon="5.31505">
        <ele>446</ele>
        <time>2013-05-05T09:52:49Z</time>
      </trkpt>
      <trkpt lat="50.06344" lon="5.31513">
        <ele>445</ele>
        <time>2013-05-05T09:52:59Z</time>
      </trkpt>
      <trkpt lat="50.06353" lon="5.31521">
        <ele>444</ele>
        <time>2013-05-05T09:53:09Z</time>
      </trkpt>
      <trkpt lat="50.06361" lon="5.3153">
        <ele>444</ele>
        <time>2013-05-05T09:53:19Z</time>
      </trkpt>
      <trkpt lat="50.06371" lon="5.3154">
        <ele>442</ele>
        <time>2013-05-05T09:53:29Z</time>
      </trkpt>
      <trkpt lat="50.06379" lon="5.31551">
        <ele>441</ele>
        <time>2013-05-05T09:53:39Z</time>
      </trkpt>
      <trkpt lat="50.06388" lon="5.31561">
        <ele>441</ele>
        <time>2013-05-05T09:53:49Z</time>
      </trkpt>
      <trkpt lat="50.06398" lon="5.31569">
        <ele>439</ele>
        <time>2013-05-05T09:53:59Z</time>
      </trkpt>
      <trkpt lat="50.06407" lon="5.31578">
        <ele>439</ele>
        <time>2013-05-05T09:54:09Z</time>
      </trkpt>
      <trkpt lat="50.06419" lon="5.31589">
        <ele>437</ele>
        <time>2013-05-05T09:54:19Z</time>
      </trkpt>
      <trkpt lat="50.0643" lon="5.31599">
        <ele>436</ele>
        <time>2013-05-05T09:54:29Z</time>
      </trkpt>
      <trkpt lat="50.0644" lon="5.31607">
        <ele>435</ele>
        <time>2013-05-05T09:54:40Z</time>
      </trkpt>
      <trkpt lat="50.06451" lon="5.31617">
        <ele>434</ele>
        <time>2013-05-05T09:54:50Z</time>
      </trkpt>
      <trkpt lat="50.06459" lon="5.31624">
        <ele>433</ele>
        <time>2013-05-05T09:55:00Z</time>
      </trkpt>
      <trkpt lat="50.0647" lon="5.31633">
        <ele>433</ele>
        <time>2013-05-05T09:55:10Z</time>
      </trkpt>
      <trkpt lat="50.0648" lon="5.31639">
        <ele>431</ele>
        <time>2013-05-05T09:55:20Z</time>
      </trkpt>
      <trkpt lat="50.06491" lon="5.31642">
        <ele>430</ele>
        <time>2013-05-05T09:55:30Z</time>
      </trkpt>
      <trkpt lat="50.06503" lon="5.31647">
        <ele>430</ele>
        <time>2013-05-05T09:55:40Z</time>
      </trkpt>
      <trkpt lat="50.06512" lon="5.31651">
        <ele>429</ele>
        <time>2013-05-05T09:55:50Z</time>
      </trkpt>
      <trkpt lat="50.06524" lon="5.31651">
        <ele>428</ele>
        <time>2013-05-05T09:56:00Z</time>
      </trkpt>
      <trkpt lat="50.06534" lon="5.31649">
        <ele>428</ele>
        <time>2013-05-05T09:56:10Z</time>
      </trkpt>
      <trkpt lat="50.06546" lon="5.31649">
        <ele>427</ele>
        <time>2013-05-05T09:56:20Z</time>
      </trkpt>
      <trkpt lat="50.06559" lon="5.31645">
        <ele>427</ele>
        <time>2013-05-05T09:56:30Z</time>
      </trkpt>
      <trkpt lat="50.06571" lon="5.31641">
        <ele>426</ele>
        <time>2013-05-05T09:56:40Z</time>
      </trkpt>
      <trkpt lat="50.06581" lon="5.31637">
        <ele>426</ele>
        <time>2013-05-05T09:56:50Z</time>
      </trkpt>
      <trkpt lat="50.06591" lon="5.31631">
        <ele>426</ele>
        <time>2013-05-05T09:57:00Z</time>
      </trkpt>
      <trkpt lat="50.06602" lon="5.31625">
        <ele>425</ele>
        <time>2013-05-05T09:57:10Z</time>
      </trkpt>
      <trkpt lat="50.06612" lon="5.31615">
        <ele>424</ele>
        <time>2013-05-05T09:57:20Z</time>
      </trkpt>
      <trkpt lat="50.06622" lon="5.31603">
        <ele>424</ele>
        <time>2013-05-05T09:57:30Z</time>
      </trkpt>
      <trkpt lat="50.06628" lon="5.31595">
        <ele>423</ele>
        <time>2013-05-05T09:57:40Z</time>
      </trkpt>
      <trkpt lat="50.06635" lon="5.31587">
        <ele>423</ele>
        <time>2013-05-05T09:57:51Z</time>
      </trkpt>
      <trkpt lat="50.06644" lon="5.31576">
        <ele>422</ele>
        <time>2013-05-05T09:58:01Z</time>
      </trkpt>
      <trkpt lat="50.06654" lon="5.31563">
        <ele>422</ele>
        <time>2013-05-05T09:58:11Z</time>
      </trkpt>
      <trkpt lat="50.06662" lon="5.31552">
        <ele>421</ele>
        <time>2013-05-05T09:58:21Z</time>
      </trkpt>
      <trkpt lat="50.06669" lon="5.3154">
        <ele>421</ele>
        <time>2013-05-05T09:58:31Z</time>
      </trkpt>
      <trkpt lat="50.06673" lon="5.31533">
        <ele>420</ele>
        <time>2013-05-05T09:58:41Z</time>
      </trkpt>
      <trkpt lat="50.0668" lon="5.31522">
        <ele>420</ele>
        <time>2013-05-05T09:58:51Z</time>
      </trkpt>
      <trkpt lat="50.06688" lon="5.31508">
        <ele>420</ele>
        <time>2013-05-05T09:59:01Z</time>
      </trkpt>
      <trkpt lat="50.06695" lon="5.31494">
        <ele>419</ele>
        <time>2013-05-05T09:59:11Z</time>
      </trkpt>
      <trkpt lat="50.06703" lon="5.31483">
        <ele>418</ele>
        <time>2013-05-05T09:59:21Z</time>
      </trkpt>
      <trkpt lat="50.06713" lon="5.31473">
        <ele>418</ele>
        <time>2013-05-05T09:59:31Z</time>
      </trkpt>
      <trkpt lat="50.06723" lon="5.31461">
        <ele>417</ele>
        <time>2013-05-05T09:59:42Z</time>
      </trkpt>
      <trkpt lat="50.06731" lon="5.31457">
        <ele>417</ele>
        <time>2013-05-05T09:59:52Z</time>
      </trkpt>
      <trkpt lat="50.06742" lon="5.31447">
        <ele>416</ele>
        <time>2013-05-05T10:00:02Z</time>
      </trkpt>
      <trkpt lat="50.06751" lon="5.31436">
        <ele>415</ele>
        <time>2013-05-05T10:00:12Z</time>
      </trkpt>
      <trkpt lat="50.0676" lon="5.31426">
        <ele>414</ele>
        <time>2013-05-05T10:00:22Z</time>
      </trkpt>
      <trkpt lat="50.0677" lon="5.31415">
        <ele>413</ele>
        <time>2013-05-05T10:00:32Z</time>
      </trkpt>
      <trkpt lat="50.06781" lon="5.31404">
        <ele>412</ele>
        <time>2013-05-05T10:00:42Z</time>
      </trkpt>
      <trkpt lat="50.06791" lon="5.31394">
        <ele>412</ele>
        <time>2013-05-05T10:00:52Z</time>
      </trkpt>
      <trkpt lat="50.068" lon="5.31382">
        <ele>410</ele>
        <time>2013-05-05T10:01:02Z</time>
      </trkpt>
      <trkpt lat="50.06809" lon="5.31371">
        <ele>410</ele>
        <time>2013-05-05T10:01:12Z</time>
      </trkpt>
      <trkpt lat="50.0682" lon="5.31362">
        <ele>408</ele>
        <time>2013-05-05T10:01:22Z</time>
      </trkpt>
      <trkpt lat="50.06829" lon="5.31353">
        <ele>407</ele>
        <time>2013-05-05T10:01:32Z</time>
      </trkpt>
      <trkpt lat="50.06838" lon="5.31339">
        <ele>407</ele>
        <time>2013-05-05T10:01:43Z</time>
      </trkpt>
      <trkpt lat="50.06848" lon="5.31329">
        <ele>405</ele>
        <time>2013-05-05T10:01:53Z</time>
      </trkpt>
      <trkpt lat="50.06858" lon="5.31319">
        <ele>404</ele>
        <time>2013-05-05T10:02:03Z</time>
      </trkpt>
      <trkpt lat="50.06868" lon="5.3131">
        <ele>403</ele>
        <time>2013-05-05T10:02:13Z</time>
      </trkpt>
      <trkpt lat="50.06877" lon="5.31301">
        <ele>402</ele>
        <time>2013-05-05T10:02:23Z</time>
      </trkpt>
      <trkpt lat="50.06889" lon="5.31291">
        <ele>401</ele>
        <time>2013-05-05T10:02:33Z</time>
      </trkpt>
      <trkpt lat="50.06899" lon="5.31281">
        <ele>400</ele>
        <time>2013-05-05T10:02:43Z</time>
      </trkpt>
      <trkpt lat="50.06911" lon="5.31271">
        <ele>398</ele>
        <time>2013-05-05T10:02:53Z</time>
      </trkpt>
      <trkpt lat="50.06923" lon="5.3126">
        <ele>397</ele>
        <time>2013-05-05T10:03:03Z</time>
      </trkpt>
      <trkpt lat="50.06936" lon="5.3125">
        <ele>396</ele>
        <time>2013-05-05T10:03:13Z</time>
      </trkpt>
      <trkpt lat="50.06947" lon="5.31239">
        <ele>395</ele>
        <time>2013-05-05T10:03:23Z</time>
      </trkpt>
      <trkpt lat="50.06958" lon="5.31229">
        <ele>393</ele>
        <time>2013-05-05T10:03:33Z</time>
      </trkpt>
      <trkpt lat="50.06971" lon="5.31221">
        <ele>392</ele>
        <time>2013-05-05T10:03:43Z</time>
      </trkpt>
      <trkpt lat="50.06982" lon="5.31217">
        <ele>391</ele>
        <time>2013-05-05T10:03:53Z</time>
      </trkpt>
      <trkpt lat="50.06993" lon="5.31216">
        <ele>390</ele>
        <time>2013-05-05T10:04:03Z</time>
      </trkpt>
      <trkpt lat="50.07006" lon="5.31216">
        <ele>388</ele>
        <time>2013-05-05T10:04:13Z</time>
      </trkpt>
      <trkpt lat="50.07018" lon="5.31213">
        <ele>388</ele>
        <time>2013-05-05T10:04:24Z</time>
      </trkpt>
      <trkpt lat="50.0703" lon="5.3121">
        <ele>387</ele>
        <time>2013-05-05T10:04:34Z</time>
      </trkpt>
      <trkpt lat="50.07036" lon="5.31206">
        <ele>388</ele>
        <time>2013-05-05T10:04:44Z</time>
      </trkpt>
      <trkpt lat="50.07035" lon="5.31209">
        <ele>387</ele>
        <time>2013-05-05T10:04:54Z</time>
      </trkpt>
      <trkpt lat="50.07038" lon="5.31212">
        <ele>388</ele>
        <time>2013-05-05T10:05:04Z</time>
      </trkpt>
      <trkpt lat="50.07042" lon="5.31212">
        <ele>387</ele>
        <time>2013-05-05T10:05:14Z</time>
      </trkpt>
      <trkpt lat="50.07046" lon="5.31212">
        <ele>388</ele>
        <time>2013-05-05T10:05:24Z</time>
      </trkpt>
      <trkpt lat="50.07045" lon="5.31213">
        <ele>388</ele>
        <time>2013-05-05T10:05:34Z</time>
      </trkpt>
      <trkpt lat="50.07053" lon="5.31209">
        <ele>388</ele>
        <time>2013-05-05T10:05:44Z</time>
      </trkpt>
      <trkpt lat="50.07059" lon="5.31208">
        <ele>388</ele>
        <time>2013-05-05T10:05:54Z</time>
      </trkpt>
      <trkpt lat="50.0706" lon="5.31208">
        <ele>388</ele>
        <time>2013-05-05T10:06:04Z</time>
      </trkpt>
      <trkpt lat="50.07059" lon="5.31209">
        <ele>388</ele>
        <time>2013-05-05T10:06:14Z</time>
      </trkpt>
      <trkpt lat="50.07054" lon="5.31212">
        <ele>387</ele>
        <time>2013-05-05T10:06:24Z</time>
      </trkpt>
      <trkpt lat="50.07048" lon="5.31215">
        <ele>388</ele>
        <time>2013-05-05T10:06:34Z</time>
      </trkpt>
      <trkpt lat="50.07044" lon="5.31219">
        <ele>387</ele>
        <time>2013-05-05T10:06:44Z</time>
      </trkpt>
      <trkpt lat="50.07041" lon="5.31223">
        <ele>387</ele>
        <time>2013-05-05T10:06:54Z</time>
      </trkpt>
      <trkpt lat="50.07041" lon="5.31225">
        <ele>388</ele>
        <time>2013-05-05T10:07:04Z</time>
      </trkpt>
      <trkpt lat="50.07047" lon="5.31214">
        <ele>387</ele>
        <time>2013-05-05T10:07:14Z</time>
      </trkpt>
      <trkpt lat="50.07053" lon="5.312">
        <ele>387</ele>
        <time>2013-05-05T10:07:24Z</time>
      </trkpt>
      <trkpt lat="50.07059" lon="5.31179">
        <ele>388</ele>
        <time>2013-05-05T10:07:35Z</time>
      </trkpt>
      <trkpt lat="50.07064" lon="5.31163">
        <ele>389</ele>
        <time>2013-05-05T10:07:45Z</time>
      </trkpt>
      <trkpt lat="50.07066" lon="5.31147">
        <ele>389</ele>
        <time>2013-05-05T10:07:55Z</time>
      </trkpt>
      <trkpt lat="50.07069" lon="5.31131">
        <ele>389</ele>
        <time>2013-05-05T10:08:05Z</time>
      </trkpt>
      <trkpt lat="50.07072" lon="5.31115">
        <ele>390</ele>
        <time>2013-05-05T10:08:15Z</time>
      </trkpt>
      <trkpt lat="50.07074" lon="5.31097">
        <ele>391</ele>
        <time>2013-05-05T10:08:25Z</time>
      </trkpt>
      <trkpt lat="50.07075" lon="5.3108">
        <ele>391</ele>
        <time>2013-05-05T10:08:35Z</time>
      </trkpt>
      <trkpt lat="50.07075" lon="5.31062">
        <ele>392</ele>
        <time>2013-05-05T10:08:45Z</time>
      </trkpt>
      <trkpt lat="50.07076" lon="5.31045">
        <ele>393</ele>
        <time>2013-05-05T10:08:55Z</time>
      </trkpt>
      <trkpt lat="50.07076" lon="5.31029">
        <ele>394</ele>
        <time>2013-05-05T10:09:05Z</time>
      </trkpt>
      <trkpt lat="50.07076" lon="5.31013">
        <ele>395</ele>
        <time>2013-05-05T10:09:16Z</time>
      </trkpt>
      <trkpt lat="50.07077" lon="5.30996">
        <ele>396</ele>
        <time>2013-05-05T10:09:26Z</time>
      </trkpt>
      <trkpt lat="50.07077" lon="5.30977">
        <ele>396</ele>
        <time>2013-05-05T10:09:36Z</time>
      </trkpt>
      <trkpt lat="50.07078" lon="5.30962">
        <ele>397</ele>
        <time>2013-05-05T10:09:46Z</time>
      </trkpt>
      <trkpt lat="50.07082" lon="5.30949">
        <ele>398</ele>
        <time>2013-05-05T10:09:56Z</time>
      </trkpt>
      <trkpt lat="50.07085" lon="5.30937">
        <ele>399</ele>
        <time>2013-05-05T10:10:06Z</time>
      </trkpt>
      <trkpt lat="50.07089" lon="5.30924">
        <ele>400</ele>
        <time>2013-05-05T10:10:16Z</time>
      </trkpt>
      <trkpt lat="50.07092" lon="5.30907">
        <ele>402</ele>
        <time>2013-05-05T10:10:26Z</time>
      </trkpt>
      <trkpt lat="50.07095" lon="5.3089">
        <ele>403</ele>
        <time>2013-05-05T10:10:36Z</time>
      </trkpt>
      <trkpt lat="50.071" lon="5.30873">
        <ele>404</ele>
        <time>2013-05-05T10:10:46Z</time>
      </trkpt>
      <trkpt lat="50.07106" lon="5.30862">
        <ele>404</ele>
        <time>2013-05-05T10:10:56Z</time>
      </trkpt>
      <trkpt lat="50.07111" lon="5.30847">
        <ele>405</ele>
        <time>2013-05-05T10:11:06Z</time>
      </trkpt>
      <trkpt lat="50.07119" lon="5.30834">
        <ele>406</ele>
        <time>2013-05-05T10:11:16Z</time>
      </trkpt>
      <trkpt lat="50.07127" lon="5.30821">
        <ele>406</ele>
        <time>2013-05-05T10:11:26Z</time>
      </trkpt>
      <trkpt lat="50.07136" lon="5.3081">
        <ele>407</ele>
        <time>2013-05-05T10:11:37Z</time>
      </trkpt>
      <trkpt lat="50.07143" lon="5.30799">
        <ele>407</ele>
        <time>2013-05-05T10:11:47Z</time>
      </trkpt>
      <trkpt lat="50.07154" lon="5.30789">
        <ele>407</ele>
        <time>2013-05-05T10:11:57Z</time>
      </trkpt>
      <trkpt lat="50.07162" lon="5.3078">
        <ele>406</ele>
        <time>2013-05-05T10:12:07Z</time>
      </trkpt>
      <trkpt lat="50.0717" lon="5.30769">
        <ele>405</ele>
        <time>2013-05-05T10:12:17Z</time>
      </trkpt>
      <trkpt lat="50.07177" lon="5.30757">
        <ele>405</ele>
        <time>2013-05-05T10:12:27Z</time>
      </trkpt>
      <trkpt lat="50.07184" lon="5.30747">
        <ele>404</ele>
        <time>2013-05-05T10:12:37Z</time>
      </trkpt>
      <trkpt lat="50.07191" lon="5.30733">
        <ele>404</ele>
        <time>2013-05-05T10:12:47Z</time>
      </trkpt>
      <trkpt lat="50.07198" lon="5.30722">
        <ele>403</ele>
        <time>2013-05-05T10:12:57Z</time>
      </trkpt>
      <trkpt lat="50.07205" lon="5.30713">
        <ele>402</ele>
        <time>2013-05-05T10:13:08Z</time>
      </trkpt>
      <trkpt lat="50.07212" lon="5.307">
        <ele>401</ele>
        <time>2013-05-05T10:13:18Z</time>
      </trkpt>
      <trkpt lat="50.07222" lon="5.3069">
        <ele>400</ele>
        <time>2013-05-05T10:13:28Z</time>
      </trkpt>
      <trkpt lat="50.07233" lon="5.3068">
        <ele>399</ele>
        <time>2013-05-05T10:13:38Z</time>
      </trkpt>
      <trkpt lat="50.07243" lon="5.30667">
        <ele>399</ele>
        <time>2013-05-05T10:13:48Z</time>
      </trkpt>
      <trkpt lat="50.07253" lon="5.30656">
        <ele>398</ele>
        <time>2013-05-05T10:13:58Z</time>
      </trkpt>
      <trkpt lat="50.07261" lon="5.30646">
        <ele>397</ele>
        <time>2013-05-05T10:14:08Z</time>
      </trkpt>
      <trkpt lat="50.07266" lon="5.3064">
        <ele>397</ele>
        <time>2013-05-05T10:14:18Z</time>
      </trkpt>
      <trkpt lat="50.07274" lon="5.30633">
        <ele>397</ele>
        <time>2013-05-05T10:14:28Z</time>
      </trkpt>
      <trkpt lat="50.07285" lon="5.30625">
        <ele>395</ele>
        <time>2013-05-05T10:14:38Z</time>
      </trkpt>
      <trkpt lat="50.07297" lon="5.3062">
        <ele>395</ele>
        <time>2013-05-05T10:14:48Z</time>
      </trkpt>
      <trkpt lat="50.07308" lon="5.30614">
        <ele>396</ele>
        <time>2013-05-05T10:14:58Z</time>
      </trkpt>
      <trkpt lat="50.07312" lon="5.30611">
        <ele>396</ele>
        <time>2013-05-05T10:15:08Z</time>
      </trkpt>
      <trkpt lat="50.07315" lon="5.3061">
        <ele>396</ele>
        <time>2013-05-05T10:15:18Z</time>
      </trkpt>
      <trkpt lat="50.07316" lon="5.30612">
        <ele>395</ele>
        <time>2013-05-05T10:15:28Z</time>
      </trkpt>
      <trkpt lat="50.07318" lon="5.3061">
        <ele>395</ele>
        <time>2013-05-05T10:15:39Z</time>
      </trkpt>
      <trkpt lat="50.0732" lon="5.30613">
        <ele>395</ele>
        <time>2013-05-05T10:15:49Z</time>
      </trkpt>
      <trkpt lat="50.07323" lon="5.30611">
        <ele>395</ele>
        <time>2013-05-05T10:15:59Z</time>
      </trkpt>
      <trkpt lat="50.07333" lon="5.30613">
        <ele>396</ele>
        <time>2013-05-05T10:16:09Z</time>
      </trkpt>
      <trkpt lat="50.07336" lon="5.30612">
        <ele>395</ele>
        <time>2013-05-05T10:16:10Z</time>
      </trkpt>
    </trkseg>
  </trk>
</gpx>